Darstellungsparameter: Aktuell verwendete Einstellungen:
Skalierung der Graphiken ... ?
xyx+y,   Skalierungsfaktor:      Skalierung: Modus: x, Faktor: 1
Darstellungszeitraum ... ?
Vom - - bis: - -   Zeitraum: 25.02.2019 - 24.05.2019
Min/Max/Avg-Anzeige ... ?
Zeige MMA aktuell
Zeige MMA Monat
Zeige MMA alles
Zeige --A aktuell
Zeige --A Monat
Zeige --A alles
Keine MMA-Anzeige
MMA:
Average (ber die Originaldaten)
MMA-Basis: 25.02.2019 - 24.05.2019
Quicknavigation für Darstellung... ?
Tage:      1T, 2T, 3T, 5T -1T -2T -3T -5T +1T +2T +3T +5T
Wochen: 1W, 2W, 3W -1W -2W -3W +1W +2W +3W
Monate: 1M, 3M, 6M -1M -3M -6M +1M +3M +6M
Jahre:    1J, 3J, 5J, 10J -1J -3J -5J -10J +1J +3J +5J +10J
Nutze für die Darstellung ... ?
Originaldaten oder Mittelwerte auf ...
Stundenbasis Tagesbasis Wochenbasis
Monatsbasis Jahresbasis      Datenbasis: Original-Daten
Darstellen als:
Statistik (Auto) Statistik J:M      Darstellung:
Zur Graphik,    zurück zur Übersicht aller Sensoren.
 
Tabellarische Datenbersicht: ?
 
Sensor: Nr:Datum:Temp:Abs-Feuchte:Windchill:Wind:
Aussen-T/F 1 25-02-2019 00:00:00 1.8 C 4.17 g/m*3 1.8 C 0 km/h
2 25-02-2019 00:05:00 1.8 C 4.22 g/m*3 1.8 C 0 km/h
3 25-02-2019 00:10:00 1.7 C 4.19 g/m*3 1.7 C 0 km/h
4 25-02-2019 00:15:00 1.4 C 4.11 g/m*3 1.4 C 0 km/h
5 25-02-2019 00:20:00 1.3 C 4.13 g/m*3 1.3 C 0 km/h
6 25-02-2019 00:25:00 1.2 C 4.16 g/m*3 1.2 C 0 km/h
7 25-02-2019 00:30:00 1.1 C 4.18 g/m*3 1.1 C 0 km/h
8 25-02-2019 00:35:00 0.9 C 4.12 g/m*3 0.9 C 0 km/h
9 25-02-2019 00:40:00 0.8 C 4.1 g/m*3 0.8 C 0 km/h
10 25-02-2019 00:45:00 0.7 C 4.12 g/m*3 0.7 C 0 km/h
11 25-02-2019 00:50:00 0.7 C 4.12 g/m*3 0.7 C 0 km/h
12 25-02-2019 00:55:00 0.7 C 4.12 g/m*3 0.7 C 0 km/h
13 25-02-2019 01:00:00 1 C 4.2 g/m*3 1 C 0 km/h
14 25-02-2019 01:05:00 1.2 C 4.21 g/m*3 1.2 C 0 km/h
15 25-02-2019 01:10:00 1.3 C 4.24 g/m*3 1.3 C 0 km/h
16 25-02-2019 01:15:00 1.1 C 4.18 g/m*3 1.1 C 0 km/h
17 25-02-2019 01:20:00 0.9 C 4.18 g/m*3 0.9 C 0 km/h
18 25-02-2019 01:25:00 0.9 C 4.18 g/m*3 0.9 C 0 km/h
19 25-02-2019 01:30:00 0.9 C 4.18 g/m*3 0.9 C 0 km/h
20 25-02-2019 01:35:00 1 C 4.2 g/m*3 1 C 0 km/h
21 25-02-2019 01:40:00 0.9 C 4.18 g/m*3 0.9 C 0 km/h
22 25-02-2019 01:45:00 0.7 C 4.12 g/m*3 0.7 C 0 km/h
23 25-02-2019 01:50:00 0.6 C 4.14 g/m*3 0.6 C 0 km/h
24 25-02-2019 01:55:00 0.6 C 4.19 g/m*3 0.6 C 0 km/h
25 25-02-2019 02:00:00 0.7 C 4.22 g/m*3 0.7 C 0 km/h
Sensor: Nr:Datum:Temp:Abs-Feuchte:Windchill:Wind:
Aussen-T/F 26 25-02-2019 02:05:00 0.6 C 4.14 g/m*3 0.6 C 0 km/h
27 25-02-2019 02:10:00 0.4 C 4.08 g/m*3 0.4 C 0 km/h
28 25-02-2019 02:15:00 0.3 C 4.11 g/m*3 0.3 C 0 km/h
29 25-02-2019 02:20:00 0.2 C 4.08 g/m*3 0.2 C 0 km/h
30 25-02-2019 02:25:00 0 C 4.02 g/m*3 0 C 0 km/h
31 25-02-2019 02:30:00 -0.1 C 4.04 g/m*3 -0.1 C 0 km/h
32 25-02-2019 02:35:00 -0.1 C 4.04 g/m*3 -0.1 C 0 km/h
33 25-02-2019 02:40:00 -0.2 C 4.06 g/m*3 -0.2 C 0 km/h
34 25-02-2019 02:45:00 -0.2 C 4.06 g/m*3 -0.2 C 0 km/h
35 25-02-2019 02:50:00 -0.1 C 4.09 g/m*3 -0.1 C 0 km/h
36 25-02-2019 02:55:00 0.1 C 4.15 g/m*3 0.1 C 0 km/h
37 25-02-2019 03:00:00 0.2 C 4.13 g/m*3 0.2 C 0 km/h
38 25-02-2019 03:05:00 0.3 C 4.16 g/m*3 0.3 C 0 km/h
39 25-02-2019 03:10:00 0.3 C 4.16 g/m*3 0.3 C 0 km/h
40 25-02-2019 03:15:00 0.3 C 4.11 g/m*3 0.3 C 0 km/h
41 25-02-2019 03:20:00 0.2 C 4.08 g/m*3 0.2 C 0 km/h
42 25-02-2019 03:25:00 0.1 C 4.05 g/m*3 0.1 C 0 km/h
43 25-02-2019 03:30:00 -0.1 C 3.99 g/m*3 -0.1 C 0 km/h
44 25-02-2019 03:35:00 -0.2 C 4.01 g/m*3 -0.2 C 0 km/h
45 25-02-2019 03:40:00 -0.2 C 4.06 g/m*3 -0.2 C 0 km/h
46 25-02-2019 03:45:00 -0.3 C 4.03 g/m*3 -0.3 C 0 km/h
47 25-02-2019 03:50:00 -0.3 C 4.03 g/m*3 -0.3 C 0 km/h
48 25-02-2019 03:55:00 -0.4 C 4.01 g/m*3 -0.4 C 0 km/h
49 25-02-2019 04:00:00 -0.5 C 3.98 g/m*3 -0.5 C 0 km/h
50 25-02-2019 04:05:00 -0.5 C 4.03 g/m*3 -0.5 C 0 km/h
Sensor: Nr:Datum:Temp:Abs-Feuchte:Windchill:Wind:
Aussen-T/F 51 25-02-2019 04:10:00 -0.5 C 4.03 g/m*3 -0.5 C 0 km/h
52 25-02-2019 04:15:00 -0.5 C 4.03 g/m*3 -0.5 C 0 km/h
53 25-02-2019 04:20:00 -0.6 C 4 g/m*3 -0.6 C 0 km/h
54 25-02-2019 04:25:00 -0.6 C 4 g/m*3 -0.6 C 0 km/h
55 25-02-2019 04:30:00 -0.6 C 4 g/m*3 -0.6 C 0 km/h
56 25-02-2019 04:35:00 -0.6 C 4 g/m*3 -0.6 C 0 km/h
57 25-02-2019 04:40:00 -0.6 C 4 g/m*3 -0.6 C 0 km/h
58 25-02-2019 04:45:00 -0.7 C 3.97 g/m*3 -0.7 C 0 km/h
59 25-02-2019 04:50:00 -0.7 C 4.02 g/m*3 -0.7 C 0 km/h
60 25-02-2019 04:55:00 -0.6 C 4.04 g/m*3 -0.6 C 0 km/h
61 25-02-2019 05:00:00 -0.6 C 4.04 g/m*3 -0.6 C 0 km/h
62 25-02-2019 05:05:00 -0.6 C 4.04 g/m*3 -0.6 C 0 km/h
63 25-02-2019 05:10:00 -0.6 C 4.04 g/m*3 -0.6 C 0 km/h
64 25-02-2019 05:15:00 -0.6 C 4.04 g/m*3 -0.6 C 0 km/h
65 25-02-2019 05:20:00 -0.7 C 4.02 g/m*3 -0.7 C 0 km/h
66 25-02-2019 05:25:00 -0.8 C 3.99 g/m*3 -0.8 C 0 km/h
67 25-02-2019 05:30:00 -0.8 C 3.99 g/m*3 -0.8 C 0 km/h
68 25-02-2019 05:35:00 -0.8 C 3.99 g/m*3 -0.8 C 0 km/h
69 25-02-2019 05:40:00 -0.9 C 3.96 g/m*3 -0.9 C 0 km/h
70 25-02-2019 05:45:00 -0.8 C 4.03 g/m*3 -0.8 C 3.2 km/h
71 25-02-2019 05:50:00 -0.7 C 4.06 g/m*3 -0.7 C 3.2 km/h
72 25-02-2019 05:55:00 -0.6 C 4.09 g/m*3 -0.6 C 1.6 km/h
73 25-02-2019 06:00:00 -0.6 C 4.09 g/m*3 -0.6 C 0 km/h
74 25-02-2019 06:05:00 -0.6 C 4.04 g/m*3 -0.6 C 0 km/h
75 25-02-2019 06:10:00 -0.7 C 4.02 g/m*3 -0.7 C 0 km/h
Sensor: Nr:Datum:Temp:Abs-Feuchte:Windchill:Wind:
Aussen-T/F 76 25-02-2019 06:15:00 -0.8 C 3.99 g/m*3 -0.8 C 0 km/h
77 25-02-2019 06:20:00 -0.8 C 4.03 g/m*3 -0.8 C 0 km/h
78 25-02-2019 06:25:00 -0.8 C 4.03 g/m*3 -0.8 C 0 km/h
79 25-02-2019 06:30:00 -0.9 C 4.01 g/m*3 -0.9 C 0 km/h
80 25-02-2019 06:35:00 -1 C 3.98 g/m*3 -1 C 0 km/h
81 25-02-2019 06:40:00 -1.1 C 3.95 g/m*3 -1.1 C 0 km/h
82 25-02-2019 06:45:00 -1.1 C 3.95 g/m*3 -1.1 C 0 km/h
83 25-02-2019 06:50:00 -1.1 C 4 g/m*3 -1.1 C 1.6 km/h
84 25-02-2019 06:55:00 -0.9 C 4.05 g/m*3 -0.9 C 0 km/h
85 25-02-2019 07:00:00 -0.9 C 4.01 g/m*3 -0.9 C 0 km/h
86 25-02-2019 07:05:00 -1 C 3.98 g/m*3 -1 C 0 km/h
87 25-02-2019 07:10:00 -1.1 C 3.95 g/m*3 -1.1 C 0 km/h
88 25-02-2019 07:15:00 -1.1 C 3.95 g/m*3 -1.1 C 0 km/h
89 25-02-2019 07:20:00 -1.2 C 3.92 g/m*3 -1.2 C 0 km/h
90 25-02-2019 07:25:00 -1.2 C 3.92 g/m*3 -1.2 C 0 km/h
91 25-02-2019 07:30:00 -1.3 C 3.9 g/m*3 -1.3 C 0 km/h
92 25-02-2019 07:35:00 -1.3 C 3.9 g/m*3 -1.3 C 0 km/h
93 25-02-2019 07:40:00 -1.3 C 3.9 g/m*3 -1.3 C 0 km/h
94 25-02-2019 07:45:00 -1.4 C 3.87 g/m*3 -1.4 C 0 km/h
95 25-02-2019 07:50:00 -1.4 C 3.91 g/m*3 -1.4 C 0 km/h
96 25-02-2019 07:55:00 -1.4 C 3.91 g/m*3 -1.4 C 0 km/h
97 25-02-2019 08:00:00 -1.4 C 3.91 g/m*3 -1.4 C 0 km/h
98 25-02-2019 08:05:00 -1.3 C 3.98 g/m*3 -1.3 C 0 km/h
99 25-02-2019 08:10:00 -1.2 C 4.01 g/m*3 -1.2 C 0 km/h
100 25-02-2019 08:15:00 -1.2 C 4.01 g/m*3 -1.2 C 0 km/h
Sensor: Nr:Datum:Temp:Abs-Feuchte:Windchill:Wind:
Aussen-T/F 101 25-02-2019 08:20:00 -1.2 C 3.97 g/m*3 -1.2 C 0 km/h
102 25-02-2019 08:25:00 -1.3 C 3.94 g/m*3 -1.3 C 0 km/h
103 25-02-2019 08:30:00 -1.2 C 4.01 g/m*3 -1.2 C 0 km/h
104 25-02-2019 08:35:00 -1.2 C 4.01 g/m*3 -1.2 C 0 km/h
105 25-02-2019 08:40:00 -1.1 C 4.04 g/m*3 -1.1 C 0 km/h
106 25-02-2019 08:45:00 -1.1 C 4.04 g/m*3 -1.1 C 0 km/h
107 25-02-2019 08:50:00 -1.1 C 4.04 g/m*3 -1.1 C 0 km/h
108 25-02-2019 08:55:00 -1.1 C 4.04 g/m*3 -1.1 C 0 km/h
109 25-02-2019 09:00:00 -0.9 C 4.1 g/m*3 -0.9 C 0 km/h
110 25-02-2019 09:05:00 -0.9 C 4.05 g/m*3 -0.9 C 0 km/h
111 25-02-2019 09:10:00 -0.9 C 4.05 g/m*3 -0.9 C 0 km/h
112 25-02-2019 09:15:00 -0.9 C 4.05 g/m*3 -0.9 C 0 km/h
113 25-02-2019 09:20:00 -0.8 C 4.08 g/m*3 -0.8 C 0 km/h
114 25-02-2019 09:25:00 -0.8 C 4.08 g/m*3 -0.8 C 0 km/h
115 25-02-2019 09:30:00 -0.7 C 4.11 g/m*3 -0.7 C 0 km/h
116 25-02-2019 09:35:00 -0.6 C 4.14 g/m*3 -0.6 C 0 km/h
117 25-02-2019 09:40:00 -0.6 C 4.14 g/m*3 -0.6 C 0 km/h
118 25-02-2019 09:45:00 -0.5 C 4.12 g/m*3 -0.5 C 0 km/h
119 25-02-2019 09:50:00 -0.4 C 4.15 g/m*3 -0.4 C 0 km/h
120 25-02-2019 09:55:00 -0.3 C 4.18 g/m*3 -0.3 C 0 km/h
121 25-02-2019 10:00:00 -0.3 C 4.18 g/m*3 -0.3 C 0 km/h
122 25-02-2019 10:05:00 -0.2 C 4.21 g/m*3 -0.2 C 0 km/h
123 25-02-2019 10:10:00 0 C 4.26 g/m*3 0 C 0 km/h
124 25-02-2019 10:15:00 0.1 C 4.24 g/m*3 0.1 C 0 km/h
125 25-02-2019 10:20:00 0.3 C 4.3 g/m*3 0.3 C 0 km/h
Sensor: Nr:Datum:Temp:Abs-Feuchte:Windchill:Wind:
Aussen-T/F 126 25-02-2019 10:25:00 0.5 C 4.36 g/m*3 0.5 C 0 km/h
127 25-02-2019 10:30:00 0.7 C 4.47 g/m*3 0.7 C 0 km/h
128 25-02-2019 10:35:00 1 C 4.52 g/m*3 1 C 0 km/h
129 25-02-2019 10:40:00 1.3 C 4.61 g/m*3 1.3 C 0 km/h
130 25-02-2019 10:45:00 1.7 C 4.74 g/m*3 1.7 C 0 km/h
131 25-02-2019 10:50:00 2.1 C 4.81 g/m*3 2.1 C 0 km/h
132 25-02-2019 10:55:00 2.6 C 4.92 g/m*3 2.6 C 0 km/h
133 25-02-2019 11:00:00 2.9 C 4.84 g/m*3 2.9 C 0 km/h
134 25-02-2019 11:05:00 3.3 C 4.91 g/m*3 3.3 C 1.6 km/h
135 25-02-2019 11:10:00 3.7 C 5.11 g/m*3 3.7 C 0 km/h
136 25-02-2019 11:15:00 3.9 C 4.99 g/m*3 3.9 C 0 km/h
137 25-02-2019 11:20:00 4.3 C 5.06 g/m*3 4.3 C 0 km/h
138 25-02-2019 11:25:00 4.6 C 5.1 g/m*3 4.6 C 1.6 km/h
139 25-02-2019 11:30:00 4.9 C 5.27 g/m*3 4.9 C 0 km/h
140 25-02-2019 11:35:00 5.1 C 5.27 g/m*3 5.1 C 3.2 km/h
141 25-02-2019 11:40:00 5.4 C 5.37 g/m*3 5.4 C 1.6 km/h
142 25-02-2019 11:45:00 5.8 C 5.44 g/m*3 5.8 C 3.2 km/h
143 25-02-2019 11:50:00 6 C 5.37 g/m*3 6 C 1.6 km/h
144 25-02-2019 11:55:00 6.2 C 5.29 g/m*3 6.2 C 0 km/h
145 25-02-2019 12:00:00 6.5 C 5.4 g/m*3 6.5 C 0 km/h
146 25-02-2019 12:05:00 6.8 C 5.51 g/m*3 6.8 C 1.6 km/h
147 25-02-2019 12:10:00 7.3 C 5.61 g/m*3 7.3 C 3.2 km/h
148 25-02-2019 12:15:00 7.7 C 5.68 g/m*3 7.7 C 3.2 km/h
149 25-02-2019 12:20:00 8.1 C 5.74 g/m*3 8.1 C 3.2 km/h
150 25-02-2019 12:25:00 8.4 C 5.85 g/m*3 8.4 C 1.6 km/h
Sensor: Nr:Datum:Temp:Abs-Feuchte:Windchill:Wind:
Aussen-T/F 151 25-02-2019 12:30:00 8.9 C 5.96 g/m*3 8.9 C 0 km/h
152 25-02-2019 12:35:00 9.5 C 6.01 g/m*3 9.5 C 0 km/h
153 25-02-2019 12:40:00 9.9 C 5.98 g/m*3 9.9 C 0 km/h
154 25-02-2019 12:45:00 10.3 C 5.94 g/m*3 10.3 C 0 km/h
155 25-02-2019 12:50:00 10.5 C 6.01 g/m*3 10.5 C 0 km/h
156 25-02-2019 12:55:00 10.6 C 5.95 g/m*3 10.6 C 0 km/h
157 25-02-2019 13:00:00 10.7 C 5.99 g/m*3 10.7 C 0 km/h
158 25-02-2019 13:05:00 11 C 6.21 g/m*3 11 C 0 km/h
159 25-02-2019 13:10:00 11.3 C 6.12 g/m*3 11.3 C 0 km/h
160 25-02-2019 13:15:00 11.6 C 5.51 g/m*3 11.6 C 0 km/h
161 25-02-2019 13:20:00 11.9 C 5.72 g/m*3 11.9 C 0 km/h
162 25-02-2019 13:25:00 12.3 C 5.1 g/m*3 12.3 C 0 km/h
163 25-02-2019 13:30:00 12.7 C 5.68 g/m*3 12.7 C 0 km/h
164 25-02-2019 13:35:00 13.1 C 5.71 g/m*3 13.1 C 0 km/h
165 25-02-2019 13:40:00 13.4 C 6.16 g/m*3 13.4 C 0 km/h
166 25-02-2019 13:45:00 13.8 C 6.08 g/m*3 13.8 C 0 km/h
167 25-02-2019 13:50:00 14.2 C 6.11 g/m*3 14.2 C 3.2 km/h
168 25-02-2019 13:55:00 14.6 C 6.01 g/m*3 14.6 C 0 km/h
169 25-02-2019 14:00:00 14.8 C 6.21 g/m*3 14.8 C 1.6 km/h
170 25-02-2019 14:05:00 14.9 C 6.12 g/m*3 14.9 C 1.6 km/h
171 25-02-2019 14:10:00 15 C 6.28 g/m*3 15 C 0 km/h
172 25-02-2019 14:15:00 15.1 C 6.19 g/m*3 15.1 C 1.6 km/h
173 25-02-2019 14:20:00 15 C 5.77 g/m*3 15 C 1.6 km/h
174 25-02-2019 14:25:00 14.9 C 5.74 g/m*3 14.9 C 3.2 km/h
175 25-02-2019 14:30:00 14.7 C 5.79 g/m*3 14.7 C 1.6 km/h
Sensor: Nr:Datum:Temp:Abs-Feuchte:Windchill:Wind:
Aussen-T/F 176 25-02-2019 14:35:00 14.6 C 5.76 g/m*3 14.6 C 0 km/h
177 25-02-2019 14:40:00 14.4 C 5.44 g/m*3 14.4 C 6.4 km/h
178 25-02-2019 14:45:00 14.4 C 5.69 g/m*3 14.4 C 0 km/h
179 25-02-2019 14:50:00 14.5 C 5.72 g/m*3 14.5 C 3.2 km/h
180 25-02-2019 14:55:00 14.6 C 6.01 g/m*3 14.6 C 1.6 km/h
181 25-02-2019 15:00:00 14.5 C 5.97 g/m*3 14.5 C 3.2 km/h
182 25-02-2019 15:05:00 14.5 C 5.72 g/m*3 14.5 C 4.8 km/h
183 25-02-2019 15:10:00 14.5 C 5.85 g/m*3 14.5 C 3.2 km/h
184 25-02-2019 15:15:00 14.4 C 6.18 g/m*3 14.4 C 1.6 km/h
185 25-02-2019 15:20:00 14.4 C 5.81 g/m*3 14.4 C 3.2 km/h
186 25-02-2019 15:25:00 14.3 C 6.02 g/m*3 14.3 C 1.6 km/h
187 25-02-2019 15:30:00 14.2 C 6.11 g/m*3 14.2 C 3.2 km/h
188 25-02-2019 15:35:00 14 C 6.15 g/m*3 14 C 0 km/h
189 25-02-2019 15:40:00 13.9 C 6.23 g/m*3 13.9 C 0 km/h
190 25-02-2019 15:45:00 13.8 C 6.2 g/m*3 13.8 C 0 km/h
191 25-02-2019 15:50:00 13.8 C 6.2 g/m*3 13.8 C 0 km/h
192 25-02-2019 15:55:00 13.8 C 6.08 g/m*3 13.8 C 0 km/h
193 25-02-2019 16:00:00 13.9 C 6.11 g/m*3 13.9 C 0 km/h
194 25-02-2019 16:05:00 13.9 C 6.11 g/m*3 13.9 C 0 km/h
195 25-02-2019 16:10:00 14.1 C 6.19 g/m*3 14.1 C 1.6 km/h
196 25-02-2019 16:15:00 14.1 C 5.58 g/m*3 14.1 C 4.8 km/h
197 25-02-2019 16:20:00 14.3 C 6.27 g/m*3 14.3 C 6.4 km/h
198 25-02-2019 16:25:00 14.5 C 5.97 g/m*3 14.5 C 4.8 km/h
199 25-02-2019 16:30:00 14.7 C 6.3 g/m*3 14.7 C 0 km/h
200 25-02-2019 16:35:00 14.7 C 6.3 g/m*3 14.7 C 0 km/h
Sensor: Nr:Datum:Temp:Abs-Feuchte:Windchill:Wind:
Aussen-T/F 201 25-02-2019 16:40:00 14.6 C 6.01 g/m*3 14.6 C 0 km/h
202 25-02-2019 16:45:00 14.6 C 6.13 g/m*3 14.6 C 3.2 km/h
203 25-02-2019 16:50:00 14.6 C 6.26 g/m*3 14.6 C 0 km/h
204 25-02-2019 16:55:00 14.5 C 6.22 g/m*3 14.5 C 4.8 km/h
205 25-02-2019 17:00:00 14.4 C 6.3 g/m*3 14.4 C 4.8 km/h
206 25-02-2019 17:05:00 14.2 C 6.23 g/m*3 14.2 C 3.2 km/h
207 25-02-2019 17:10:00 14.1 C 6.31 g/m*3 14.1 C 3.2 km/h
208 25-02-2019 17:15:00 13.9 C 6.23 g/m*3 13.9 C 4.8 km/h
209 25-02-2019 17:20:00 13.7 C 6.28 g/m*3 13.7 C 6.4 km/h
210 25-02-2019 17:25:00 13.6 C 6.24 g/m*3 13.6 C 6.4 km/h
211 25-02-2019 17:30:00 13.6 C 6.36 g/m*3 13.6 C 6.4 km/h
212 25-02-2019 17:35:00 13.6 C 6.24 g/m*3 13.6 C 6.4 km/h
213 25-02-2019 17:40:00 13.4 C 6.16 g/m*3 13.4 C 6.4 km/h
214 25-02-2019 17:45:00 13.3 C 6.24 g/m*3 13.3 C 6.4 km/h
215 25-02-2019 17:50:00 13.1 C 6.16 g/m*3 13.1 C 6.4 km/h
216 25-02-2019 17:55:00 12.8 C 6.16 g/m*3 12.8 C 6.4 km/h
217 25-02-2019 18:00:00 12.6 C 6.2 g/m*3 12.6 C 4.8 km/h
218 25-02-2019 18:05:00 12.2 C 6.04 g/m*3 12.2 C 6.4 km/h
219 25-02-2019 18:10:00 11.8 C 6.1 g/m*3 11.8 C 6.4 km/h
220 25-02-2019 18:15:00 11.4 C 5.95 g/m*3 11.4 C 6.4 km/h
221 25-02-2019 18:20:00 11.2 C 5.98 g/m*3 11.2 C 6.4 km/h
222 25-02-2019 18:25:00 11 C 6.01 g/m*3 10.52 C 6.4 km/h
223 25-02-2019 18:30:00 10.8 C 5.93 g/m*3 10.29 C 6.4 km/h
224 25-02-2019 18:35:00 10.7 C 5.99 g/m*3 10.18 C 6.4 km/h
225 25-02-2019 18:40:00 10.6 C 6.05 g/m*3 10.06 C 6.4 km/h
Sensor: Nr:Datum:Temp:Abs-Feuchte:Windchill:Wind:
Aussen-T/F 226 25-02-2019 18:45:00 10.4 C 5.98 g/m*3 10.4 C 4.8 km/h
227 25-02-2019 18:50:00 10.3 C 6.03 g/m*3 10.3 C 3.2 km/h
228 25-02-2019 18:55:00 10.2 C 6 g/m*3 10.2 C 3.2 km/h
229 25-02-2019 19:00:00 10 C 5.92 g/m*3 10 C 3.2 km/h
230 25-02-2019 19:05:00 9.8 C 5.94 g/m*3 9.8 C 1.6 km/h
231 25-02-2019 19:10:00 9.6 C 5.95 g/m*3 9.6 C 0 km/h
232 25-02-2019 19:15:00 9.4 C 5.97 g/m*3 9.4 C 0 km/h
233 25-02-2019 19:20:00 9.2 C 5.98 g/m*3 9.2 C 0 km/h
234 25-02-2019 19:25:00 8.9 C 5.96 g/m*3 8.9 C 0 km/h
235 25-02-2019 19:30:00 8.8 C 5.92 g/m*3 8.8 C 0 km/h
236 25-02-2019 19:35:00 8.8 C 5.92 g/m*3 8.8 C 0 km/h
237 25-02-2019 19:40:00 8.8 C 5.92 g/m*3 8.8 C 0 km/h
238 25-02-2019 19:45:00 8.7 C 5.88 g/m*3 8.7 C 0 km/h
239 25-02-2019 19:50:00 8.6 C 5.84 g/m*3 8.6 C 0 km/h
240 25-02-2019 19:55:00 8.3 C 5.82 g/m*3 8.3 C 0 km/h
241 25-02-2019 20:00:00 8.1 C 5.82 g/m*3 8.1 C 0 km/h
242 25-02-2019 20:05:00 8 C 5.87 g/m*3 8 C 0 km/h
243 25-02-2019 20:10:00 7.8 C 5.79 g/m*3 7.8 C 0 km/h
244 25-02-2019 20:15:00 7.4 C 5.73 g/m*3 7.4 C 0 km/h
245 25-02-2019 20:20:00 7.1 C 5.62 g/m*3 7.1 C 0 km/h
246 25-02-2019 20:25:00 6.9 C 5.62 g/m*3 6.9 C 0 km/h
247 25-02-2019 20:30:00 6.8 C 5.66 g/m*3 6.8 C 0 km/h
248 25-02-2019 20:35:00 6.8 C 5.74 g/m*3 6.8 C 0 km/h
249 25-02-2019 20:40:00 6.6 C 5.59 g/m*3 6.6 C 0 km/h
250 25-02-2019 20:45:00 6.4 C 5.51 g/m*3 6.4 C 0 km/h
Sensor: Nr:Datum:Temp:Abs-Feuchte:Windchill:Wind:
Aussen-T/F 251 25-02-2019 20:50:00 6.3 C 5.48 g/m*3 6.3 C 0 km/h
252 25-02-2019 20:55:00 6.3 C 5.55 g/m*3 6.3 C 0 km/h
253 25-02-2019 21:00:00 6.3 C 5.55 g/m*3 6.3 C 0 km/h
254 25-02-2019 21:05:00 6.1 C 5.48 g/m*3 6.1 C 0 km/h
255 25-02-2019 21:10:00 5.9 C 5.41 g/m*3 5.9 C 0 km/h
256 25-02-2019 21:15:00 5.9 C 5.41 g/m*3 5.9 C 0 km/h
257 25-02-2019 21:20:00 5.8 C 5.37 g/m*3 5.8 C 0 km/h
258 25-02-2019 21:25:00 5.6 C 5.37 g/m*3 5.6 C 0 km/h
259 25-02-2019 21:30:00 5.4 C 5.37 g/m*3 5.4 C 0 km/h
260 25-02-2019 21:35:00 5.3 C 5.34 g/m*3 5.3 C 0 km/h
261 25-02-2019 21:40:00 5.2 C 5.37 g/m*3 5.2 C 0 km/h
262 25-02-2019 21:45:00 5.2 C 5.37 g/m*3 5.2 C 0 km/h
263 25-02-2019 21:50:00 5.1 C 5.4 g/m*3 5.1 C 0 km/h
264 25-02-2019 21:55:00 5.1 C 5.4 g/m*3 5.1 C 0 km/h
265 25-02-2019 22:00:00 5 C 5.37 g/m*3 5 C 0 km/h
266 25-02-2019 22:05:00 5 C 5.3 g/m*3 5 C 0 km/h
267 25-02-2019 22:10:00 4.9 C 5.27 g/m*3 4.9 C 0 km/h
268 25-02-2019 22:15:00 4.8 C 5.3 g/m*3 4.8 C 0 km/h
269 25-02-2019 22:20:00 4.8 C 5.3 g/m*3 4.8 C 0 km/h
270 25-02-2019 22:25:00 4.7 C 5.26 g/m*3 4.7 C 0 km/h
271 25-02-2019 22:30:00 4.5 C 5.19 g/m*3 4.5 C 0 km/h
272 25-02-2019 22:35:00 4.4 C 5.22 g/m*3 4.4 C 0 km/h
273 25-02-2019 22:40:00 4.2 C 5.15 g/m*3 4.2 C 0 km/h
274 25-02-2019 22:45:00 4.2 C 5.15 g/m*3 4.2 C 0 km/h
275 25-02-2019 22:50:00 4.1 C 5.12 g/m*3 4.1 C 0 km/h
Sensor: Nr:Datum:Temp:Abs-Feuchte:Windchill:Wind:
Aussen-T/F 276 25-02-2019 22:55:00 4 C 5.21 g/m*3 4 C 0 km/h
277 25-02-2019 23:00:00 3.9 C 5.18 g/m*3 3.9 C 0 km/h
278 25-02-2019 23:05:00 3.8 C 5.21 g/m*3 3.8 C 0 km/h
279 25-02-2019 23:10:00 3.8 C 5.21 g/m*3 3.8 C 0 km/h
280 25-02-2019 23:15:00 3.7 C 5.11 g/m*3 3.7 C 0 km/h
281 25-02-2019 23:20:00 3.4 C 5.01 g/m*3 3.4 C 0 km/h
282 25-02-2019 23:25:00 3.2 C 5 g/m*3 3.2 C 0 km/h
283 25-02-2019 23:30:00 3.1 C 5.03 g/m*3 3.1 C 0 km/h
284 25-02-2019 23:35:00 3 C 4.99 g/m*3 3 C 0 km/h
285 25-02-2019 23:40:00 2.8 C 4.93 g/m*3 2.8 C 0 km/h
286 25-02-2019 23:45:00 2.7 C 4.95 g/m*3 2.7 C 0 km/h
287 25-02-2019 23:50:00 2.8 C 5.04 g/m*3 2.8 C 0 km/h
288 25-02-2019 23:55:00 2.8 C 4.99 g/m*3 2.8 C 0 km/h
289 26-02-2019 00:00:00 2.7 C 4.95 g/m*3 2.7 C 0 km/h
290 26-02-2019 00:05:00 2.8 C 5.04 g/m*3 2.8 C 0 km/h
291 26-02-2019 00:10:00 2.7 C 4.95 g/m*3 2.7 C 0 km/h
292 26-02-2019 00:15:00 2.6 C 4.98 g/m*3 2.6 C 0 km/h
293 26-02-2019 00:20:00 2.6 C 4.98 g/m*3 2.6 C 0 km/h
294 26-02-2019 00:25:00 2.6 C 4.98 g/m*3 2.6 C 0 km/h
295 26-02-2019 00:30:00 2.6 C 5.03 g/m*3 2.6 C 0 km/h
296 26-02-2019 00:35:00 2.5 C 4.94 g/m*3 2.5 C 0 km/h
297 26-02-2019 00:40:00 2.3 C 4.82 g/m*3 2.3 C 0 km/h
298 26-02-2019 00:45:00 2 C 4.78 g/m*3 2 C 0 km/h
299 26-02-2019 00:50:00 1.9 C 4.8 g/m*3 1.9 C 0 km/h
300 26-02-2019 00:55:00 1.8 C 4.82 g/m*3 1.8 C 0 km/h
Sensor: Nr:Datum:Temp:Abs-Feuchte:Windchill:Wind:
Aussen-T/F 301 26-02-2019 01:00:00 1.8 C 4.88 g/m*3 1.8 C 0 km/h
302 26-02-2019 01:05:00 1.9 C 4.91 g/m*3 1.9 C 0 km/h
303 26-02-2019 01:10:00 1.9 C 4.91 g/m*3 1.9 C 0 km/h
304 26-02-2019 01:15:00 1.9 C 4.86 g/m*3 1.9 C 0 km/h
305 26-02-2019 01:20:00 1.8 C 4.88 g/m*3 1.8 C 0 km/h
306 26-02-2019 01:25:00 1.9 C 4.91 g/m*3 1.9 C 0 km/h
307 26-02-2019 01:30:00 1.9 C 4.91 g/m*3 1.9 C 0 km/h
308 26-02-2019 01:35:00 2.1 C 5.04 g/m*3 2.1 C 0 km/h
309 26-02-2019 01:40:00 2.2 C 5.01 g/m*3 2.2 C 0 km/h
310 26-02-2019 01:45:00 2.1 C 4.92 g/m*3 2.1 C 0 km/h
311 26-02-2019 01:50:00 1.9 C 4.86 g/m*3 1.9 C 0 km/h
312 26-02-2019 01:55:00 1.8 C 4.82 g/m*3 1.8 C 0 km/h
313 26-02-2019 02:00:00 1.6 C 4.81 g/m*3 1.6 C 0 km/h
314 26-02-2019 02:05:00 1.6 C 4.81 g/m*3 1.6 C 0 km/h
315 26-02-2019 02:10:00 1.7 C 4.9 g/m*3 1.7 C 0 km/h
316 26-02-2019 02:15:00 1.7 C 4.9 g/m*3 1.7 C 0 km/h
317 26-02-2019 02:20:00 1.6 C 4.81 g/m*3 1.6 C 0 km/h
318 26-02-2019 02:25:00 1.4 C 4.75 g/m*3 1.4 C 0 km/h
319 26-02-2019 02:30:00 1.3 C 4.72 g/m*3 1.3 C 0 km/h
320 26-02-2019 02:35:00 1.3 C 4.77 g/m*3 1.3 C 0 km/h
321 26-02-2019 02:40:00 1.2 C 4.74 g/m*3 1.2 C 0 km/h
322 26-02-2019 02:45:00 1.3 C 4.82 g/m*3 1.3 C 0 km/h
323 26-02-2019 02:50:00 1.1 C 4.7 g/m*3 1.1 C 0 km/h
324 26-02-2019 02:55:00 0.9 C 4.59 g/m*3 0.9 C 0 km/h
325 26-02-2019 03:00:00 0.7 C 4.58 g/m*3 0.7 C 0 km/h
Sensor: Nr:Datum:Temp:Abs-Feuchte:Windchill:Wind:
Aussen-T/F 326 26-02-2019 03:05:00 0.6 C 4.54 g/m*3 0.6 C 0 km/h
327 26-02-2019 03:10:00 0.5 C 4.51 g/m*3 0.5 C 0 km/h
328 26-02-2019 03:15:00 0.4 C 4.53 g/m*3 0.4 C 0 km/h
329 26-02-2019 03:20:00 0.5 C 4.56 g/m*3 0.5 C 0 km/h
330 26-02-2019 03:25:00 0.5 C 4.56 g/m*3 0.5 C 0 km/h
331 26-02-2019 03:30:00 0.6 C 4.65 g/m*3 0.6 C 0 km/h
332 26-02-2019 03:35:00 0.8 C 4.71 g/m*3 0.8 C 0 km/h
333 26-02-2019 03:40:00 0.8 C 4.71 g/m*3 0.8 C 0 km/h
334 26-02-2019 03:45:00 0.7 C 4.63 g/m*3 0.7 C 0 km/h
335 26-02-2019 03:50:00 0.7 C 4.68 g/m*3 0.7 C 0 km/h
336 26-02-2019 03:55:00 0.8 C 4.71 g/m*3 0.8 C 0 km/h
337 26-02-2019 04:00:00 0.7 C 4.68 g/m*3 0.7 C 0 km/h
338 26-02-2019 04:05:00 0.4 C 4.53 g/m*3 0.4 C 0 km/h
339 26-02-2019 04:10:00 0.3 C 4.55 g/m*3 0.3 C 0 km/h
340 26-02-2019 04:15:00 0.3 C 4.55 g/m*3 0.3 C 0 km/h
341 26-02-2019 04:20:00 0.4 C 4.58 g/m*3 0.4 C 0 km/h
342 26-02-2019 04:25:00 0.4 C 4.58 g/m*3 0.4 C 0 km/h
343 26-02-2019 04:30:00 0.4 C 4.58 g/m*3 0.4 C 0 km/h
344 26-02-2019 04:35:00 0.3 C 4.55 g/m*3 0.3 C 0 km/h
345 26-02-2019 04:40:00 0.2 C 4.52 g/m*3 0.2 C 0 km/h
346 26-02-2019 04:45:00 0.1 C 4.49 g/m*3 0.1 C 0 km/h
347 26-02-2019 04:50:00 0.2 C 4.57 g/m*3 0.2 C 0 km/h
348 26-02-2019 04:55:00 0.2 C 4.57 g/m*3 0.2 C 0 km/h
349 26-02-2019 05:00:00 0.2 C 4.57 g/m*3 0.2 C 0 km/h
350 26-02-2019 05:05:00 0.1 C 4.54 g/m*3 0.1 C 0 km/h
Sensor: Nr:Datum:Temp:Abs-Feuchte:Windchill:Wind:
Aussen-T/F 351 26-02-2019 05:10:00 0.1 C 4.54 g/m*3 0.1 C 0 km/h
352 26-02-2019 05:15:00 0.1 C 4.54 g/m*3 0.1 C 0 km/h
353 26-02-2019 05:20:00 0 C 4.51 g/m*3 0 C 0 km/h
354 26-02-2019 05:25:00 0.1 C 4.54 g/m*3 0.1 C 4.8 km/h
355 26-02-2019 05:30:00 0.2 C 4.57 g/m*3 0.2 C 0 km/h
356 26-02-2019 05:35:00 0.3 C 4.6 g/m*3 0.3 C 0 km/h
357 26-02-2019 05:40:00 0.4 C 4.68 g/m*3 0.4 C 1.6 km/h
358 26-02-2019 05:45:00 0.4 C 4.63 g/m*3 0.4 C 3.2 km/h
359 26-02-2019 05:50:00 0.4 C 4.63 g/m*3 0.4 C 0 km/h
360 26-02-2019 05:55:00 0.3 C 4.6 g/m*3 0.3 C 0 km/h
361 26-02-2019 06:00:00 0.2 C 4.52 g/m*3 0.2 C 0 km/h
362 26-02-2019 06:05:00 -0.1 C 4.43 g/m*3 -0.1 C 0 km/h
363 26-02-2019 06:10:00 -0.2 C 4.4 g/m*3 -0.2 C 0 km/h
364 26-02-2019 06:15:00 -0.3 C 4.37 g/m*3 -0.3 C 0 km/h
365 26-02-2019 06:20:00 -0.3 C 4.41 g/m*3 -0.3 C 0 km/h
366 26-02-2019 06:25:00 -0.4 C 4.38 g/m*3 -0.4 C 0 km/h
367 26-02-2019 06:30:00 -0.4 C 4.38 g/m*3 -0.4 C 0 km/h
368 26-02-2019 06:35:00 -0.4 C 4.38 g/m*3 -0.4 C 0 km/h
369 26-02-2019 06:40:00 -0.4 C 4.38 g/m*3 -0.4 C 0 km/h
370 26-02-2019 06:45:00 -0.6 C 4.32 g/m*3 -0.6 C 0 km/h
371 26-02-2019 06:50:00 -0.5 C 4.35 g/m*3 -0.5 C 1.6 km/h
372 26-02-2019 06:55:00 -0.4 C 4.43 g/m*3 -0.4 C 0 km/h
373 26-02-2019 07:00:00 -0.2 C 4.49 g/m*3 -0.2 C 0 km/h
374 26-02-2019 07:05:00 -0.2 C 4.49 g/m*3 -0.2 C 0 km/h
375 26-02-2019 07:10:00 -0.2 C 4.49 g/m*3 -0.2 C 0 km/h
Sensor: Nr:Datum:Temp:Abs-Feuchte:Windchill:Wind:
Aussen-T/F 376 26-02-2019 07:15:00 -0.3 C 4.41 g/m*3 -0.3 C 0 km/h
377 26-02-2019 07:20:00 -0.4 C 4.38 g/m*3 -0.4 C 0 km/h
378 26-02-2019 07:25:00 -0.6 C 4.32 g/m*3 -0.6 C 0 km/h
379 26-02-2019 07:30:00 -0.8 C 4.26 g/m*3 -0.8 C 0 km/h
380 26-02-2019 07:35:00 -0.8 C 4.26 g/m*3 -0.8 C 1.6 km/h
381 26-02-2019 07:40:00 -0.8 C 4.31 g/m*3 -0.8 C 0 km/h
382 26-02-2019 07:45:00 -0.6 C 4.37 g/m*3 -0.6 C 0 km/h
383 26-02-2019 07:50:00 -0.5 C 4.4 g/m*3 -0.5 C 0 km/h
384 26-02-2019 07:55:00 -0.4 C 4.43 g/m*3 -0.4 C 0 km/h
385 26-02-2019 08:00:00 -0.4 C 4.43 g/m*3 -0.4 C 0 km/h
386 26-02-2019 08:05:00 -0.3 C 4.46 g/m*3 -0.3 C 0 km/h
387 26-02-2019 08:10:00 -0.3 C 4.46 g/m*3 -0.3 C 0 km/h
388 26-02-2019 08:15:00 -0.3 C 4.46 g/m*3 -0.3 C 0 km/h
389 26-02-2019 08:20:00 -0.3 C 4.46 g/m*3 -0.3 C 0 km/h
390 26-02-2019 08:25:00 -0.3 C 4.46 g/m*3 -0.3 C 1.6 km/h
391 26-02-2019 08:30:00 -0.2 C 4.49 g/m*3 -0.2 C 0 km/h
392 26-02-2019 08:35:00 -0.1 C 4.57 g/m*3 -0.1 C 0 km/h
393 26-02-2019 08:40:00 0 C 4.6 g/m*3 0 C 0 km/h
394 26-02-2019 08:45:00 0.2 C 4.67 g/m*3 0.2 C 3.2 km/h
395 26-02-2019 08:50:00 0.3 C 4.7 g/m*3 0.3 C 1.6 km/h
396 26-02-2019 08:55:00 0.4 C 4.73 g/m*3 0.4 C 0 km/h
397 26-02-2019 09:00:00 0.4 C 4.68 g/m*3 0.4 C 0 km/h
398 26-02-2019 09:05:00 0.4 C 4.68 g/m*3 0.4 C 0 km/h
399 26-02-2019 09:10:00 0.5 C 4.71 g/m*3 0.5 C 0 km/h
400 26-02-2019 09:15:00 0.6 C 4.8 g/m*3 0.6 C 1.6 km/h
Sensor: Nr:Datum:Temp:Abs-Feuchte:Windchill:Wind:
Aussen-T/F 401 26-02-2019 09:20:00 0.7 C 4.83 g/m*3 0.7 C 0 km/h
402 26-02-2019 09:25:00 0.8 C 4.86 g/m*3 0.8 C 0 km/h
403 26-02-2019 09:30:00 0.9 C 4.9 g/m*3 0.9 C 0 km/h
404 26-02-2019 09:35:00 0.9 C 4.9 g/m*3 0.9 C 0 km/h
405 26-02-2019 09:40:00 0.9 C 4.9 g/m*3 0.9 C 0 km/h
406 26-02-2019 09:45:00 1.1 C 4.96 g/m*3 1.1 C 0 km/h
407 26-02-2019 09:50:00 1.2 C 5 g/m*3 1.2 C 0 km/h
408 26-02-2019 09:55:00 1.3 C 5.03 g/m*3 1.3 C 0 km/h
409 26-02-2019 10:00:00 1.6 C 5.14 g/m*3 1.6 C 1.6 km/h
410 26-02-2019 10:05:00 1.7 C 5.17 g/m*3 1.7 C 0 km/h
411 26-02-2019 10:10:00 1.8 C 5.21 g/m*3 1.8 C 0 km/h
412 26-02-2019 10:15:00 1.9 C 5.24 g/m*3 1.9 C 0 km/h
413 26-02-2019 10:20:00 2.1 C 5.31 g/m*3 2.1 C 0 km/h
414 26-02-2019 10:25:00 2.3 C 5.39 g/m*3 2.3 C 0 km/h
415 26-02-2019 10:30:00 2.5 C 5.46 g/m*3 2.5 C 0 km/h
416 26-02-2019 10:35:00 2.9 C 5.61 g/m*3 2.9 C 0 km/h
417 26-02-2019 10:40:00 3.2 C 5.66 g/m*3 3.2 C 0 km/h
418 26-02-2019 10:45:00 3.5 C 5.78 g/m*3 3.5 C 0 km/h
419 26-02-2019 10:50:00 3.8 C 5.83 g/m*3 3.8 C 0 km/h
420 26-02-2019 10:55:00 4 C 5.85 g/m*3 4 C 0 km/h
421 26-02-2019 11:00:00 4.3 C 5.9 g/m*3 4.3 C 0 km/h
422 26-02-2019 11:05:00 4.5 C 5.92 g/m*3 4.5 C 0 km/h
423 26-02-2019 11:10:00 4.8 C 6.04 g/m*3 4.8 C 0 km/h
424 26-02-2019 11:15:00 5.1 C 6.16 g/m*3 5.1 C 0 km/h
425 26-02-2019 11:20:00 5.4 C 6.28 g/m*3 5.4 C 0 km/h
Sensor: Nr:Datum:Temp:Abs-Feuchte:Windchill:Wind:
Aussen-T/F 426 26-02-2019 11:25:00 5.7 C 6.33 g/m*3 5.7 C 0 km/h
427 26-02-2019 11:30:00 5.9 C 6.27 g/m*3 5.9 C 0 km/h
428 26-02-2019 11:35:00 6.2 C 6.25 g/m*3 6.2 C 0 km/h
429 26-02-2019 11:40:00 6.4 C 6.26 g/m*3 6.4 C 0 km/h
430 26-02-2019 11:45:00 6.7 C 6.23 g/m*3 6.7 C 0 km/h
431 26-02-2019 11:50:00 6.9 C 6.24 g/m*3 6.9 C 0 km/h
432 26-02-2019 11:55:00 7.1 C 6.32 g/m*3 7.1 C 0 km/h
433 26-02-2019 12:00:00 7.3 C 6.4 g/m*3 7.3 C 0 km/h
434 26-02-2019 12:05:00 7.5 C 6.4 g/m*3 7.5 C 0 km/h
435 26-02-2019 12:10:00 7.8 C 6.2 g/m*3 7.8 C 0 km/h
436 26-02-2019 12:15:00 8.3 C 6.32 g/m*3 8.3 C 0 km/h
437 26-02-2019 12:20:00 8.8 C 6.35 g/m*3 8.8 C 0 km/h
438 26-02-2019 12:25:00 9.3 C 6.56 g/m*3 9.3 C 0 km/h
439 26-02-2019 12:30:00 9.8 C 6.59 g/m*3 9.8 C 0 km/h
440 26-02-2019 12:35:00 10.3 C 6.61 g/m*3 10.3 C 0 km/h
441 26-02-2019 12:40:00 10.8 C 6.82 g/m*3 10.8 C 0 km/h
442 26-02-2019 12:45:00 11.2 C 6.59 g/m*3 11.2 C 0 km/h
443 26-02-2019 12:50:00 11.4 C 6.98 g/m*3 11.4 C 0 km/h
444 26-02-2019 12:55:00 11.6 C 7.17 g/m*3 11.6 C 0 km/h
445 26-02-2019 13:00:00 11.7 C 7.11 g/m*3 11.7 C 0 km/h
446 26-02-2019 13:05:00 11.9 C 7.2 g/m*3 11.9 C 0 km/h
447 26-02-2019 13:10:00 12.3 C 7.6 g/m*3 12.3 C 0 km/h
448 26-02-2019 13:15:00 12.7 C 7.68 g/m*3 12.7 C 0 km/h
449 26-02-2019 13:20:00 13.2 C 7.69 g/m*3 13.2 C 0 km/h
450 26-02-2019 13:25:00 13.7 C 7.82 g/m*3 13.7 C 0 km/h
Sensor: Nr:Datum:Temp:Abs-Feuchte:Windchill:Wind:
Aussen-T/F 451 26-02-2019 13:30:00 14.1 C 8.01 g/m*3 14.1 C 0 km/h
452 26-02-2019 13:35:00 14.5 C 8.08 g/m*3 14.5 C 0 km/h
453 26-02-2019 13:40:00 14.9 C 8.16 g/m*3 14.9 C 0 km/h
454 26-02-2019 13:45:00 15.4 C 8.01 g/m*3 15.4 C 0 km/h
455 26-02-2019 13:50:00 15.8 C 8.08 g/m*3 15.8 C 0 km/h
456 26-02-2019 13:55:00 16.1 C 8.09 g/m*3 16.1 C 0 km/h
457 26-02-2019 14:00:00 16.4 C 8.1 g/m*3 16.4 C 0 km/h
458 26-02-2019 14:05:00 16.6 C 7.77 g/m*3 16.6 C 0 km/h
459 26-02-2019 14:10:00 16.7 C 7.82 g/m*3 16.7 C 0 km/h
460 26-02-2019 14:15:00 16.8 C 7.72 g/m*3 16.8 C 0 km/h
461 26-02-2019 14:20:00 16.7 C 7.67 g/m*3 16.7 C 0 km/h
462 26-02-2019 14:25:00 16.4 C 7.54 g/m*3 16.4 C 0 km/h
463 26-02-2019 14:30:00 16.2 C 7.45 g/m*3 16.2 C 0 km/h
464 26-02-2019 14:35:00 15.9 C 7.31 g/m*3 15.9 C 0 km/h
465 26-02-2019 14:40:00 15.7 C 7.49 g/m*3 15.7 C 0 km/h
466 26-02-2019 14:45:00 15.6 C 7.45 g/m*3 15.6 C 0 km/h
467 26-02-2019 14:50:00 15.5 C 7.53 g/m*3 15.5 C 0 km/h
468 26-02-2019 14:55:00 15.4 C 7.49 g/m*3 15.4 C 0 km/h
469 26-02-2019 15:00:00 15.3 C 7.18 g/m*3 15.3 C 0 km/h
470 26-02-2019 15:05:00 15.4 C 7.49 g/m*3 15.4 C 0 km/h
471 26-02-2019 15:10:00 15.5 C 7.4 g/m*3 15.5 C 0 km/h
472 26-02-2019 15:15:00 15.5 C 7.4 g/m*3 15.5 C 0 km/h
473 26-02-2019 15:20:00 15.5 C 7.27 g/m*3 15.5 C 0 km/h
474 26-02-2019 15:25:00 15.5 C 7.27 g/m*3 15.5 C 0 km/h
475 26-02-2019 15:30:00 15.4 C 7.23 g/m*3 15.4 C 0 km/h
Sensor: Nr:Datum:Temp:Abs-Feuchte:Windchill:Wind:
Aussen-T/F 476 26-02-2019 15:35:00 15.4 C 7.09 g/m*3 15.4 C 0 km/h
477 26-02-2019 15:40:00 15.6 C 7.31 g/m*3 15.6 C 0 km/h
478 26-02-2019 15:45:00 15.6 C 7.31 g/m*3 15.6 C 0 km/h
479 26-02-2019 15:50:00 15.6 C 7.31 g/m*3 15.6 C 0 km/h
480 26-02-2019 15:55:00 15.6 C 7.31 g/m*3 15.6 C 0 km/h
481 26-02-2019 16:00:00 15.6 C 7.18 g/m*3 15.6 C 0 km/h
482 26-02-2019 16:05:00 15.7 C 7.23 g/m*3 15.7 C 0 km/h
483 26-02-2019 16:10:00 15.7 C 7.23 g/m*3 15.7 C 0 km/h
484 26-02-2019 16:15:00 15.7 C 7.23 g/m*3 15.7 C 3.2 km/h
485 26-02-2019 16:20:00 15.7 C 7.36 g/m*3 15.7 C 4.8 km/h
486 26-02-2019 16:25:00 15.6 C 7.18 g/m*3 15.6 C 4.8 km/h
487 26-02-2019 16:30:00 15.5 C 7.27 g/m*3 15.5 C 3.2 km/h
488 26-02-2019 16:35:00 15.4 C 7.36 g/m*3 15.4 C 4.8 km/h
489 26-02-2019 16:40:00 15.2 C 7.4 g/m*3 15.2 C 4.8 km/h
490 26-02-2019 16:45:00 15.1 C 7.35 g/m*3 15.1 C 4.8 km/h
491 26-02-2019 16:50:00 15.1 C 7.48 g/m*3 15.1 C 4.8 km/h
492 26-02-2019 16:55:00 15 C 7.44 g/m*3 15 C 4.8 km/h
493 26-02-2019 17:00:00 14.9 C 7.39 g/m*3 14.9 C 4.8 km/h
494 26-02-2019 17:05:00 14.9 C 7.39 g/m*3 14.9 C 4.8 km/h
495 26-02-2019 17:10:00 14.9 C 7.39 g/m*3 14.9 C 6.4 km/h
496 26-02-2019 17:15:00 14.8 C 7.47 g/m*3 14.8 C 6.4 km/h
497 26-02-2019 17:20:00 14.8 C 7.47 g/m*3 14.8 C 6.4 km/h
498 26-02-2019 17:25:00 14.9 C 7.52 g/m*3 14.9 C 6.4 km/h
499 26-02-2019 17:30:00 14.9 C 7.39 g/m*3 14.9 C 6.4 km/h
500 26-02-2019 17:35:00 14.8 C 7.35 g/m*3 14.8 C 6.4 km/h
Sensor: Nr:Datum:Temp:Abs-Feuchte:Windchill:Wind:
Aussen-T/F 501 26-02-2019 17:40:00 14.8 C 7.35 g/m*3 14.8 C 6.4 km/h
502 26-02-2019 17:45:00 14.7 C 7.43 g/m*3 14.7 C 6.4 km/h
503 26-02-2019 17:50:00 14.5 C 7.34 g/m*3 14.5 C 6.4 km/h
504 26-02-2019 17:55:00 14.2 C 7.2 g/m*3 14.2 C 6.4 km/h
505 26-02-2019 18:00:00 13.9 C 7.19 g/m*3 13.9 C 6.4 km/h
506 26-02-2019 18:05:00 13.6 C 7.18 g/m*3 13.6 C 6.4 km/h
507 26-02-2019 18:10:00 13.3 C 7.05 g/m*3 13.3 C 6.4 km/h
508 26-02-2019 18:15:00 13 C 7.03 g/m*3 13 C 6.4 km/h
509 26-02-2019 18:20:00 12.8 C 7.06 g/m*3 12.8 C 6.4 km/h
510 26-02-2019 18:25:00 12.6 C 7.08 g/m*3 12.6 C 4.8 km/h
511 26-02-2019 18:30:00 12.3 C 6.95 g/m*3 12.3 C 4.8 km/h
512 26-02-2019 18:35:00 12.2 C 6.91 g/m*3 12.2 C 4.8 km/h
513 26-02-2019 18:40:00 12.1 C 6.97 g/m*3 12.1 C 3.2 km/h
514 26-02-2019 18:45:00 11.9 C 6.99 g/m*3 11.9 C 3.2 km/h
515 26-02-2019 18:50:00 11.7 C 6.9 g/m*3 11.7 C 3.2 km/h
516 26-02-2019 18:55:00 11.4 C 6.88 g/m*3 11.4 C 3.2 km/h
517 26-02-2019 19:00:00 11.3 C 6.94 g/m*3 11.3 C 3.2 km/h
518 26-02-2019 19:05:00 11.1 C 6.85 g/m*3 11.1 C 0 km/h
519 26-02-2019 19:10:00 10.8 C 6.82 g/m*3 10.8 C 1.6 km/h
520 26-02-2019 19:15:00 10.7 C 6.88 g/m*3 10.7 C 1.6 km/h
521 26-02-2019 19:20:00 10.6 C 6.93 g/m*3 10.6 C 0 km/h
522 26-02-2019 19:25:00 10.4 C 6.84 g/m*3 10.4 C 0 km/h
523 26-02-2019 19:30:00 10.4 C 6.94 g/m*3 10.4 C 0 km/h
524 26-02-2019 19:35:00 10.3 C 6.9 g/m*3 10.3 C 0 km/h
525 26-02-2019 19:40:00 10.1 C 6.81 g/m*3 10.1 C 0 km/h
Sensor: Nr:Datum:Temp:Abs-Feuchte:Windchill:Wind:
Aussen-T/F 526 26-02-2019 19:45:00 9.7 C 6.73 g/m*3 9.7 C 0 km/h
527 26-02-2019 19:50:00 9.4 C 6.78 g/m*3 9.4 C 0 km/h
528 26-02-2019 19:55:00 9.3 C 6.74 g/m*3 9.3 C 0 km/h
529 26-02-2019 20:00:00 9.2 C 6.61 g/m*3 9.2 C 0 km/h
530 26-02-2019 20:05:00 8.8 C 6.44 g/m*3 8.8 C 0 km/h
531 26-02-2019 20:10:00 8.6 C 6.44 g/m*3 8.6 C 0 km/h
532 26-02-2019 20:15:00 8.5 C 6.49 g/m*3 8.5 C 0 km/h
533 26-02-2019 20:20:00 8.4 C 6.53 g/m*3 8.4 C 0 km/h
534 26-02-2019 20:25:00 8.1 C 6.41 g/m*3 8.1 C 0 km/h
535 26-02-2019 20:30:00 7.9 C 6.32 g/m*3 7.9 C 0 km/h
536 26-02-2019 20:35:00 7.9 C 6.32 g/m*3 7.9 C 0 km/h
537 26-02-2019 20:40:00 7.9 C 6.32 g/m*3 7.9 C 0 km/h
538 26-02-2019 20:45:00 7.8 C 6.28 g/m*3 7.8 C 0 km/h
539 26-02-2019 20:50:00 7.7 C 6.24 g/m*3 7.7 C 0 km/h
540 26-02-2019 20:55:00 7.4 C 6.2 g/m*3 7.4 C 0 km/h
541 26-02-2019 21:00:00 7.3 C 6.24 g/m*3 7.3 C 0 km/h
542 26-02-2019 21:05:00 7.2 C 6.2 g/m*3 7.2 C 0 km/h
543 26-02-2019 21:10:00 7 C 6.12 g/m*3 7 C 0 km/h
544 26-02-2019 21:15:00 6.9 C 6.16 g/m*3 6.9 C 0 km/h
545 26-02-2019 21:20:00 6.7 C 6.15 g/m*3 6.7 C 0 km/h
546 26-02-2019 21:25:00 6.8 C 6.35 g/m*3 6.8 C 0 km/h
547 26-02-2019 21:30:00 6.8 C 6.27 g/m*3 6.8 C 0 km/h
548 26-02-2019 21:35:00 6.8 C 6.19 g/m*3 6.8 C 0 km/h
549 26-02-2019 21:40:00 6.7 C 6.15 g/m*3 6.7 C 0 km/h
550 26-02-2019 21:45:00 6.6 C 6.19 g/m*3 6.6 C 0 km/h
Sensor: Nr:Datum:Temp:Abs-Feuchte:Windchill:Wind:
Aussen-T/F 551 26-02-2019 21:50:00 6.4 C 6.11 g/m*3 6.4 C 0 km/h
552 26-02-2019 21:55:00 6.4 C 6.11 g/m*3 6.4 C 0 km/h
553 26-02-2019 22:00:00 6.3 C 6.07 g/m*3 6.3 C 0 km/h
554 26-02-2019 22:05:00 6.2 C 6.1 g/m*3 6.2 C 0 km/h
555 26-02-2019 22:10:00 6.2 C 6.1 g/m*3 6.2 C 0 km/h
556 26-02-2019 22:15:00 6.2 C 6.03 g/m*3 6.2 C 0 km/h
557 26-02-2019 22:20:00 5.9 C 5.91 g/m*3 5.9 C 0 km/h
558 26-02-2019 22:25:00 5.7 C 5.91 g/m*3 5.7 C 0 km/h
559 26-02-2019 22:30:00 5.6 C 5.94 g/m*3 5.6 C 0 km/h
560 26-02-2019 22:35:00 5.4 C 5.86 g/m*3 5.4 C 0 km/h
561 26-02-2019 22:40:00 5.2 C 5.78 g/m*3 5.2 C 0 km/h
562 26-02-2019 22:45:00 4.9 C 5.74 g/m*3 4.9 C 0 km/h
563 26-02-2019 22:50:00 4.9 C 5.81 g/m*3 4.9 C 0 km/h
564 26-02-2019 22:55:00 4.9 C 5.87 g/m*3 4.9 C 0 km/h
565 26-02-2019 23:00:00 4.8 C 5.7 g/m*3 4.8 C 0 km/h
566 26-02-2019 23:05:00 4.7 C 5.73 g/m*3 4.7 C 0 km/h
567 26-02-2019 23:10:00 4.7 C 5.8 g/m*3 4.7 C 0 km/h
568 26-02-2019 23:15:00 4.8 C 5.9 g/m*3 4.8 C 0 km/h
569 26-02-2019 23:20:00 4.8 C 5.83 g/m*3 4.8 C 0 km/h
570 26-02-2019 23:25:00 4.8 C 5.83 g/m*3 4.8 C 0 km/h
571 26-02-2019 23:30:00 4.6 C 5.69 g/m*3 4.6 C 0 km/h
572 26-02-2019 23:35:00 4.4 C 5.62 g/m*3 4.4 C 0 km/h
573 26-02-2019 23:40:00 4.3 C 5.64 g/m*3 4.3 C 0 km/h
574 26-02-2019 23:45:00 4.3 C 5.71 g/m*3 4.3 C 0 km/h
575 26-02-2019 23:50:00 4.3 C 5.77 g/m*3 4.3 C 0 km/h
Sensor: Nr:Datum:Temp:Abs-Feuchte:Windchill:Wind:
Aussen-T/F 576 26-02-2019 23:55:00 4.3 C 5.71 g/m*3 4.3 C 0 km/h
577 27-02-2019 00:00:00 4.1 C 5.63 g/m*3 4.1 C 0 km/h
578 27-02-2019 00:05:00 4 C 5.59 g/m*3 4 C 0 km/h
579 27-02-2019 00:10:00 3.8 C 5.58 g/m*3 3.8 C 0 km/h
580 27-02-2019 00:15:00 3.6 C 5.45 g/m*3 3.6 C 0 km/h
581 27-02-2019 00:20:00 3.6 C 5.51 g/m*3 3.6 C 0 km/h
582 27-02-2019 00:25:00 3.6 C 5.57 g/m*3 3.6 C 0 km/h
583 27-02-2019 00:30:00 3.6 C 5.57 g/m*3 3.6 C 0 km/h
584 27-02-2019 00:35:00 3.5 C 5.53 g/m*3 3.5 C 0 km/h
585 27-02-2019 00:40:00 3.3 C 5.4 g/m*3 3.3 C 0 km/h
586 27-02-2019 00:45:00 3.1 C 5.33 g/m*3 3.1 C 0 km/h
587 27-02-2019 00:50:00 3.2 C 5.48 g/m*3 3.2 C 0 km/h
588 27-02-2019 00:55:00 3.3 C 5.52 g/m*3 3.3 C 0 km/h
589 27-02-2019 01:00:00 3.2 C 5.42 g/m*3 3.2 C 0 km/h
590 27-02-2019 01:05:00 3 C 5.35 g/m*3 3 C 0 km/h
591 27-02-2019 01:10:00 2.9 C 5.32 g/m*3 2.9 C 0 km/h
592 27-02-2019 01:15:00 2.8 C 5.34 g/m*3 2.8 C 0 km/h
593 27-02-2019 01:20:00 2.8 C 5.34 g/m*3 2.8 C 0 km/h
594 27-02-2019 01:25:00 2.9 C 5.43 g/m*3 2.9 C 0 km/h
595 27-02-2019 01:30:00 3 C 5.47 g/m*3 3 C 0 km/h
596 27-02-2019 01:35:00 2.9 C 5.37 g/m*3 2.9 C 0 km/h
597 27-02-2019 01:40:00 2.8 C 5.34 g/m*3 2.8 C 0 km/h
598 27-02-2019 01:45:00 2.7 C 5.36 g/m*3 2.7 C 0 km/h
599 27-02-2019 01:50:00 2.7 C 5.36 g/m*3 2.7 C 0 km/h
600 27-02-2019 01:55:00 2.5 C 5.23 g/m*3 2.5 C 0 km/h
Sensor: Nr:Datum:Temp:Abs-Feuchte:Windchill:Wind:
Aussen-T/F 601 27-02-2019 02:00:00 2.3 C 5.16 g/m*3 2.3 C 0 km/h
602 27-02-2019 02:05:00 2.3 C 5.16 g/m*3 2.3 C 0 km/h
603 27-02-2019 02:10:00 2.2 C 5.18 g/m*3 2.2 C 0 km/h
604 27-02-2019 02:15:00 2.2 C 5.18 g/m*3 2.2 C 0 km/h
605 27-02-2019 02:20:00 2 C 5.11 g/m*3 2 C 0 km/h
606 27-02-2019 02:25:00 2.1 C 5.2 g/m*3 2.1 C 0 km/h
607 27-02-2019 02:30:00 2.3 C 5.27 g/m*3 2.3 C 0 km/h
608 27-02-2019 02:35:00 2.6 C 5.44 g/m*3 2.6 C 0 km/h
609 27-02-2019 02:40:00 2.6 C 5.44 g/m*3 2.6 C 0 km/h
610 27-02-2019 02:45:00 2.4 C 5.25 g/m*3 2.4 C 0 km/h
611 27-02-2019 02:50:00 2.1 C 5.15 g/m*3 2.1 C 0 km/h
612 27-02-2019 02:55:00 1.9 C 5.08 g/m*3 1.9 C 0 km/h
613 27-02-2019 03:00:00 1.9 C 5.13 g/m*3 1.9 C 0 km/h
614 27-02-2019 03:05:00 1.9 C 5.13 g/m*3 1.9 C 0 km/h
615 27-02-2019 03:10:00 1.9 C 5.13 g/m*3 1.9 C 0 km/h
616 27-02-2019 03:15:00 1.7 C 5.01 g/m*3 1.7 C 0 km/h
617 27-02-2019 03:20:00 1.6 C 5.03 g/m*3 1.6 C 0 km/h
618 27-02-2019 03:25:00 1.5 C 4.99 g/m*3 1.5 C 0 km/h
619 27-02-2019 03:30:00 1.3 C 4.93 g/m*3 1.3 C 0 km/h
620 27-02-2019 03:35:00 1.2 C 4.89 g/m*3 1.2 C 0 km/h
621 27-02-2019 03:40:00 1.3 C 4.98 g/m*3 1.3 C 0 km/h
622 27-02-2019 03:45:00 1.3 C 4.93 g/m*3 1.3 C 0 km/h
623 27-02-2019 03:50:00 1 C 4.83 g/m*3 1 C 0 km/h
624 27-02-2019 03:55:00 0.9 C 4.79 g/m*3 0.9 C 0 km/h
625 27-02-2019 04:00:00 1 C 4.88 g/m*3 1 C 0 km/h
Sensor: Nr:Datum:Temp:Abs-Feuchte:Windchill:Wind:
Aussen-T/F 626 27-02-2019 04:05:00 0.9 C 4.79 g/m*3 0.9 C 0 km/h
627 27-02-2019 04:10:00 0.9 C 4.85 g/m*3 0.9 C 0 km/h
628 27-02-2019 04:15:00 1 C 4.88 g/m*3 1 C 0 km/h
629 27-02-2019 04:20:00 0.9 C 4.85 g/m*3 0.9 C 0 km/h
630 27-02-2019 04:25:00 0.8 C 4.76 g/m*3 0.8 C 0 km/h
631 27-02-2019 04:30:00 0.7 C 4.78 g/m*3 0.7 C 0 km/h
632 27-02-2019 04:35:00 0.7 C 4.78 g/m*3 0.7 C 0 km/h
633 27-02-2019 04:40:00 0.7 C 4.78 g/m*3 0.7 C 0 km/h
634 27-02-2019 04:45:00 0.6 C 4.75 g/m*3 0.6 C 0 km/h
635 27-02-2019 04:50:00 0.6 C 4.75 g/m*3 0.6 C 0 km/h
636 27-02-2019 04:55:00 0.6 C 4.75 g/m*3 0.6 C 0 km/h
637 27-02-2019 05:00:00 0.7 C 4.78 g/m*3 0.7 C 0 km/h
638 27-02-2019 05:05:00 0.7 C 4.78 g/m*3 0.7 C 0 km/h
639 27-02-2019 05:10:00 0.6 C 4.75 g/m*3 0.6 C 0 km/h
640 27-02-2019 05:15:00 0.6 C 4.8 g/m*3 0.6 C 0 km/h
641 27-02-2019 05:20:00 0.6 C 4.8 g/m*3 0.6 C 0 km/h
642 27-02-2019 05:25:00 0.6 C 4.8 g/m*3 0.6 C 0 km/h
643 27-02-2019 05:30:00 0.5 C 4.71 g/m*3 0.5 C 0 km/h
644 27-02-2019 05:35:00 0.4 C 4.68 g/m*3 0.4 C 0 km/h
645 27-02-2019 05:40:00 0.4 C 4.68 g/m*3 0.4 C 0 km/h
646 27-02-2019 05:45:00 0.4 C 4.73 g/m*3 0.4 C 0 km/h
647 27-02-2019 05:50:00 0.3 C 4.7 g/m*3 0.3 C 0 km/h
648 27-02-2019 05:55:00 0.2 C 4.62 g/m*3 0.2 C 0 km/h
649 27-02-2019 06:00:00 0.2 C 4.62 g/m*3 0.2 C 0 km/h
650 27-02-2019 06:05:00 0.2 C 4.67 g/m*3 0.2 C 0 km/h
Sensor: Nr:Datum:Temp:Abs-Feuchte:Windchill:Wind:
Aussen-T/F 651 27-02-2019 06:10:00 0.2 C 4.67 g/m*3 0.2 C 0 km/h
652 27-02-2019 06:15:00 0.1 C 4.63 g/m*3 0.1 C 0 km/h
653 27-02-2019 06:20:00 0 C 4.6 g/m*3 0 C 0 km/h
654 27-02-2019 06:25:00 0.1 C 4.63 g/m*3 0.1 C 0 km/h
655 27-02-2019 06:30:00 0.2 C 4.67 g/m*3 0.2 C 0 km/h
656 27-02-2019 06:35:00 0.3 C 4.7 g/m*3 0.3 C 0 km/h
657 27-02-2019 06:40:00 0.3 C 4.7 g/m*3 0.3 C 0 km/h
658 27-02-2019 06:45:00 0.1 C 4.63 g/m*3 0.1 C 0 km/h
659 27-02-2019 06:50:00 -0.1 C 4.57 g/m*3 -0.1 C 0 km/h
660 27-02-2019 06:55:00 -0.1 C 4.57 g/m*3 -0.1 C 0 km/h
661 27-02-2019 07:00:00 -0.2 C 4.54 g/m*3 -0.2 C 0 km/h
662 27-02-2019 07:05:00 -0.2 C 4.54 g/m*3 -0.2 C 0 km/h
663 27-02-2019 07:10:00 -0.2 C 4.54 g/m*3 -0.2 C 0 km/h
664 27-02-2019 07:15:00 -0.2 C 4.54 g/m*3 -0.2 C 0 km/h
665 27-02-2019 07:20:00 -0.3 C 4.51 g/m*3 -0.3 C 0 km/h
666 27-02-2019 07:25:00 -0.4 C 4.48 g/m*3 -0.4 C 0 km/h
667 27-02-2019 07:30:00 -0.6 C 4.42 g/m*3 -0.6 C 0 km/h
668 27-02-2019 07:35:00 -0.6 C 4.42 g/m*3 -0.6 C 0 km/h
669 27-02-2019 07:40:00 -0.6 C 4.42 g/m*3 -0.6 C 0 km/h
670 27-02-2019 07:45:00 -0.4 C 4.48 g/m*3 -0.4 C 0 km/h
671 27-02-2019 07:50:00 -0.4 C 4.48 g/m*3 -0.4 C 0 km/h
672 27-02-2019 07:55:00 -0.4 C 4.48 g/m*3 -0.4 C 0 km/h
673 27-02-2019 08:00:00 -0.4 C 4.48 g/m*3 -0.4 C 0 km/h
674 27-02-2019 08:05:00 -0.4 C 4.48 g/m*3 -0.4 C 0 km/h
675 27-02-2019 08:10:00 -0.4 C 4.48 g/m*3 -0.4 C 0 km/h
Sensor: Nr:Datum:Temp:Abs-Feuchte:Windchill:Wind:
Aussen-T/F 676 27-02-2019 08:15:00 -0.4 C 4.48 g/m*3 -0.4 C 0 km/h
677 27-02-2019 08:20:00 -0.4 C 4.48 g/m*3 -0.4 C 0 km/h
678 27-02-2019 08:25:00 -0.4 C 4.48 g/m*3 -0.4 C 0 km/h
679 27-02-2019 08:30:00 -0.3 C 4.56 g/m*3 -0.3 C 0 km/h
680 27-02-2019 08:35:00 -0.2 C 4.59 g/m*3 -0.2 C 0 km/h
681 27-02-2019 08:40:00 -0.2 C 4.59 g/m*3 -0.2 C 0 km/h
682 27-02-2019 08:45:00 -0.1 C 4.62 g/m*3 -0.1 C 0 km/h
683 27-02-2019 08:50:00 0 C 4.65 g/m*3 0 C 0 km/h
684 27-02-2019 08:55:00 0.1 C 4.68 g/m*3 0.1 C 0 km/h
685 27-02-2019 09:00:00 0.1 C 4.68 g/m*3 0.1 C 0 km/h
686 27-02-2019 09:05:00 0.2 C 4.72 g/m*3 0.2 C 0 km/h
687 27-02-2019 09:10:00 0.2 C 4.72 g/m*3 0.2 C 0 km/h
688 27-02-2019 09:15:00 0.2 C 4.72 g/m*3 0.2 C 0 km/h
689 27-02-2019 09:20:00 0.2 C 4.72 g/m*3 0.2 C 0 km/h
690 27-02-2019 09:25:00 0.3 C 4.75 g/m*3 0.3 C 0 km/h
691 27-02-2019 09:30:00 0.3 C 4.75 g/m*3 0.3 C 0 km/h
692 27-02-2019 09:35:00 0.4 C 4.78 g/m*3 0.4 C 0 km/h
693 27-02-2019 09:40:00 0.6 C 4.85 g/m*3 0.6 C 0 km/h
694 27-02-2019 09:45:00 0.7 C 4.88 g/m*3 0.7 C 0 km/h
695 27-02-2019 09:50:00 0.8 C 4.91 g/m*3 0.8 C 0 km/h
696 27-02-2019 09:55:00 1 C 4.98 g/m*3 1 C 0 km/h
697 27-02-2019 10:00:00 1.2 C 5.05 g/m*3 1.2 C 0 km/h
698 27-02-2019 10:05:00 1.3 C 5.09 g/m*3 1.3 C 0 km/h
699 27-02-2019 10:10:00 1.4 C 5.12 g/m*3 1.4 C 0 km/h
700 27-02-2019 10:15:00 1.6 C 5.25 g/m*3 1.6 C 0 km/h
Sensor: Nr:Datum:Temp:Abs-Feuchte:Windchill:Wind:
Aussen-T/F 701 27-02-2019 10:20:00 1.7 C 5.23 g/m*3 1.7 C 0 km/h
702 27-02-2019 10:25:00 2 C 5.39 g/m*3 2 C 0 km/h
703 27-02-2019 10:30:00 2.4 C 5.54 g/m*3 2.4 C 0 km/h
704 27-02-2019 10:35:00 2.8 C 5.69 g/m*3 2.8 C 0 km/h
705 27-02-2019 10:40:00 3.2 C 5.85 g/m*3 3.2 C 0 km/h
706 27-02-2019 10:45:00 3.4 C 5.92 g/m*3 3.4 C 0 km/h
707 27-02-2019 10:50:00 3.7 C 6.04 g/m*3 3.7 C 0 km/h
708 27-02-2019 10:55:00 4.1 C 6.21 g/m*3 4.1 C 0 km/h
709 27-02-2019 11:00:00 4.3 C 6.29 g/m*3 4.3 C 0 km/h
710 27-02-2019 11:05:00 4.5 C 6.38 g/m*3 4.5 C 0 km/h
711 27-02-2019 11:10:00 4.7 C 6.46 g/m*3 4.7 C 0 km/h
712 27-02-2019 11:15:00 5 C 6.59 g/m*3 5 C 0 km/h
713 27-02-2019 11:20:00 5.2 C 6.68 g/m*3 5.2 C 0 km/h
714 27-02-2019 11:25:00 5.4 C 6.77 g/m*3 5.4 C 0 km/h
715 27-02-2019 11:30:00 5.7 C 6.83 g/m*3 5.7 C 0 km/h
716 27-02-2019 11:35:00 5.8 C 6.81 g/m*3 5.8 C 0 km/h
717 27-02-2019 11:40:00 6 C 6.82 g/m*3 6 C 0 km/h
718 27-02-2019 11:45:00 6.2 C 6.84 g/m*3 6.2 C 0 km/h
719 27-02-2019 11:50:00 6.5 C 6.82 g/m*3 6.5 C 0 km/h
720 27-02-2019 11:55:00 6.7 C 6.84 g/m*3 6.7 C 0 km/h
721 27-02-2019 12:00:00 7 C 6.9 g/m*3 7 C 0 km/h
722 27-02-2019 12:05:00 7.4 C 7.16 g/m*3 7.4 C 0 km/h
723 27-02-2019 12:10:00 7.8 C 7.18 g/m*3 7.8 C 0 km/h
724 27-02-2019 12:15:00 8.4 C 7.55 g/m*3 8.4 C 0 km/h
725 27-02-2019 12:20:00 9.1 C 7.72 g/m*3 9.1 C 0 km/h
Sensor: Nr:Datum:Temp:Abs-Feuchte:Windchill:Wind:
Aussen-T/F 726 27-02-2019 12:25:00 9.6 C 7.79 g/m*3 9.6 C 0 km/h
727 27-02-2019 12:30:00 10.2 C 7.9 g/m*3 10.2 C 0 km/h
728 27-02-2019 12:35:00 10.8 C 8.01 g/m*3 10.8 C 0 km/h
729 27-02-2019 12:40:00 11.3 C 8.16 g/m*3 11.3 C 0 km/h
730 27-02-2019 12:45:00 11.7 C 7.74 g/m*3 11.7 C 0 km/h
731 27-02-2019 12:50:00 11.8 C 7.79 g/m*3 11.8 C 0 km/h
732 27-02-2019 12:55:00 12 C 7.78 g/m*3 12 C 0 km/h
733 27-02-2019 13:00:00 12.4 C 7.98 g/m*3 12.4 C 0 km/h
734 27-02-2019 13:05:00 12.7 C 8.13 g/m*3 12.7 C 0 km/h
735 27-02-2019 13:10:00 13.1 C 8.22 g/m*3 13.1 C 0 km/h
736 27-02-2019 13:15:00 13.5 C 8.42 g/m*3 13.5 C 0 km/h
737 27-02-2019 13:20:00 14.1 C 8.25 g/m*3 14.1 C 0 km/h
738 27-02-2019 13:25:00 14.6 C 8.38 g/m*3 14.6 C 0 km/h
739 27-02-2019 13:30:00 15.1 C 8.39 g/m*3 15.1 C 0 km/h
740 27-02-2019 13:35:00 15.4 C 8.28 g/m*3 15.4 C 0 km/h
741 27-02-2019 13:40:00 15.8 C 8.35 g/m*3 15.8 C 0 km/h
742 27-02-2019 13:45:00 16.2 C 8.14 g/m*3 16.2 C 0 km/h
743 27-02-2019 13:50:00 16.4 C 8.1 g/m*3 16.4 C 0 km/h
744 27-02-2019 13:55:00 17 C 8.1 g/m*3 17 C 0 km/h
745 27-02-2019 14:00:00 17.6 C 8.1 g/m*3 17.6 C 0 km/h
746 27-02-2019 14:05:00 17.8 C 8.04 g/m*3 17.8 C 0 km/h
747 27-02-2019 14:10:00 17.9 C 8.09 g/m*3 17.9 C 0 km/h
748 27-02-2019 14:15:00 17.9 C 7.94 g/m*3 17.9 C 0 km/h
749 27-02-2019 14:20:00 17.8 C 7.89 g/m*3 17.8 C 0 km/h
750 27-02-2019 14:25:00 17.5 C 7.75 g/m*3 17.5 C 0 km/h
Sensor: Nr:Datum:Temp:Abs-Feuchte:Windchill:Wind:
Aussen-T/F 751 27-02-2019 14:30:00 17.1 C 7.42 g/m*3 17.1 C 0 km/h
752 27-02-2019 14:35:00 16.8 C 7.29 g/m*3 16.8 C 0 km/h
753 27-02-2019 14:40:00 16.6 C 7.35 g/m*3 16.6 C 0 km/h
754 27-02-2019 14:45:00 16.5 C 7.02 g/m*3 16.5 C 0 km/h
755 27-02-2019 14:50:00 16.4 C 7.4 g/m*3 16.4 C 0 km/h
756 27-02-2019 14:55:00 16.4 C 7.4 g/m*3 16.4 C 0 km/h
757 27-02-2019 15:00:00 16.3 C 7.35 g/m*3 16.3 C 0 km/h
758 27-02-2019 15:05:00 16.3 C 7.08 g/m*3 16.3 C 0 km/h
759 27-02-2019 15:10:00 16.2 C 7.03 g/m*3 16.2 C 0 km/h
760 27-02-2019 15:15:00 16.2 C 7.17 g/m*3 16.2 C 1.6 km/h
761 27-02-2019 15:20:00 16.1 C 6.99 g/m*3 16.1 C 3.2 km/h
762 27-02-2019 15:25:00 16 C 6.95 g/m*3 16 C 3.2 km/h
763 27-02-2019 15:30:00 15.9 C 6.91 g/m*3 15.9 C 3.2 km/h
764 27-02-2019 15:35:00 15.9 C 7.04 g/m*3 15.9 C 0 km/h
765 27-02-2019 15:40:00 16 C 7.08 g/m*3 16 C 0 km/h
766 27-02-2019 15:45:00 16.1 C 6.99 g/m*3 16.1 C 0 km/h
767 27-02-2019 15:50:00 16.1 C 6.99 g/m*3 16.1 C 0 km/h
768 27-02-2019 15:55:00 16.2 C 7.03 g/m*3 16.2 C 0 km/h
769 27-02-2019 16:00:00 16.3 C 7.08 g/m*3 16.3 C 0 km/h
770 27-02-2019 16:05:00 16.3 C 6.94 g/m*3 16.3 C 0 km/h
771 27-02-2019 16:10:00 16.4 C 6.98 g/m*3 16.4 C 4.8 km/h
772 27-02-2019 16:15:00 16.5 C 7.02 g/m*3 16.5 C 4.8 km/h
773 27-02-2019 16:20:00 16.5 C 7.16 g/m*3 16.5 C 4.8 km/h
774 27-02-2019 16:25:00 16.4 C 6.84 g/m*3 16.4 C 4.8 km/h
775 27-02-2019 16:30:00 16.3 C 6.94 g/m*3 16.3 C 6.4 km/h
Sensor: Nr:Datum:Temp:Abs-Feuchte:Windchill:Wind:
Aussen-T/F 776 27-02-2019 16:35:00 16.2 C 6.9 g/m*3 16.2 C 6.4 km/h
777 27-02-2019 16:40:00 16.2 C 7.03 g/m*3 16.2 C 4.8 km/h
778 27-02-2019 16:45:00 16.1 C 6.99 g/m*3 16.1 C 4.8 km/h
779 27-02-2019 16:50:00 16 C 7.08 g/m*3 16 C 6.4 km/h
780 27-02-2019 16:55:00 15.8 C 7 g/m*3 15.8 C 4.8 km/h
781 27-02-2019 17:00:00 15.8 C 7 g/m*3 15.8 C 6.4 km/h
782 27-02-2019 17:05:00 15.8 C 7 g/m*3 15.8 C 4.8 km/h
783 27-02-2019 17:10:00 15.8 C 7.13 g/m*3 15.8 C 6.4 km/h
784 27-02-2019 17:15:00 15.7 C 6.96 g/m*3 15.7 C 6.4 km/h
785 27-02-2019 17:20:00 15.7 C 6.96 g/m*3 15.7 C 6.4 km/h
786 27-02-2019 17:25:00 15.7 C 6.82 g/m*3 15.7 C 6.4 km/h
787 27-02-2019 17:30:00 15.8 C 6.87 g/m*3 15.8 C 6.4 km/h
788 27-02-2019 17:35:00 15.8 C 6.73 g/m*3 15.8 C 6.4 km/h
789 27-02-2019 17:40:00 15.8 C 6.73 g/m*3 15.8 C 6.4 km/h
790 27-02-2019 17:45:00 15.8 C 6.73 g/m*3 15.8 C 4.8 km/h
791 27-02-2019 17:50:00 15.6 C 6.65 g/m*3 15.6 C 6.4 km/h
792 27-02-2019 17:55:00 15.3 C 6.4 g/m*3 15.3 C 6.4 km/h
793 27-02-2019 18:00:00 15 C 6.54 g/m*3 15 C 6.4 km/h
794 27-02-2019 18:05:00 14.6 C 6.51 g/m*3 14.6 C 6.4 km/h
795 27-02-2019 18:10:00 14.3 C 6.63 g/m*3 14.3 C 6.4 km/h
796 27-02-2019 18:15:00 13.9 C 6.23 g/m*3 13.9 C 8.1 km/h
797 27-02-2019 18:20:00 13.8 C 6.55 g/m*3 13.8 C 8.1 km/h
798 27-02-2019 18:25:00 13.6 C 6.36 g/m*3 13.6 C 8.1 km/h
799 27-02-2019 18:30:00 13.5 C 6.43 g/m*3 13.5 C 4.8 km/h
800 27-02-2019 18:35:00 13.3 C 6.47 g/m*3 13.3 C 6.4 km/h
Sensor: Nr:Datum:Temp:Abs-Feuchte:Windchill:Wind:
Aussen-T/F 801 27-02-2019 18:40:00 13 C 6.35 g/m*3 13 C 0 km/h
802 27-02-2019 18:45:00 12.8 C 6.38 g/m*3 12.8 C 0 km/h
803 27-02-2019 18:50:00 12.6 C 6.42 g/m*3 12.6 C 0 km/h
804 27-02-2019 18:55:00 12.3 C 6.3 g/m*3 12.3 C 0 km/h
805 27-02-2019 19:00:00 12.2 C 6.37 g/m*3 12.2 C 0 km/h
806 27-02-2019 19:05:00 11.9 C 6.25 g/m*3 11.9 C 0 km/h
807 27-02-2019 19:10:00 11.7 C 6.28 g/m*3 11.7 C 0 km/h
808 27-02-2019 19:15:00 11.5 C 6.3 g/m*3 11.5 C 0 km/h
809 27-02-2019 19:20:00 11.3 C 6.32 g/m*3 11.3 C 0 km/h
810 27-02-2019 19:25:00 11.1 C 6.45 g/m*3 11.1 C 0 km/h
811 27-02-2019 19:30:00 10.8 C 6.42 g/m*3 10.8 C 0 km/h
812 27-02-2019 19:35:00 10.5 C 6.4 g/m*3 10.5 C 0 km/h
813 27-02-2019 19:40:00 10.2 C 6.38 g/m*3 10.2 C 0 km/h
814 27-02-2019 19:45:00 10 C 6.3 g/m*3 10 C 0 km/h
815 27-02-2019 19:50:00 9.8 C 6.31 g/m*3 9.8 C 0 km/h
816 27-02-2019 19:55:00 9.7 C 6.36 g/m*3 9.7 C 0 km/h
817 27-02-2019 20:00:00 9.5 C 6.37 g/m*3 9.5 C 0 km/h
818 27-02-2019 20:05:00 9.4 C 6.24 g/m*3 9.4 C 0 km/h
819 27-02-2019 20:10:00 9.3 C 6.29 g/m*3 9.3 C 0 km/h
820 27-02-2019 20:15:00 9.1 C 6.12 g/m*3 9.1 C 0 km/h
821 27-02-2019 20:20:00 9.1 C 6.21 g/m*3 9.1 C 0 km/h
822 27-02-2019 20:25:00 8.8 C 6.09 g/m*3 8.8 C 0 km/h
823 27-02-2019 20:30:00 8.7 C 6.05 g/m*3 8.7 C 0 km/h
824 27-02-2019 20:35:00 8.6 C 6.02 g/m*3 8.6 C 0 km/h
825 27-02-2019 20:40:00 8.3 C 5.98 g/m*3 8.3 C 0 km/h
Sensor: Nr:Datum:Temp:Abs-Feuchte:Windchill:Wind:
Aussen-T/F 826 27-02-2019 20:45:00 8.1 C 5.99 g/m*3 8.1 C 0 km/h
827 27-02-2019 20:50:00 7.8 C 5.88 g/m*3 7.8 C 0 km/h
828 27-02-2019 20:55:00 7.7 C 5.84 g/m*3 7.7 C 0 km/h
829 27-02-2019 21:00:00 7.4 C 5.81 g/m*3 7.4 C 0 km/h
830 27-02-2019 21:05:00 7.3 C 5.85 g/m*3 7.3 C 0 km/h
831 27-02-2019 21:10:00 7.3 C 5.77 g/m*3 7.3 C 0 km/h
832 27-02-2019 21:15:00 7.2 C 5.81 g/m*3 7.2 C 0 km/h
833 27-02-2019 21:20:00 7.1 C 5.93 g/m*3 7.1 C 0 km/h
834 27-02-2019 21:25:00 6.9 C 5.85 g/m*3 6.9 C 0 km/h
835 27-02-2019 21:30:00 6.8 C 5.81 g/m*3 6.8 C 0 km/h
836 27-02-2019 21:35:00 6.5 C 5.77 g/m*3 6.5 C 0 km/h
837 27-02-2019 21:40:00 6.4 C 5.81 g/m*3 6.4 C 0 km/h
838 27-02-2019 21:45:00 6.4 C 5.74 g/m*3 6.4 C 0 km/h
839 27-02-2019 21:50:00 6.3 C 5.7 g/m*3 6.3 C 0 km/h
840 27-02-2019 21:55:00 6 C 5.66 g/m*3 6 C 0 km/h
841 27-02-2019 22:00:00 5.8 C 5.73 g/m*3 5.8 C 0 km/h
842 27-02-2019 22:05:00 5.8 C 5.8 g/m*3 5.8 C 0 km/h
843 27-02-2019 22:10:00 5.9 C 5.77 g/m*3 5.9 C 0 km/h
844 27-02-2019 22:15:00 5.8 C 5.66 g/m*3 5.8 C 0 km/h
845 27-02-2019 22:20:00 5.7 C 5.69 g/m*3 5.7 C 0 km/h
846 27-02-2019 22:25:00 5.6 C 5.66 g/m*3 5.6 C 0 km/h
847 27-02-2019 22:30:00 5.5 C 5.69 g/m*3 5.5 C 0 km/h
848 27-02-2019 22:35:00 5.4 C 5.65 g/m*3 5.4 C 0 km/h
849 27-02-2019 22:40:00 5.3 C 5.61 g/m*3 5.3 C 0 km/h
850 27-02-2019 22:45:00 5.3 C 5.61 g/m*3 5.3 C 0 km/h
Sensor: Nr:Datum:Temp:Abs-Feuchte:Windchill:Wind:
Aussen-T/F 851 27-02-2019 22:50:00 5.3 C 5.61 g/m*3 5.3 C 0 km/h
852 27-02-2019 22:55:00 5.2 C 5.58 g/m*3 5.2 C 0 km/h
853 27-02-2019 23:00:00 5.2 C 5.58 g/m*3 5.2 C 0 km/h
854 27-02-2019 23:05:00 5.2 C 5.58 g/m*3 5.2 C 0 km/h
855 27-02-2019 23:10:00 5.1 C 5.61 g/m*3 5.1 C 0 km/h
856 27-02-2019 23:15:00 5.1 C 5.54 g/m*3 5.1 C 0 km/h
857 27-02-2019 23:20:00 5.1 C 5.61 g/m*3 5.1 C 0 km/h
858 27-02-2019 23:25:00 4.9 C 5.54 g/m*3 4.9 C 0 km/h
859 27-02-2019 23:30:00 4.7 C 5.46 g/m*3 4.7 C 0 km/h
860 27-02-2019 23:35:00 4.6 C 5.49 g/m*3 4.6 C 0 km/h
861 27-02-2019 23:40:00 4.5 C 5.52 g/m*3 4.5 C 0 km/h
862 27-02-2019 23:45:00 4.5 C 5.59 g/m*3 4.5 C 0 km/h
863 27-02-2019 23:50:00 4.5 C 5.52 g/m*3 4.5 C 0 km/h
864 27-02-2019 23:55:00 4.6 C 5.56 g/m*3 4.6 C 0 km/h
865 28-02-2019 00:00:00 4.5 C 5.52 g/m*3 4.5 C 0 km/h
866 28-02-2019 00:05:00 4.6 C 5.62 g/m*3 4.6 C 0 km/h
867 28-02-2019 00:10:00 4.7 C 5.66 g/m*3 4.7 C 0 km/h
868 28-02-2019 00:15:00 4.8 C 5.7 g/m*3 4.8 C 0 km/h
869 28-02-2019 00:20:00 5.1 C 5.81 g/m*3 5.1 C 3.2 km/h
870 28-02-2019 00:25:00 5.4 C 5.86 g/m*3 5.4 C 3.2 km/h
871 28-02-2019 00:30:00 5.6 C 5.87 g/m*3 5.6 C 3.2 km/h
872 28-02-2019 00:35:00 5.7 C 5.84 g/m*3 5.7 C 4.8 km/h
873 28-02-2019 00:40:00 5.8 C 5.87 g/m*3 4.52 C 6.4 km/h
874 28-02-2019 00:45:00 5.9 C 5.84 g/m*3 5.9 C 4.8 km/h
875 28-02-2019 00:50:00 6 C 5.81 g/m*3 6 C 1.6 km/h
Sensor: Nr:Datum:Temp:Abs-Feuchte:Windchill:Wind:
Aussen-T/F 876 28-02-2019 00:55:00 6.1 C 5.84 g/m*3 6.1 C 1.6 km/h
877 28-02-2019 01:00:00 6.1 C 5.84 g/m*3 6.1 C 0 km/h
878 28-02-2019 01:05:00 5.9 C 5.7 g/m*3 5.9 C 0 km/h
879 28-02-2019 01:10:00 5.8 C 5.66 g/m*3 5.8 C 0 km/h
880 28-02-2019 01:15:00 5.4 C 5.51 g/m*3 5.4 C 0 km/h
881 28-02-2019 01:20:00 5.2 C 5.58 g/m*3 5.2 C 1.6 km/h
882 28-02-2019 01:25:00 5 C 5.5 g/m*3 5 C 1.6 km/h
883 28-02-2019 01:30:00 4.7 C 5.46 g/m*3 4.7 C 1.6 km/h
884 28-02-2019 01:35:00 4.5 C 5.46 g/m*3 4.5 C 0 km/h
885 28-02-2019 01:40:00 4.3 C 5.38 g/m*3 4.3 C 0 km/h
886 28-02-2019 01:45:00 4.1 C 5.38 g/m*3 4.1 C 0 km/h
887 28-02-2019 01:50:00 4.1 C 5.44 g/m*3 4.1 C 0 km/h
888 28-02-2019 01:55:00 4.1 C 5.5 g/m*3 4.1 C 0 km/h
889 28-02-2019 02:00:00 4.1 C 5.5 g/m*3 4.1 C 1.6 km/h
890 28-02-2019 02:05:00 4.1 C 5.5 g/m*3 4.1 C 3.2 km/h
891 28-02-2019 02:10:00 4.2 C 5.54 g/m*3 4.2 C 4.8 km/h
892 28-02-2019 02:15:00 4.1 C 5.44 g/m*3 4.1 C 3.2 km/h
893 28-02-2019 02:20:00 3.8 C 5.33 g/m*3 3.8 C 1.6 km/h
894 28-02-2019 02:25:00 3.6 C 5.32 g/m*3 3.6 C 1.6 km/h
895 28-02-2019 02:30:00 3.4 C 5.25 g/m*3 3.4 C 0 km/h
896 28-02-2019 02:35:00 3.3 C 5.28 g/m*3 3.3 C 4.8 km/h
897 28-02-2019 02:40:00 3.3 C 5.34 g/m*3 3.3 C 1.6 km/h
898 28-02-2019 02:45:00 3.4 C 5.44 g/m*3 0.82 C 9.7 km/h
899 28-02-2019 02:50:00 3.4 C 5.44 g/m*3 3.4 C 3.2 km/h
900 28-02-2019 02:55:00 3.4 C 5.37 g/m*3 3.4 C 3.2 km/h
Sensor: Nr:Datum:Temp:Abs-Feuchte:Windchill:Wind:
Aussen-T/F 901 28-02-2019 03:00:00 3.3 C 5.34 g/m*3 3.3 C 1.6 km/h
902 28-02-2019 03:05:00 3.1 C 5.21 g/m*3 3.1 C 0 km/h
903 28-02-2019 03:10:00 2.9 C 5.2 g/m*3 2.9 C 1.6 km/h
904 28-02-2019 03:15:00 2.9 C 5.26 g/m*3 2.9 C 1.6 km/h
905 28-02-2019 03:20:00 2.8 C 5.22 g/m*3 2.8 C 0 km/h
906 28-02-2019 03:25:00 2.8 C 5.28 g/m*3 2.8 C 3.2 km/h
907 28-02-2019 03:30:00 2.9 C 5.32 g/m*3 2.9 C 3.2 km/h
908 28-02-2019 03:35:00 3 C 5.35 g/m*3 3 C 4.8 km/h
909 28-02-2019 03:40:00 3.1 C 5.39 g/m*3 1.4 C 6.4 km/h
910 28-02-2019 03:45:00 3 C 5.29 g/m*3 3 C 3.2 km/h
911 28-02-2019 03:50:00 2.8 C 5.22 g/m*3 2.8 C 1.6 km/h
912 28-02-2019 03:55:00 2.7 C 5.19 g/m*3 2.7 C 4.8 km/h
913 28-02-2019 04:00:00 2.6 C 5.15 g/m*3 2.6 C 4.8 km/h
914 28-02-2019 04:05:00 2.4 C 5.08 g/m*3 2.4 C 0 km/h
915 28-02-2019 04:10:00 2.2 C 4.96 g/m*3 2.2 C 0 km/h
916 28-02-2019 04:15:00 2 C 4.95 g/m*3 2 C 0 km/h
917 28-02-2019 04:20:00 1.9 C 4.97 g/m*3 1.9 C 0 km/h
918 28-02-2019 04:25:00 2.1 C 5.09 g/m*3 0.24 C 6.4 km/h
919 28-02-2019 04:30:00 2.3 C 5.22 g/m*3 2.3 C 4.8 km/h
920 28-02-2019 04:35:00 2.3 C 5.16 g/m*3 2.3 C 3.2 km/h
921 28-02-2019 04:40:00 2.3 C 5.16 g/m*3 2.3 C 1.6 km/h
922 28-02-2019 04:45:00 2.3 C 5.16 g/m*3 2.3 C 4.8 km/h
923 28-02-2019 04:50:00 2.4 C 5.25 g/m*3 2.4 C 3.2 km/h
924 28-02-2019 04:55:00 2.5 C 5.23 g/m*3 2.5 C 1.6 km/h
925 28-02-2019 05:00:00 2.6 C 5.27 g/m*3 2.6 C 0 km/h
Sensor: Nr:Datum:Temp:Abs-Feuchte:Windchill:Wind:
Aussen-T/F 926 28-02-2019 05:05:00 2.5 C 5.23 g/m*3 2.5 C 1.6 km/h
927 28-02-2019 05:10:00 2.5 C 5.23 g/m*3 0.17 C 8.1 km/h
928 28-02-2019 05:15:00 2.4 C 5.14 g/m*3 2.4 C 0 km/h
929 28-02-2019 05:20:00 2.3 C 5.16 g/m*3 2.3 C 4.8 km/h
930 28-02-2019 05:25:00 2.3 C 5.16 g/m*3 -0.07 C 8.1 km/h
931 28-02-2019 05:30:00 2.3 C 5.16 g/m*3 0.47 C 6.4 km/h
932 28-02-2019 05:35:00 2.3 C 5.16 g/m*3 2.3 C 0 km/h
933 28-02-2019 05:40:00 2.3 C 5.16 g/m*3 2.3 C 3.2 km/h
934 28-02-2019 05:45:00 2.3 C 5.16 g/m*3 2.3 C 0 km/h
935 28-02-2019 05:50:00 2.2 C 5.13 g/m*3 2.2 C 1.6 km/h
936 28-02-2019 05:55:00 2.3 C 5.22 g/m*3 0.47 C 6.4 km/h
937 28-02-2019 06:00:00 2.5 C 5.29 g/m*3 2.5 C 4.8 km/h
938 28-02-2019 06:05:00 2.7 C 5.36 g/m*3 2.7 C 4.8 km/h
939 28-02-2019 06:10:00 2.7 C 5.36 g/m*3 2.7 C 1.6 km/h
940 28-02-2019 06:15:00 2.7 C 5.3 g/m*3 2.7 C 1.6 km/h
941 28-02-2019 06:20:00 2.6 C 5.27 g/m*3 2.6 C 1.6 km/h
942 28-02-2019 06:25:00 2.7 C 5.3 g/m*3 0.4 C 8.1 km/h
943 28-02-2019 06:30:00 2.9 C 5.43 g/m*3 0.64 C 8.1 km/h
944 28-02-2019 06:35:00 3.4 C 5.62 g/m*3 0.46 C 11.3 km/h
945 28-02-2019 06:40:00 3.8 C 5.65 g/m*3 0.94 C 11.3 km/h
946 28-02-2019 06:45:00 4.2 C 5.67 g/m*3 1.12 C 12.9 km/h
947 28-02-2019 06:50:00 4.2 C 5.61 g/m*3 2.17 C 8.1 km/h
948 28-02-2019 06:55:00 4.2 C 5.61 g/m*3 2.17 C 8.1 km/h
949 28-02-2019 07:00:00 4.2 C 5.61 g/m*3 1.12 C 12.9 km/h
950 28-02-2019 07:05:00 4.2 C 5.54 g/m*3 1.77 C 9.7 km/h
Sensor: Nr:Datum:Temp:Abs-Feuchte:Windchill:Wind:
Aussen-T/F 951 28-02-2019 07:10:00 4.1 C 5.5 g/m*3 2.05 C 8.1 km/h
952 28-02-2019 07:15:00 3.9 C 5.43 g/m*3 2.32 C 6.4 km/h
953 28-02-2019 07:20:00 3.9 C 5.49 g/m*3 1.82 C 8.1 km/h
954 28-02-2019 07:25:00 3.8 C 5.46 g/m*3 3.8 C 4.8 km/h
955 28-02-2019 07:30:00 3.8 C 5.46 g/m*3 3.8 C 4.8 km/h
956 28-02-2019 07:35:00 3.7 C 5.42 g/m*3 3.7 C 4.8 km/h
957 28-02-2019 07:40:00 3.6 C 5.45 g/m*3 3.6 C 0 km/h
958 28-02-2019 07:45:00 3.4 C 5.31 g/m*3 3.4 C 3.2 km/h
959 28-02-2019 07:50:00 3.3 C 5.28 g/m*3 3.3 C 3.2 km/h
960 28-02-2019 07:55:00 3.1 C 5.21 g/m*3 3.1 C 0 km/h
961 28-02-2019 08:00:00 2.9 C 5.2 g/m*3 2.9 C 0 km/h
962 28-02-2019 08:05:00 2.7 C 5.13 g/m*3 2.7 C 0 km/h
963 28-02-2019 08:10:00 2.7 C 5.13 g/m*3 2.7 C 0 km/h
964 28-02-2019 08:15:00 2.6 C 5.15 g/m*3 2.6 C 0 km/h
965 28-02-2019 08:20:00 2.7 C 5.24 g/m*3 2.7 C 3.2 km/h
966 28-02-2019 08:25:00 2.8 C 5.28 g/m*3 2.8 C 0 km/h
967 28-02-2019 08:30:00 2.9 C 5.37 g/m*3 2.9 C 4.8 km/h
968 28-02-2019 08:35:00 3.1 C 5.45 g/m*3 3.1 C 3.2 km/h
969 28-02-2019 08:40:00 3.3 C 5.52 g/m*3 0.7 C 9.7 km/h
970 28-02-2019 08:45:00 3.6 C 5.69 g/m*3 3.6 C 4.8 km/h
971 28-02-2019 08:50:00 3.7 C 5.67 g/m*3 3.7 C 4.8 km/h
972 28-02-2019 08:55:00 3.9 C 5.75 g/m*3 2.32 C 6.4 km/h
973 28-02-2019 09:00:00 4.1 C 5.82 g/m*3 2.55 C 6.4 km/h
974 28-02-2019 09:05:00 4.2 C 5.8 g/m*3 4.2 C 3.2 km/h
975 28-02-2019 09:10:00 4.3 C 5.84 g/m*3 2.29 C 8.1 km/h
Sensor: Nr:Datum:Temp:Abs-Feuchte:Windchill:Wind:
Aussen-T/F 976 28-02-2019 09:15:00 4.4 C 5.81 g/m*3 4.4 C 4.8 km/h
977 28-02-2019 09:20:00 4.5 C 5.85 g/m*3 4.5 C 4.8 km/h
978 28-02-2019 09:25:00 4.6 C 5.89 g/m*3 4.6 C 3.2 km/h
979 28-02-2019 09:30:00 4.7 C 5.93 g/m*3 4.7 C 4.8 km/h
980 28-02-2019 09:35:00 4.8 C 5.9 g/m*3 4.8 C 0 km/h
981 28-02-2019 09:40:00 4.9 C 5.94 g/m*3 4.9 C 0 km/h
982 28-02-2019 09:45:00 5.1 C 6.02 g/m*3 5.1 C 0 km/h
983 28-02-2019 09:50:00 5.2 C 6.06 g/m*3 5.2 C 1.6 km/h
984 28-02-2019 09:55:00 5.4 C 6.21 g/m*3 5.4 C 3.2 km/h
985 28-02-2019 10:00:00 5.6 C 6.29 g/m*3 5.6 C 4.8 km/h
986 28-02-2019 10:05:00 5.8 C 6.38 g/m*3 3.36 C 11.3 km/h
987 28-02-2019 10:10:00 6.3 C 6.51 g/m*3 4.27 C 9.7 km/h
988 28-02-2019 10:15:00 6.7 C 6.69 g/m*3 5.11 C 8.1 km/h
989 28-02-2019 10:20:00 7.1 C 6.71 g/m*3 4.65 C 12.9 km/h
990 28-02-2019 10:25:00 7.5 C 6.8 g/m*3 6.05 C 8.1 km/h
991 28-02-2019 10:30:00 7.9 C 6.9 g/m*3 6.18 C 9.7 km/h
992 28-02-2019 10:35:00 8.4 C 7.04 g/m*3 6.78 C 9.7 km/h
993 28-02-2019 10:40:00 8.7 C 7.09 g/m*3 8.7 C 4.8 km/h
994 28-02-2019 10:45:00 9 C 7.14 g/m*3 7.49 C 9.7 km/h
995 28-02-2019 10:50:00 9.3 C 7.19 g/m*3 8.16 C 8.1 km/h
996 28-02-2019 10:55:00 9.6 C 7.24 g/m*3 7.94 C 11.3 km/h
997 28-02-2019 11:00:00 9.9 C 7.28 g/m*3 8.06 C 12.9 km/h
998 28-02-2019 11:05:00 10.2 C 7.33 g/m*3 9.22 C 8.1 km/h
999 28-02-2019 11:10:00 10.6 C 7.42 g/m*3 8.71 C 14.5 km/h
1000 28-02-2019 11:15:00 10.9 C 7.46 g/m*3 9.76 C 9.7 km/h
Sensor: Nr:Datum:Temp:Abs-Feuchte:Windchill:Wind:
Aussen-T/F 1001 28-02-2019 11:20:00 11.3 C 7.45 g/m*3 11.3 C 11.3 km/h
1002 28-02-2019 11:25:00 11.7 C 7.53 g/m*3 11.7 C 16.1 km/h
1003 28-02-2019 11:30:00 11.9 C 7.52 g/m*3 11.9 C 14.5 km/h
1004 28-02-2019 11:35:00 12.2 C 7.55 g/m*3 12.2 C 12.9 km/h
1005 28-02-2019 11:40:00 12.4 C 7.54 g/m*3 12.4 C 16.1 km/h
1006 28-02-2019 11:45:00 12.5 C 7.59 g/m*3 12.5 C 12.9 km/h
1007 28-02-2019 11:50:00 12.6 C 7.63 g/m*3 12.6 C 12.9 km/h
1008 28-02-2019 11:55:00 12.6 C 7.63 g/m*3 12.6 C 9.7 km/h
1009 28-02-2019 12:00:00 12.7 C 7.57 g/m*3 12.7 C 11.3 km/h
1010 28-02-2019 12:05:00 12.8 C 7.73 g/m*3 12.8 C 11.3 km/h
1011 28-02-2019 12:10:00 12.8 C 7.62 g/m*3 12.8 C 11.3 km/h
1012 28-02-2019 12:15:00 12.9 C 7.66 g/m*3 12.9 C 9.7 km/h
1013 28-02-2019 12:20:00 13 C 7.71 g/m*3 13 C 11.3 km/h
1014 28-02-2019 12:25:00 13.1 C 7.65 g/m*3 13.1 C 14.5 km/h
1015 28-02-2019 12:30:00 13.2 C 7.69 g/m*3 13.2 C 14.5 km/h
1016 28-02-2019 12:35:00 13.4 C 7.9 g/m*3 13.4 C 9.7 km/h
1017 28-02-2019 12:40:00 13.7 C 7.82 g/m*3 13.7 C 12.9 km/h
1018 28-02-2019 12:45:00 13.8 C 7.86 g/m*3 13.8 C 9.7 km/h
1019 28-02-2019 12:50:00 13.9 C 7.91 g/m*3 13.9 C 8.1 km/h
1020 28-02-2019 12:55:00 13.9 C 7.91 g/m*3 13.9 C 9.7 km/h
1021 28-02-2019 13:00:00 14.1 C 8.01 g/m*3 14.1 C 11.3 km/h
1022 28-02-2019 13:05:00 14.2 C 7.94 g/m*3 14.2 C 11.3 km/h
1023 28-02-2019 13:10:00 14.3 C 8.11 g/m*3 14.3 C 9.7 km/h
1024 28-02-2019 13:15:00 14.5 C 7.96 g/m*3 14.5 C 11.3 km/h
1025 28-02-2019 13:20:00 14.7 C 8.18 g/m*3 14.7 C 9.7 km/h
Sensor: Nr:Datum:Temp:Abs-Feuchte:Windchill:Wind:
Aussen-T/F 1026 28-02-2019 13:25:00 14.9 C 8.03 g/m*3 14.9 C 8.1 km/h
1027 28-02-2019 13:30:00 15.1 C 8.26 g/m*3 15.1 C 14.5 km/h
1028 28-02-2019 13:35:00 15.2 C 8.18 g/m*3 15.2 C 11.3 km/h
1029 28-02-2019 13:40:00 15.4 C 8.15 g/m*3 15.4 C 12.9 km/h
1030 28-02-2019 13:45:00 15.6 C 8.25 g/m*3 15.6 C 12.9 km/h
1031 28-02-2019 13:50:00 15.7 C 8.16 g/m*3 15.7 C 14.5 km/h
1032 28-02-2019 13:55:00 15.8 C 8.21 g/m*3 15.8 C 11.3 km/h
1033 28-02-2019 14:00:00 16 C 8.45 g/m*3 16 C 12.9 km/h
1034 28-02-2019 14:05:00 16.2 C 8.41 g/m*3 16.2 C 11.3 km/h
1035 28-02-2019 14:10:00 16.3 C 8.46 g/m*3 16.3 C 8.1 km/h
1036 28-02-2019 14:15:00 16.4 C 8.51 g/m*3 16.4 C 6.4 km/h
1037 28-02-2019 14:20:00 16.4 C 8.51 g/m*3 16.4 C 14.5 km/h
1038 28-02-2019 14:25:00 16.5 C 8.57 g/m*3 16.5 C 9.7 km/h
1039 28-02-2019 14:30:00 16.6 C 8.62 g/m*3 16.6 C 19.3 km/h
1040 28-02-2019 14:35:00 16.7 C 8.67 g/m*3 16.7 C 14.5 km/h
1041 28-02-2019 14:40:00 16.8 C 8.72 g/m*3 16.8 C 19.3 km/h
1042 28-02-2019 14:45:00 17.1 C 8.73 g/m*3 17.1 C 9.7 km/h
1043 28-02-2019 14:50:00 17.2 C 8.79 g/m*3 17.2 C 14.5 km/h
1044 28-02-2019 14:55:00 17.2 C 8.79 g/m*3 17.2 C 14.5 km/h
1045 28-02-2019 15:00:00 17.2 C 8.79 g/m*3 17.2 C 14.5 km/h
1046 28-02-2019 15:05:00 17.1 C 8.73 g/m*3 17.1 C 12.9 km/h
1047 28-02-2019 15:10:00 17 C 8.97 g/m*3 17 C 9.7 km/h
1048 28-02-2019 15:15:00 17 C 8.83 g/m*3 17 C 11.3 km/h
1049 28-02-2019 15:20:00 16.9 C 8.77 g/m*3 16.9 C 17.7 km/h
1050 28-02-2019 15:25:00 16.8 C 8.86 g/m*3 16.8 C 14.5 km/h
Sensor: Nr:Datum:Temp:Abs-Feuchte:Windchill:Wind:
Aussen-T/F 1051 28-02-2019 15:30:00 16.8 C 8.86 g/m*3 16.8 C 9.7 km/h
1052 28-02-2019 15:35:00 16.7 C 8.81 g/m*3 16.7 C 14.5 km/h
1053 28-02-2019 15:40:00 16.7 C 8.53 g/m*3 16.7 C 11.3 km/h
1054 28-02-2019 15:45:00 16.5 C 8.43 g/m*3 16.5 C 4.8 km/h
1055 28-02-2019 15:50:00 16.3 C 8.46 g/m*3 16.3 C 4.8 km/h
1056 28-02-2019 15:55:00 16.2 C 8.41 g/m*3 16.2 C 8.1 km/h
1057 28-02-2019 16:00:00 16.2 C 8.55 g/m*3 16.2 C 9.7 km/h
1058 28-02-2019 16:05:00 16.2 C 8.83 g/m*3 16.2 C 14.5 km/h
1059 28-02-2019 16:10:00 16.1 C 8.91 g/m*3 16.1 C 9.7 km/h
1060 28-02-2019 16:15:00 16 C 8.99 g/m*3 16 C 14.5 km/h
1061 28-02-2019 16:20:00 15.9 C 8.94 g/m*3 15.9 C 11.3 km/h
1062 28-02-2019 16:25:00 15.7 C 8.83 g/m*3 15.7 C 17.7 km/h
1063 28-02-2019 16:30:00 15.5 C 8.86 g/m*3 15.5 C 11.3 km/h
1064 28-02-2019 16:35:00 15.3 C 8.23 g/m*3 15.3 C 19.3 km/h
1065 28-02-2019 16:40:00 14.7 C 7.55 g/m*3 14.7 C 30.6 km/h
1066 28-02-2019 16:45:00 14 C 7.36 g/m*3 14 C 22.5 km/h
1067 28-02-2019 16:50:00 13.6 C 7.41 g/m*3 13.6 C 22.5 km/h
1068 28-02-2019 16:55:00 13.3 C 7.39 g/m*3 13.3 C 22.5 km/h
1069 28-02-2019 17:00:00 13.1 C 7.3 g/m*3 13.1 C 24.1 km/h
1070 28-02-2019 17:05:00 13 C 7.37 g/m*3 13 C 24.1 km/h
1071 28-02-2019 17:10:00 12.9 C 7.44 g/m*3 12.9 C 25.7 km/h
1072 28-02-2019 17:15:00 12.9 C 7.55 g/m*3 12.9 C 27.4 km/h
1073 28-02-2019 17:20:00 12.8 C 7.5 g/m*3 12.8 C 20.9 km/h
1074 28-02-2019 17:25:00 12.8 C 7.62 g/m*3 12.8 C 19.3 km/h
1075 28-02-2019 17:30:00 12.7 C 7.68 g/m*3 12.7 C 14.5 km/h
Sensor: Nr:Datum:Temp:Abs-Feuchte:Windchill:Wind:
Aussen-T/F 1076 28-02-2019 17:35:00 12.6 C 7.63 g/m*3 12.6 C 20.9 km/h
1077 28-02-2019 17:40:00 12.6 C 7.63 g/m*3 12.6 C 11.3 km/h
1078 28-02-2019 17:45:00 12.5 C 7.59 g/m*3 12.5 C 12.9 km/h
1079 28-02-2019 17:50:00 12.5 C 7.7 g/m*3 12.5 C 8.1 km/h
1080 28-02-2019 17:55:00 12.4 C 7.65 g/m*3 12.4 C 8.1 km/h
1081 28-02-2019 18:00:00 12.4 C 7.65 g/m*3 12.4 C 9.7 km/h
1082 28-02-2019 18:05:00 12.4 C 7.65 g/m*3 12.4 C 8.1 km/h
1083 28-02-2019 18:10:00 12.3 C 7.71 g/m*3 12.3 C 9.7 km/h
1084 28-02-2019 18:15:00 12.3 C 7.71 g/m*3 12.3 C 8.1 km/h
1085 28-02-2019 18:20:00 12.2 C 7.66 g/m*3 12.2 C 8.1 km/h
1086 28-02-2019 18:25:00 12.2 C 7.66 g/m*3 12.2 C 9.7 km/h
1087 28-02-2019 18:30:00 12.1 C 7.61 g/m*3 12.1 C 9.7 km/h
1088 28-02-2019 18:35:00 12.1 C 7.72 g/m*3 12.1 C 6.4 km/h
1089 28-02-2019 18:40:00 12 C 7.67 g/m*3 12 C 11.3 km/h
1090 28-02-2019 18:45:00 11.9 C 7.73 g/m*3 11.9 C 11.3 km/h
1091 28-02-2019 18:50:00 11.9 C 7.73 g/m*3 11.9 C 11.3 km/h
1092 28-02-2019 18:55:00 11.8 C 7.68 g/m*3 11.8 C 9.7 km/h
1093 28-02-2019 19:00:00 11.8 C 7.79 g/m*3 11.8 C 9.7 km/h
1094 28-02-2019 19:05:00 11.7 C 7.74 g/m*3 11.7 C 11.3 km/h
1095 28-02-2019 19:10:00 11.6 C 7.69 g/m*3 11.6 C 9.7 km/h
1096 28-02-2019 19:15:00 11.4 C 7.7 g/m*3 11.4 C 8.1 km/h
1097 28-02-2019 19:20:00 11.3 C 7.65 g/m*3 11.3 C 16.1 km/h
1098 28-02-2019 19:25:00 11.2 C 7.6 g/m*3 11.2 C 6.4 km/h
1099 28-02-2019 19:30:00 11.1 C 7.66 g/m*3 11.1 C 6.4 km/h
1100 28-02-2019 19:35:00 11.1 C 7.66 g/m*3 11.1 C 6.4 km/h
Sensor: Nr:Datum:Temp:Abs-Feuchte:Windchill:Wind:
Aussen-T/F 1101 28-02-2019 19:40:00 11 C 7.71 g/m*3 9.63 C 11.3 km/h
1102 28-02-2019 19:45:00 11 C 7.71 g/m*3 10.16 C 8.1 km/h
1103 28-02-2019 19:50:00 11 C 7.71 g/m*3 11 C 4.8 km/h
1104 28-02-2019 19:55:00 11 C 7.81 g/m*3 10.16 C 8.1 km/h
1105 28-02-2019 20:00:00 11 C 7.81 g/m*3 10.16 C 8.1 km/h
1106 28-02-2019 20:05:00 11.1 C 7.86 g/m*3 11.1 C 11.3 km/h
1107 28-02-2019 20:10:00 11.1 C 7.86 g/m*3 11.1 C 9.7 km/h
1108 28-02-2019 20:15:00 11.1 C 7.86 g/m*3 11.1 C 12.9 km/h
1109 28-02-2019 20:20:00 11.1 C 7.86 g/m*3 11.1 C 8.1 km/h
1110 28-02-2019 20:25:00 11.1 C 7.96 g/m*3 11.1 C 12.9 km/h
1111 28-02-2019 20:30:00 11.1 C 7.96 g/m*3 11.1 C 8.1 km/h
1112 28-02-2019 20:35:00 11.1 C 7.96 g/m*3 11.1 C 11.3 km/h
1113 28-02-2019 20:40:00 11.1 C 7.96 g/m*3 11.1 C 14.5 km/h
1114 28-02-2019 20:45:00 11.1 C 7.96 g/m*3 11.1 C 14.5 km/h
1115 28-02-2019 20:50:00 11.1 C 7.96 g/m*3 11.1 C 11.3 km/h
1116 28-02-2019 20:55:00 11.1 C 7.96 g/m*3 11.1 C 14.5 km/h
1117 28-02-2019 21:00:00 11.1 C 8.06 g/m*3 11.1 C 14.5 km/h
1118 28-02-2019 21:05:00 11.1 C 8.06 g/m*3 11.1 C 9.7 km/h
1119 28-02-2019 21:10:00 11.1 C 8.16 g/m*3 11.1 C 11.3 km/h
1120 28-02-2019 21:15:00 11 C 8.11 g/m*3 9.88 C 9.7 km/h
1121 28-02-2019 21:20:00 10.9 C 8.06 g/m*3 8.9 C 16.1 km/h
1122 28-02-2019 21:25:00 10.9 C 8.06 g/m*3 9.28 C 12.9 km/h
1123 28-02-2019 21:30:00 10.9 C 8.06 g/m*3 10.04 C 8.1 km/h
1124 28-02-2019 21:35:00 10.9 C 8.06 g/m*3 9.08 C 14.5 km/h
1125 28-02-2019 21:40:00 10.9 C 8.06 g/m*3 9.51 C 11.3 km/h
Sensor: Nr:Datum:Temp:Abs-Feuchte:Windchill:Wind:
Aussen-T/F 1126 28-02-2019 21:45:00 10.9 C 8.06 g/m*3 9.28 C 12.9 km/h
1127 28-02-2019 21:50:00 11 C 8.11 g/m*3 9.4 C 12.9 km/h
1128 28-02-2019 21:55:00 11 C 8.01 g/m*3 10.16 C 8.1 km/h
1129 28-02-2019 22:00:00 10.9 C 7.96 g/m*3 10.9 C 3.2 km/h
1130 28-02-2019 22:05:00 10.9 C 8.06 g/m*3 8.73 C 17.7 km/h
1131 28-02-2019 22:10:00 10.9 C 8.06 g/m*3 8.73 C 17.7 km/h
1132 28-02-2019 22:15:00 10.9 C 8.06 g/m*3 9.76 C 9.7 km/h
1133 28-02-2019 22:20:00 10.9 C 8.16 g/m*3 9.51 C 11.3 km/h
1134 28-02-2019 22:25:00 10.9 C 8.16 g/m*3 9.28 C 12.9 km/h
1135 28-02-2019 22:30:00 10.8 C 8.11 g/m*3 9.16 C 12.9 km/h
1136 28-02-2019 22:35:00 10.8 C 8.11 g/m*3 9.93 C 8.1 km/h
1137 28-02-2019 22:40:00 10.8 C 8.11 g/m*3 9.64 C 9.7 km/h
1138 28-02-2019 22:45:00 10.8 C 8.11 g/m*3 10.8 C 4.8 km/h
1139 28-02-2019 22:50:00 10.8 C 8.2 g/m*3 10.29 C 6.4 km/h
1140 28-02-2019 22:55:00 10.7 C 8.15 g/m*3 9.81 C 8.1 km/h
1141 28-02-2019 23:00:00 10.7 C 8.15 g/m*3 9.81 C 8.1 km/h
1142 28-02-2019 23:05:00 10.7 C 8.15 g/m*3 10.18 C 6.4 km/h
1143 28-02-2019 23:10:00 10.7 C 8.25 g/m*3 8.84 C 14.5 km/h
1144 28-02-2019 23:15:00 10.6 C 8.3 g/m*3 8.05 C 20.9 km/h
1145 28-02-2019 23:20:00 10.6 C 8.3 g/m*3 8.92 C 12.9 km/h
1146 28-02-2019 23:25:00 10.4 C 8.29 g/m*3 8.67 C 12.9 km/h
1147 28-02-2019 23:30:00 10.3 C 8.33 g/m*3 9.04 C 9.7 km/h
1148 28-02-2019 23:35:00 10.2 C 8.37 g/m*3 8.92 C 9.7 km/h
1149 28-02-2019 23:40:00 9.9 C 8.31 g/m*3 9.25 C 6.4 km/h
1150 28-02-2019 23:45:00 9.8 C 8.26 g/m*3 9.8 C 4.8 km/h
Sensor: Nr:Datum:Temp:Abs-Feuchte:Windchill:Wind:
Aussen-T/F 1151 28-02-2019 23:50:00 9.7 C 8.3 g/m*3 9.7 C 3.2 km/h
1152 28-02-2019 23:55:00 9.6 C 8.24 g/m*3 9.6 C 4.8 km/h
1153 01-03-2019 00:00:00 9.5 C 8.28 g/m*3 8.79 C 6.4 km/h
1154 01-03-2019 00:05:00 9.4 C 8.23 g/m*3 9.4 C 1.6 km/h
1155 01-03-2019 00:10:00 9.3 C 8.27 g/m*3 8.56 C 6.4 km/h
1156 01-03-2019 00:15:00 9.3 C 8.27 g/m*3 9.3 C 3.2 km/h
1157 01-03-2019 00:20:00 9.2 C 8.22 g/m*3 8.45 C 6.4 km/h
1158 01-03-2019 00:25:00 9.1 C 8.16 g/m*3 7.93 C 8.1 km/h
1159 01-03-2019 00:30:00 9.1 C 8.16 g/m*3 7.93 C 8.1 km/h
1160 01-03-2019 00:35:00 9 C 8.11 g/m*3 9 C 3.2 km/h
1161 01-03-2019 00:40:00 8.9 C 8.06 g/m*3 8.9 C 3.2 km/h
1162 01-03-2019 00:45:00 8.8 C 8.01 g/m*3 8.8 C 1.6 km/h
1163 01-03-2019 00:50:00 8.7 C 7.96 g/m*3 8.7 C 4.8 km/h
1164 01-03-2019 00:55:00 8.6 C 7.99 g/m*3 8.6 C 3.2 km/h
1165 01-03-2019 01:00:00 8.6 C 7.99 g/m*3 7.75 C 6.4 km/h
1166 01-03-2019 01:05:00 8.7 C 8.04 g/m*3 7.87 C 6.4 km/h
1167 01-03-2019 01:10:00 8.8 C 8.18 g/m*3 6.97 C 11.3 km/h
1168 01-03-2019 01:15:00 8.8 C 8.18 g/m*3 8.8 C 1.6 km/h
1169 01-03-2019 01:20:00 8.8 C 8.18 g/m*3 8.8 C 4.8 km/h
1170 01-03-2019 01:25:00 8.7 C 8.13 g/m*3 8.7 C 4.8 km/h
1171 01-03-2019 01:30:00 8.7 C 8.13 g/m*3 8.7 C 3.2 km/h
1172 01-03-2019 01:35:00 8.7 C 8.13 g/m*3 8.7 C 3.2 km/h
1173 01-03-2019 01:40:00 8.6 C 7.99 g/m*3 8.6 C 3.2 km/h
1174 01-03-2019 01:45:00 8.6 C 8.08 g/m*3 8.6 C 3.2 km/h
1175 01-03-2019 01:50:00 8.6 C 8.08 g/m*3 8.6 C 3.2 km/h
Sensor: Nr:Datum:Temp:Abs-Feuchte:Windchill:Wind:
Aussen-T/F 1176 01-03-2019 01:55:00 8.6 C 8.08 g/m*3 8.6 C 4.8 km/h
1177 01-03-2019 02:00:00 8.6 C 8.08 g/m*3 7.01 C 9.7 km/h
1178 01-03-2019 02:05:00 8.6 C 8.08 g/m*3 8.6 C 4.8 km/h
1179 01-03-2019 02:10:00 8.7 C 8.13 g/m*3 7.13 C 9.7 km/h
1180 01-03-2019 02:15:00 8.7 C 8.13 g/m*3 6.6 C 12.9 km/h
1181 01-03-2019 02:20:00 8.7 C 8.04 g/m*3 6.85 C 11.3 km/h
1182 01-03-2019 02:25:00 8.7 C 8.04 g/m*3 6.85 C 11.3 km/h
1183 01-03-2019 02:30:00 8.8 C 8.09 g/m*3 8.8 C 4.8 km/h
1184 01-03-2019 02:35:00 8.7 C 8.04 g/m*3 7.46 C 8.1 km/h
1185 01-03-2019 02:40:00 8.7 C 8.04 g/m*3 7.46 C 8.1 km/h
1186 01-03-2019 02:45:00 8.7 C 8.04 g/m*3 7.13 C 9.7 km/h
1187 01-03-2019 02:50:00 8.7 C 8.04 g/m*3 6.6 C 12.9 km/h
1188 01-03-2019 02:55:00 8.7 C 8.04 g/m*3 6.85 C 11.3 km/h
1189 01-03-2019 03:00:00 8.7 C 7.96 g/m*3 6.85 C 11.3 km/h
1190 01-03-2019 03:05:00 8.8 C 8.01 g/m*3 7.98 C 6.4 km/h
1191 01-03-2019 03:10:00 8.7 C 7.96 g/m*3 8.7 C 4.8 km/h
1192 01-03-2019 03:15:00 8.7 C 7.96 g/m*3 6.6 C 12.9 km/h
1193 01-03-2019 03:20:00 8.8 C 8.01 g/m*3 6.97 C 11.3 km/h
1194 01-03-2019 03:25:00 8.8 C 8.01 g/m*3 7.98 C 6.4 km/h
1195 01-03-2019 03:30:00 8.8 C 7.92 g/m*3 6.97 C 11.3 km/h
1196 01-03-2019 03:35:00 8.9 C 7.97 g/m*3 7.37 C 9.7 km/h
1197 01-03-2019 03:40:00 8.9 C 7.97 g/m*3 7.09 C 11.3 km/h
1198 01-03-2019 03:45:00 8.9 C 7.97 g/m*3 7.37 C 9.7 km/h
1199 01-03-2019 03:50:00 8.8 C 7.92 g/m*3 7.58 C 8.1 km/h
1200 01-03-2019 03:55:00 8.8 C 7.92 g/m*3 7.58 C 8.1 km/h
Sensor: Nr:Datum:Temp:Abs-Feuchte:Windchill:Wind:
Aussen-T/F 1201 01-03-2019 04:00:00 8.8 C 7.92 g/m*3 7.98 C 6.4 km/h
1202 01-03-2019 04:05:00 8.8 C 7.92 g/m*3 7.58 C 8.1 km/h
1203 01-03-2019 04:10:00 8.8 C 7.92 g/m*3 7.98 C 6.4 km/h
1204 01-03-2019 04:15:00 8.8 C 7.92 g/m*3 8.8 C 4.8 km/h
1205 01-03-2019 04:20:00 8.8 C 7.92 g/m*3 7.98 C 6.4 km/h
1206 01-03-2019 04:25:00 8.8 C 7.92 g/m*3 8.8 C 3.2 km/h
1207 01-03-2019 04:30:00 8.8 C 7.92 g/m*3 8.8 C 3.2 km/h
1208 01-03-2019 04:35:00 8.7 C 7.87 g/m*3 8.7 C 4.8 km/h
1209 01-03-2019 04:40:00 8.7 C 7.87 g/m*3 8.7 C 3.2 km/h
1210 01-03-2019 04:45:00 8.7 C 7.87 g/m*3 7.87 C 6.4 km/h
1211 01-03-2019 04:50:00 8.7 C 7.87 g/m*3 7.13 C 9.7 km/h
1212 01-03-2019 04:55:00 8.7 C 7.87 g/m*3 7.87 C 6.4 km/h
1213 01-03-2019 05:00:00 8.7 C 7.87 g/m*3 7.87 C 6.4 km/h
1214 01-03-2019 05:05:00 8.7 C 7.87 g/m*3 7.13 C 9.7 km/h
1215 01-03-2019 05:10:00 8.7 C 7.87 g/m*3 8.7 C 4.8 km/h
1216 01-03-2019 05:15:00 8.7 C 7.87 g/m*3 7.87 C 6.4 km/h
1217 01-03-2019 05:20:00 8.7 C 7.87 g/m*3 8.7 C 3.2 km/h
1218 01-03-2019 05:25:00 8.7 C 7.96 g/m*3 8.7 C 3.2 km/h
1219 01-03-2019 05:30:00 8.7 C 7.96 g/m*3 8.7 C 1.6 km/h
1220 01-03-2019 05:35:00 8.6 C 7.91 g/m*3 8.6 C 1.6 km/h
1221 01-03-2019 05:40:00 8.6 C 7.91 g/m*3 8.6 C 1.6 km/h
1222 01-03-2019 05:45:00 8.5 C 7.85 g/m*3 8.5 C 1.6 km/h
1223 01-03-2019 05:50:00 8.5 C 7.94 g/m*3 8.5 C 1.6 km/h
1224 01-03-2019 05:55:00 8.5 C 7.94 g/m*3 8.5 C 1.6 km/h
1225 01-03-2019 06:00:00 8.4 C 7.89 g/m*3 7.11 C 8.1 km/h
Sensor: Nr:Datum:Temp:Abs-Feuchte:Windchill:Wind:
Aussen-T/F 1226 01-03-2019 06:05:00 8.4 C 7.89 g/m*3 8.4 C 3.2 km/h
1227 01-03-2019 06:10:00 8.4 C 7.89 g/m*3 8.4 C 1.6 km/h
1228 01-03-2019 06:15:00 8.3 C 7.92 g/m*3 7.41 C 6.4 km/h
1229 01-03-2019 06:20:00 8.3 C 7.84 g/m*3 8.3 C 3.2 km/h
1230 01-03-2019 06:25:00 8.2 C 7.79 g/m*3 8.2 C 3.2 km/h
1231 01-03-2019 06:30:00 8.2 C 7.87 g/m*3 8.2 C 1.6 km/h
1232 01-03-2019 06:35:00 8.1 C 7.82 g/m*3 8.1 C 1.6 km/h
1233 01-03-2019 06:40:00 8.1 C 7.82 g/m*3 8.1 C 1.6 km/h
1234 01-03-2019 06:45:00 8.1 C 7.82 g/m*3 7.17 C 6.4 km/h
1235 01-03-2019 06:50:00 8 C 7.77 g/m*3 8 C 1.6 km/h
1236 01-03-2019 06:55:00 8 C 7.77 g/m*3 8 C 3.2 km/h
1237 01-03-2019 07:00:00 8 C 7.77 g/m*3 8 C 1.6 km/h
1238 01-03-2019 07:05:00 8.1 C 7.9 g/m*3 8.1 C 3.2 km/h
1239 01-03-2019 07:10:00 8.1 C 7.9 g/m*3 7.17 C 6.4 km/h
1240 01-03-2019 07:15:00 8.2 C 7.96 g/m*3 8.2 C 1.6 km/h
1241 01-03-2019 07:20:00 8.2 C 7.96 g/m*3 7.29 C 6.4 km/h
1242 01-03-2019 07:25:00 8.2 C 7.96 g/m*3 6.87 C 8.1 km/h
1243 01-03-2019 07:30:00 8.3 C 8.01 g/m*3 8.3 C 1.6 km/h
1244 01-03-2019 07:35:00 8.3 C 8.01 g/m*3 8.3 C 1.6 km/h
1245 01-03-2019 07:40:00 8.3 C 8.01 g/m*3 8.3 C 1.6 km/h
1246 01-03-2019 07:45:00 8.3 C 8.01 g/m*3 8.3 C 3.2 km/h
1247 01-03-2019 07:50:00 8.3 C 8.01 g/m*3 8.3 C 3.2 km/h
1248 01-03-2019 07:55:00 8.3 C 8.01 g/m*3 8.3 C 4.8 km/h
1249 01-03-2019 08:00:00 8.3 C 8.01 g/m*3 8.3 C 0 km/h
1250 01-03-2019 08:05:00 8.3 C 8.01 g/m*3 8.3 C 4.8 km/h
Sensor: Nr:Datum:Temp:Abs-Feuchte:Windchill:Wind:
Aussen-T/F 1251 01-03-2019 08:10:00 8.4 C 8.06 g/m*3 8.4 C 3.2 km/h
1252 01-03-2019 08:15:00 8.4 C 8.06 g/m*3 8.4 C 3.2 km/h
1253 01-03-2019 08:20:00 8.5 C 8.11 g/m*3 8.5 C 4.8 km/h
1254 01-03-2019 08:25:00 8.6 C 8.16 g/m*3 8.6 C 4.8 km/h
1255 01-03-2019 08:30:00 8.6 C 8.16 g/m*3 8.6 C 0 km/h
1256 01-03-2019 08:35:00 8.6 C 8.16 g/m*3 8.6 C 1.6 km/h
1257 01-03-2019 08:40:00 8.6 C 8.16 g/m*3 8.6 C 1.6 km/h
1258 01-03-2019 08:45:00 8.7 C 8.22 g/m*3 8.7 C 3.2 km/h
1259 01-03-2019 08:50:00 8.7 C 8.22 g/m*3 8.7 C 1.6 km/h
1260 01-03-2019 08:55:00 8.7 C 8.22 g/m*3 8.7 C 4.8 km/h
1261 01-03-2019 09:00:00 8.7 C 8.22 g/m*3 8.7 C 0 km/h
1262 01-03-2019 09:05:00 8.7 C 8.22 g/m*3 8.7 C 0 km/h
1263 01-03-2019 09:10:00 8.7 C 8.22 g/m*3 8.7 C 0 km/h
1264 01-03-2019 09:15:00 8.7 C 8.22 g/m*3 8.7 C 0 km/h
1265 01-03-2019 09:20:00 8.7 C 8.22 g/m*3 8.7 C 0 km/h
1266 01-03-2019 09:25:00 8.7 C 8.22 g/m*3 8.7 C 1.6 km/h
1267 01-03-2019 09:30:00 8.7 C 8.22 g/m*3 8.7 C 0 km/h
1268 01-03-2019 09:35:00 8.7 C 8.22 g/m*3 8.7 C 1.6 km/h
1269 01-03-2019 09:40:00 8.7 C 8.22 g/m*3 8.7 C 3.2 km/h
1270 01-03-2019 09:45:00 8.7 C 8.22 g/m*3 8.7 C 1.6 km/h
1271 01-03-2019 09:50:00 8.6 C 8.16 g/m*3 8.6 C 0 km/h
1272 01-03-2019 09:55:00 8.6 C 8.16 g/m*3 8.6 C 1.6 km/h
1273 01-03-2019 10:00:00 8.6 C 8.16 g/m*3 8.6 C 0 km/h
1274 01-03-2019 10:05:00 8.6 C 8.25 g/m*3 8.6 C 0 km/h
1275 01-03-2019 10:10:00 8.6 C 8.25 g/m*3 8.6 C 1.6 km/h
Sensor: Nr:Datum:Temp:Abs-Feuchte:Windchill:Wind:
Aussen-T/F 1276 01-03-2019 10:15:00 8.6 C 8.25 g/m*3 8.6 C 0 km/h
1277 01-03-2019 10:20:00 8.6 C 8.25 g/m*3 8.6 C 1.6 km/h
1278 01-03-2019 10:25:00 8.6 C 8.25 g/m*3 8.6 C 0 km/h
1279 01-03-2019 10:30:00 8.6 C 8.25 g/m*3 8.6 C 0 km/h
1280 01-03-2019 10:35:00 8.7 C 8.3 g/m*3 8.7 C 0 km/h
1281 01-03-2019 10:40:00 8.7 C 8.3 g/m*3 8.7 C 0 km/h
1282 01-03-2019 10:45:00 8.8 C 8.36 g/m*3 8.8 C 0 km/h
1283 01-03-2019 10:50:00 8.8 C 8.36 g/m*3 8.8 C 0 km/h
1284 01-03-2019 10:55:00 8.8 C 8.36 g/m*3 8.8 C 0 km/h
1285 01-03-2019 11:00:00 8.8 C 8.36 g/m*3 8.8 C 3.2 km/h
1286 01-03-2019 11:05:00 8.7 C 8.22 g/m*3 8.7 C 4.8 km/h
1287 01-03-2019 11:10:00 8.7 C 8.22 g/m*3 8.7 C 0 km/h
1288 01-03-2019 11:15:00 8.7 C 8.22 g/m*3 8.7 C 0 km/h
1289 01-03-2019 11:20:00 8.7 C 8.22 g/m*3 8.7 C 3.2 km/h
1290 01-03-2019 11:25:00 8.7 C 8.22 g/m*3 8.7 C 4.8 km/h
1291 01-03-2019 11:30:00 8.6 C 8.16 g/m*3 8.6 C 1.6 km/h
1292 01-03-2019 11:35:00 8.7 C 8.22 g/m*3 8.7 C 1.6 km/h
1293 01-03-2019 11:40:00 8.7 C 8.22 g/m*3 7.87 C 6.4 km/h
1294 01-03-2019 11:45:00 8.8 C 8.27 g/m*3 8.8 C 0 km/h
1295 01-03-2019 11:50:00 8.9 C 8.32 g/m*3 8.9 C 3.2 km/h
1296 01-03-2019 11:55:00 9.1 C 8.43 g/m*3 9.1 C 3.2 km/h
1297 01-03-2019 12:00:00 9.1 C 8.34 g/m*3 8.33 C 6.4 km/h
1298 01-03-2019 12:05:00 9.1 C 8.34 g/m*3 7.61 C 9.7 km/h
1299 01-03-2019 12:10:00 9.1 C 8.25 g/m*3 8.33 C 6.4 km/h
1300 01-03-2019 12:15:00 9.1 C 8.16 g/m*3 7.33 C 11.3 km/h
Sensor: Nr:Datum:Temp:Abs-Feuchte:Windchill:Wind:
Aussen-T/F 1301 01-03-2019 12:20:00 9.1 C 8.16 g/m*3 7.09 C 12.9 km/h
1302 01-03-2019 12:25:00 9.1 C 8.07 g/m*3 6.67 C 16.1 km/h
1303 01-03-2019 12:30:00 9 C 8.02 g/m*3 6.54 C 16.1 km/h
1304 01-03-2019 12:35:00 9.1 C 7.99 g/m*3 6.67 C 16.1 km/h
1305 01-03-2019 12:40:00 9 C 7.93 g/m*3 6.97 C 12.9 km/h
1306 01-03-2019 12:45:00 8.9 C 7.88 g/m*3 6.85 C 12.9 km/h
1307 01-03-2019 12:50:00 8.8 C 7.83 g/m*3 6.72 C 12.9 km/h
1308 01-03-2019 12:55:00 8.8 C 7.83 g/m*3 6.72 C 12.9 km/h
1309 01-03-2019 13:00:00 8.7 C 7.87 g/m*3 6.17 C 16.1 km/h
1310 01-03-2019 13:05:00 8.7 C 7.87 g/m*3 6.6 C 12.9 km/h
1311 01-03-2019 13:10:00 8.7 C 7.87 g/m*3 6.6 C 12.9 km/h
1312 01-03-2019 13:15:00 8.6 C 7.82 g/m*3 6.05 C 16.1 km/h
1313 01-03-2019 13:20:00 8.5 C 7.77 g/m*3 7.22 C 8.1 km/h
1314 01-03-2019 13:25:00 8.4 C 7.72 g/m*3 6.49 C 11.3 km/h
1315 01-03-2019 13:30:00 8.4 C 7.8 g/m*3 7.52 C 6.4 km/h
1316 01-03-2019 13:35:00 8.4 C 7.8 g/m*3 7.52 C 6.4 km/h
1317 01-03-2019 13:40:00 8.3 C 7.75 g/m*3 6.12 C 12.9 km/h
1318 01-03-2019 13:45:00 8.4 C 7.8 g/m*3 7.52 C 6.4 km/h
1319 01-03-2019 13:50:00 8.4 C 7.8 g/m*3 7.52 C 6.4 km/h
1320 01-03-2019 13:55:00 8.4 C 7.8 g/m*3 7.52 C 6.4 km/h
1321 01-03-2019 14:00:00 8.4 C 7.8 g/m*3 8.4 C 4.8 km/h
1322 01-03-2019 14:05:00 8.4 C 7.8 g/m*3 8.4 C 1.6 km/h
1323 01-03-2019 14:10:00 8.4 C 7.8 g/m*3 8.4 C 3.2 km/h
1324 01-03-2019 14:15:00 8.3 C 7.67 g/m*3 6.99 C 8.1 km/h
1325 01-03-2019 14:20:00 8.4 C 7.72 g/m*3 6.78 C 9.7 km/h
Sensor: Nr:Datum:Temp:Abs-Feuchte:Windchill:Wind:
Aussen-T/F 1326 01-03-2019 14:25:00 8.4 C 7.72 g/m*3 6.78 C 9.7 km/h
1327 01-03-2019 14:30:00 8.3 C 7.59 g/m*3 6.37 C 11.3 km/h
1328 01-03-2019 14:35:00 8.4 C 7.63 g/m*3 6.78 C 9.7 km/h
1329 01-03-2019 14:40:00 8.4 C 7.55 g/m*3 6.24 C 12.9 km/h
1330 01-03-2019 14:45:00 8.4 C 7.55 g/m*3 6.78 C 9.7 km/h
1331 01-03-2019 14:50:00 8.4 C 7.55 g/m*3 6.49 C 11.3 km/h
1332 01-03-2019 14:55:00 8.4 C 7.55 g/m*3 6.78 C 9.7 km/h
1333 01-03-2019 15:00:00 8.4 C 7.55 g/m*3 8.4 C 3.2 km/h
1334 01-03-2019 15:05:00 8.4 C 7.55 g/m*3 8.4 C 4.8 km/h
1335 01-03-2019 15:10:00 8.4 C 7.63 g/m*3 7.52 C 6.4 km/h
1336 01-03-2019 15:15:00 8.3 C 7.5 g/m*3 6.37 C 11.3 km/h
1337 01-03-2019 15:20:00 8.3 C 7.5 g/m*3 6.99 C 8.1 km/h
1338 01-03-2019 15:25:00 8.3 C 7.59 g/m*3 6.66 C 9.7 km/h
1339 01-03-2019 15:30:00 8.3 C 7.59 g/m*3 7.41 C 6.4 km/h
1340 01-03-2019 15:35:00 8.3 C 7.59 g/m*3 8.3 C 4.8 km/h
1341 01-03-2019 15:40:00 8.3 C 7.59 g/m*3 6.99 C 8.1 km/h
1342 01-03-2019 15:45:00 8.3 C 7.59 g/m*3 8.3 C 0 km/h
1343 01-03-2019 15:50:00 8.3 C 7.59 g/m*3 8.3 C 3.2 km/h
1344 01-03-2019 15:55:00 8.3 C 7.59 g/m*3 8.3 C 1.6 km/h
1345 01-03-2019 16:00:00 8.3 C 7.59 g/m*3 8.3 C 4.8 km/h
1346 01-03-2019 16:05:00 8.4 C 7.63 g/m*3 8.4 C 3.2 km/h
1347 01-03-2019 16:10:00 8.4 C 7.63 g/m*3 6.01 C 14.5 km/h
1348 01-03-2019 16:15:00 8.4 C 7.63 g/m*3 8.4 C 4.8 km/h
1349 01-03-2019 16:20:00 8.4 C 7.63 g/m*3 7.52 C 6.4 km/h
1350 01-03-2019 16:25:00 8.3 C 7.67 g/m*3 8.3 C 3.2 km/h
Sensor: Nr:Datum:Temp:Abs-Feuchte:Windchill:Wind:
Aussen-T/F 1351 01-03-2019 16:30:00 8.3 C 7.67 g/m*3 6.37 C 11.3 km/h
1352 01-03-2019 16:35:00 8.3 C 7.59 g/m*3 8.3 C 0 km/h
1353 01-03-2019 16:40:00 8.3 C 7.67 g/m*3 8.3 C 0 km/h
1354 01-03-2019 16:45:00 8.3 C 7.67 g/m*3 8.3 C 1.6 km/h
1355 01-03-2019 16:50:00 8.4 C 7.72 g/m*3 8.4 C 4.8 km/h
1356 01-03-2019 16:55:00 8.3 C 7.67 g/m*3 8.3 C 1.6 km/h
1357 01-03-2019 17:00:00 8.3 C 7.67 g/m*3 8.3 C 1.6 km/h
1358 01-03-2019 17:05:00 8.3 C 7.67 g/m*3 8.3 C 3.2 km/h
1359 01-03-2019 17:10:00 8.3 C 7.67 g/m*3 8.3 C 0 km/h
1360 01-03-2019 17:15:00 8.3 C 7.67 g/m*3 8.3 C 0 km/h
1361 01-03-2019 17:20:00 8.3 C 7.67 g/m*3 8.3 C 1.6 km/h
1362 01-03-2019 17:25:00 8.3 C 7.67 g/m*3 8.3 C 0 km/h
1363 01-03-2019 17:30:00 8.2 C 7.62 g/m*3 8.2 C 0 km/h
1364 01-03-2019 17:35:00 8.2 C 7.62 g/m*3 8.2 C 0 km/h
1365 01-03-2019 17:40:00 8.3 C 7.67 g/m*3 8.3 C 4.8 km/h
1366 01-03-2019 17:45:00 8.3 C 7.67 g/m*3 7.41 C 6.4 km/h
1367 01-03-2019 17:50:00 8.3 C 7.67 g/m*3 6.66 C 9.7 km/h
1368 01-03-2019 17:55:00 8.3 C 7.67 g/m*3 6.37 C 11.3 km/h
1369 01-03-2019 18:00:00 8.2 C 7.54 g/m*3 5.18 C 19.3 km/h
1370 01-03-2019 18:05:00 8 C 7.44 g/m*3 5.52 C 14.5 km/h
1371 01-03-2019 18:10:00 7.8 C 7.35 g/m*3 4.86 C 17.7 km/h
1372 01-03-2019 18:15:00 7.8 C 7.35 g/m*3 5.27 C 14.5 km/h
1373 01-03-2019 18:20:00 7.7 C 7.22 g/m*3 5.65 C 11.3 km/h
1374 01-03-2019 18:25:00 7.6 C 7.17 g/m*3 5.26 C 12.9 km/h
1375 01-03-2019 18:30:00 7.6 C 7.17 g/m*3 5.82 C 9.7 km/h
Sensor: Nr:Datum:Temp:Abs-Feuchte:Windchill:Wind:
Aussen-T/F 1376 01-03-2019 18:35:00 7.5 C 7.12 g/m*3 5.7 C 9.7 km/h
1377 01-03-2019 18:40:00 7.4 C 7.08 g/m*3 5.02 C 12.9 km/h
1378 01-03-2019 18:45:00 7.3 C 7.03 g/m*3 5.81 C 8.1 km/h
1379 01-03-2019 18:50:00 7.3 C 7.03 g/m*3 5.16 C 11.3 km/h
1380 01-03-2019 18:55:00 7.2 C 7.06 g/m*3 5.69 C 8.1 km/h
1381 01-03-2019 19:00:00 7.2 C 7.06 g/m*3 4.77 C 12.9 km/h
1382 01-03-2019 19:05:00 7.1 C 7.02 g/m*3 4.41 C 14.5 km/h
1383 01-03-2019 19:10:00 7.1 C 6.94 g/m*3 4.65 C 12.9 km/h
1384 01-03-2019 19:15:00 7 C 6.97 g/m*3 4.53 C 12.9 km/h
1385 01-03-2019 19:20:00 6.9 C 6.93 g/m*3 5.34 C 8.1 km/h
1386 01-03-2019 19:25:00 6.9 C 6.93 g/m*3 4.41 C 12.9 km/h
1387 01-03-2019 19:30:00 6.8 C 6.88 g/m*3 6.8 C 3.2 km/h
1388 01-03-2019 19:35:00 6.8 C 6.88 g/m*3 6.8 C 4.8 km/h
1389 01-03-2019 19:40:00 6.8 C 6.88 g/m*3 6.8 C 4.8 km/h
1390 01-03-2019 19:45:00 6.8 C 6.88 g/m*3 6.8 C 4.8 km/h
1391 01-03-2019 19:50:00 6.7 C 6.84 g/m*3 6.7 C 4.8 km/h
1392 01-03-2019 19:55:00 6.7 C 6.84 g/m*3 6.7 C 3.2 km/h
1393 01-03-2019 20:00:00 6.7 C 6.91 g/m*3 6.7 C 4.8 km/h
1394 01-03-2019 20:05:00 6.7 C 6.91 g/m*3 6.7 C 0 km/h
1395 01-03-2019 20:10:00 6.7 C 6.91 g/m*3 6.7 C 0 km/h
1396 01-03-2019 20:15:00 6.7 C 6.91 g/m*3 6.7 C 3.2 km/h
1397 01-03-2019 20:20:00 6.6 C 6.87 g/m*3 6.6 C 0 km/h
1398 01-03-2019 20:25:00 6.6 C 6.87 g/m*3 6.6 C 1.6 km/h
1399 01-03-2019 20:30:00 6.6 C 6.87 g/m*3 6.6 C 3.2 km/h
1400 01-03-2019 20:35:00 6.6 C 6.87 g/m*3 6.6 C 4.8 km/h
Sensor: Nr:Datum:Temp:Abs-Feuchte:Windchill:Wind:
Aussen-T/F 1401 01-03-2019 20:40:00 6.6 C 6.87 g/m*3 6.6 C 3.2 km/h
1402 01-03-2019 20:45:00 6.6 C 6.87 g/m*3 6.6 C 0 km/h
1403 01-03-2019 20:50:00 6.6 C 6.87 g/m*3 6.6 C 0 km/h
1404 01-03-2019 20:55:00 6.5 C 6.82 g/m*3 6.5 C 0 km/h
1405 01-03-2019 21:00:00 6.5 C 6.82 g/m*3 6.5 C 0 km/h
1406 01-03-2019 21:05:00 6.5 C 6.82 g/m*3 6.5 C 0 km/h
1407 01-03-2019 21:10:00 6.4 C 6.78 g/m*3 6.4 C 0 km/h
1408 01-03-2019 21:15:00 6.4 C 6.78 g/m*3 6.4 C 3.2 km/h
1409 01-03-2019 21:20:00 6.4 C 6.78 g/m*3 6.4 C 1.6 km/h
1410 01-03-2019 21:25:00 6.4 C 6.78 g/m*3 6.4 C 3.2 km/h
1411 01-03-2019 21:30:00 6.5 C 6.75 g/m*3 6.5 C 0 km/h
1412 01-03-2019 21:35:00 6.5 C 6.82 g/m*3 6.5 C 0 km/h
1413 01-03-2019 21:40:00 6.5 C 6.82 g/m*3 6.5 C 3.2 km/h
1414 01-03-2019 21:45:00 6.5 C 6.75 g/m*3 6.5 C 1.6 km/h
1415 01-03-2019 21:50:00 6.4 C 6.71 g/m*3 6.4 C 1.6 km/h
1416 01-03-2019 21:55:00 6.4 C 6.71 g/m*3 6.4 C 0 km/h
1417 01-03-2019 22:00:00 6.4 C 6.71 g/m*3 6.4 C 0 km/h
1418 01-03-2019 22:05:00 6.4 C 6.78 g/m*3 6.4 C 0 km/h
1419 01-03-2019 22:10:00 6.3 C 6.74 g/m*3 6.3 C 0 km/h
1420 01-03-2019 22:15:00 6.3 C 6.74 g/m*3 6.3 C 0 km/h
1421 01-03-2019 22:20:00 6.3 C 6.74 g/m*3 6.3 C 0 km/h
1422 01-03-2019 22:25:00 6.3 C 6.74 g/m*3 6.3 C 0 km/h
1423 01-03-2019 22:30:00 6.3 C 6.74 g/m*3 6.3 C 1.6 km/h
1424 01-03-2019 22:35:00 6.3 C 6.66 g/m*3 6.3 C 4.8 km/h
1425 01-03-2019 22:40:00 6.4 C 6.71 g/m*3 6.4 C 3.2 km/h
Sensor: Nr:Datum:Temp:Abs-Feuchte:Windchill:Wind:
Aussen-T/F 1426 01-03-2019 22:45:00 6.4 C 6.63 g/m*3 6.4 C 3.2 km/h
1427 01-03-2019 22:50:00 6.5 C 6.67 g/m*3 6.5 C 3.2 km/h
1428 01-03-2019 22:55:00 6.6 C 6.64 g/m*3 6.6 C 4.8 km/h
1429 01-03-2019 23:00:00 6.6 C 6.64 g/m*3 6.6 C 4.8 km/h
1430 01-03-2019 23:05:00 6.7 C 6.69 g/m*3 6.7 C 0 km/h
1431 01-03-2019 23:10:00 6.7 C 6.69 g/m*3 6.7 C 3.2 km/h
1432 01-03-2019 23:15:00 6.6 C 6.64 g/m*3 6.6 C 0 km/h
1433 01-03-2019 23:20:00 6.6 C 6.64 g/m*3 6.6 C 1.6 km/h
1434 01-03-2019 23:25:00 6.6 C 6.64 g/m*3 6.6 C 0 km/h
1435 01-03-2019 23:30:00 6.6 C 6.64 g/m*3 6.6 C 0 km/h
1436 01-03-2019 23:35:00 6.5 C 6.67 g/m*3 6.5 C 0 km/h
1437 01-03-2019 23:40:00 6.4 C 6.63 g/m*3 6.4 C 0 km/h
1438 01-03-2019 23:45:00 6.4 C 6.63 g/m*3 6.4 C 0 km/h
1439 01-03-2019 23:50:00 6.4 C 6.71 g/m*3 6.4 C 0 km/h
1440 01-03-2019 23:55:00 6.3 C 6.66 g/m*3 6.3 C 1.6 km/h
1441 02-03-2019 00:00:00 6.3 C 6.66 g/m*3 6.3 C 0 km/h
1442 02-03-2019 00:05:00 6.3 C 6.59 g/m*3 6.3 C 0 km/h
1443 02-03-2019 00:10:00 6.2 C 6.62 g/m*3 6.2 C 0 km/h
1444 02-03-2019 00:15:00 6.2 C 6.62 g/m*3 6.2 C 0 km/h
1445 02-03-2019 00:20:00 6.2 C 6.62 g/m*3 6.2 C 0 km/h
1446 02-03-2019 00:25:00 6.2 C 6.62 g/m*3 4.52 C 8.1 km/h
1447 02-03-2019 00:30:00 6.2 C 6.62 g/m*3 4.52 C 8.1 km/h
1448 02-03-2019 00:35:00 6.2 C 6.55 g/m*3 4.15 C 9.7 km/h
1449 02-03-2019 00:40:00 6.2 C 6.47 g/m*3 4.15 C 9.7 km/h
1450 02-03-2019 00:45:00 6.1 C 6.43 g/m*3 4.4 C 8.1 km/h
Sensor: Nr:Datum:Temp:Abs-Feuchte:Windchill:Wind:
Aussen-T/F 1451 02-03-2019 00:50:00 6.1 C 6.43 g/m*3 6.1 C 4.8 km/h
1452 02-03-2019 00:55:00 6.1 C 6.43 g/m*3 6.1 C 3.2 km/h
1453 02-03-2019 01:00:00 6.1 C 6.43 g/m*3 6.1 C 4.8 km/h
1454 02-03-2019 01:05:00 6 C 6.39 g/m*3 6 C 1.6 km/h
1455 02-03-2019 01:10:00 5.9 C 6.35 g/m*3 5.9 C 4.8 km/h
1456 02-03-2019 01:15:00 5.9 C 6.42 g/m*3 5.9 C 0 km/h
1457 02-03-2019 01:20:00 5.9 C 6.42 g/m*3 5.9 C 0 km/h
1458 02-03-2019 01:25:00 5.8 C 6.38 g/m*3 5.8 C 1.6 km/h
1459 02-03-2019 01:30:00 5.8 C 6.38 g/m*3 5.8 C 3.2 km/h
1460 02-03-2019 01:35:00 5.8 C 6.38 g/m*3 5.8 C 0 km/h
1461 02-03-2019 01:40:00 5.8 C 6.45 g/m*3 5.8 C 0 km/h
1462 02-03-2019 01:45:00 5.8 C 6.45 g/m*3 5.8 C 0 km/h
1463 02-03-2019 01:50:00 5.7 C 6.4 g/m*3 5.7 C 1.6 km/h
1464 02-03-2019 01:55:00 5.7 C 6.4 g/m*3 5.7 C 1.6 km/h
1465 02-03-2019 02:00:00 5.7 C 6.4 g/m*3 5.7 C 0 km/h
1466 02-03-2019 02:05:00 5.7 C 6.4 g/m*3 5.7 C 0 km/h
1467 02-03-2019 02:10:00 5.7 C 6.48 g/m*3 5.7 C 0 km/h
1468 02-03-2019 02:15:00 5.7 C 6.48 g/m*3 5.7 C 1.6 km/h
1469 02-03-2019 02:20:00 5.7 C 6.48 g/m*3 5.7 C 3.2 km/h
1470 02-03-2019 02:25:00 5.6 C 6.36 g/m*3 5.6 C 1.6 km/h
1471 02-03-2019 02:30:00 5.6 C 6.43 g/m*3 5.6 C 0 km/h
1472 02-03-2019 02:35:00 5.6 C 6.43 g/m*3 5.6 C 3.2 km/h
1473 02-03-2019 02:40:00 5.6 C 6.43 g/m*3 5.6 C 1.6 km/h
1474 02-03-2019 02:45:00 5.6 C 6.43 g/m*3 5.6 C 0 km/h
1475 02-03-2019 02:50:00 5.6 C 6.43 g/m*3 5.6 C 0 km/h
Sensor: Nr:Datum:Temp:Abs-Feuchte:Windchill:Wind:
Aussen-T/F 1476 02-03-2019 02:55:00 5.6 C 6.43 g/m*3 5.6 C 0 km/h
1477 02-03-2019 03:00:00 5.6 C 6.43 g/m*3 5.6 C 0 km/h
1478 02-03-2019 03:05:00 5.6 C 6.43 g/m*3 5.6 C 1.6 km/h
1479 02-03-2019 03:10:00 5.6 C 6.43 g/m*3 5.6 C 3.2 km/h
1480 02-03-2019 03:15:00 5.6 C 6.43 g/m*3 5.6 C 1.6 km/h
1481 02-03-2019 03:20:00 5.6 C 6.43 g/m*3 5.6 C 3.2 km/h
1482 02-03-2019 03:25:00 5.6 C 6.43 g/m*3 5.6 C 3.2 km/h
1483 02-03-2019 03:30:00 5.7 C 6.48 g/m*3 5.7 C 1.6 km/h
1484 02-03-2019 03:35:00 5.7 C 6.48 g/m*3 5.7 C 1.6 km/h
1485 02-03-2019 03:40:00 5.7 C 6.4 g/m*3 5.7 C 1.6 km/h
1486 02-03-2019 03:45:00 5.7 C 6.4 g/m*3 5.7 C 0 km/h
1487 02-03-2019 03:50:00 5.7 C 6.4 g/m*3 5.7 C 0 km/h
1488 02-03-2019 03:55:00 5.7 C 6.4 g/m*3 5.7 C 0 km/h
1489 02-03-2019 04:00:00 5.7 C 6.4 g/m*3 5.7 C 0 km/h
1490 02-03-2019 04:05:00 5.7 C 6.48 g/m*3 5.7 C 0 km/h
1491 02-03-2019 04:10:00 5.7 C 6.48 g/m*3 5.7 C 0 km/h
1492 02-03-2019 04:15:00 5.6 C 6.36 g/m*3 5.6 C 0 km/h
1493 02-03-2019 04:20:00 5.6 C 6.43 g/m*3 5.6 C 0 km/h
1494 02-03-2019 04:25:00 5.6 C 6.43 g/m*3 5.6 C 0 km/h
1495 02-03-2019 04:30:00 5.7 C 6.48 g/m*3 5.7 C 0 km/h
1496 02-03-2019 04:35:00 5.7 C 6.48 g/m*3 5.7 C 0 km/h
1497 02-03-2019 04:40:00 5.7 C 6.48 g/m*3 5.7 C 1.6 km/h
1498 02-03-2019 04:45:00 5.8 C 6.59 g/m*3 5.8 C 0 km/h
1499 02-03-2019 04:50:00 5.8 C 6.52 g/m*3 5.8 C 1.6 km/h
1500 02-03-2019 04:55:00 5.8 C 6.52 g/m*3 5.8 C 0 km/h
Sensor: Nr:Datum:Temp:Abs-Feuchte:Windchill:Wind:
Aussen-T/F 1501 02-03-2019 05:00:00 5.8 C 6.52 g/m*3 5.8 C 4.8 km/h
1502 02-03-2019 05:05:00 5.9 C 6.56 g/m*3 4.63 C 6.4 km/h
1503 02-03-2019 05:10:00 5.9 C 6.56 g/m*3 5.9 C 3.2 km/h
1504 02-03-2019 05:15:00 5.9 C 6.56 g/m*3 5.9 C 1.6 km/h
1505 02-03-2019 05:20:00 6 C 6.6 g/m*3 6 C 4.8 km/h
1506 02-03-2019 05:25:00 6.1 C 6.65 g/m*3 4.86 C 6.4 km/h
1507 02-03-2019 05:30:00 6.2 C 6.69 g/m*3 4.98 C 6.4 km/h
1508 02-03-2019 05:35:00 6.3 C 6.74 g/m*3 6.3 C 4.8 km/h
1509 02-03-2019 05:40:00 6.3 C 6.74 g/m*3 5.1 C 6.4 km/h
1510 02-03-2019 05:45:00 6.3 C 6.74 g/m*3 4.64 C 8.1 km/h
1511 02-03-2019 05:50:00 6.3 C 6.74 g/m*3 6.3 C 3.2 km/h
1512 02-03-2019 05:55:00 6.3 C 6.74 g/m*3 6.3 C 1.6 km/h
1513 02-03-2019 06:00:00 6.3 C 6.74 g/m*3 6.3 C 4.8 km/h
1514 02-03-2019 06:05:00 6.3 C 6.74 g/m*3 6.3 C 4.8 km/h
1515 02-03-2019 06:10:00 6.3 C 6.74 g/m*3 6.3 C 1.6 km/h
1516 02-03-2019 06:15:00 6.3 C 6.74 g/m*3 6.3 C 0 km/h
1517 02-03-2019 06:20:00 6.3 C 6.74 g/m*3 6.3 C 3.2 km/h
1518 02-03-2019 06:25:00 6.3 C 6.74 g/m*3 6.3 C 1.6 km/h
1519 02-03-2019 06:30:00 6.3 C 6.74 g/m*3 6.3 C 3.2 km/h
1520 02-03-2019 06:35:00 6.3 C 6.74 g/m*3 6.3 C 1.6 km/h
1521 02-03-2019 06:40:00 6.3 C 6.74 g/m*3 5.1 C 6.4 km/h
1522 02-03-2019 06:45:00 6.3 C 6.74 g/m*3 6.3 C 4.8 km/h
1523 02-03-2019 06:50:00 6.3 C 6.74 g/m*3 5.1 C 6.4 km/h
1524 02-03-2019 06:55:00 6.4 C 6.78 g/m*3 5.21 C 6.4 km/h
1525 02-03-2019 07:00:00 6.4 C 6.78 g/m*3 4.75 C 8.1 km/h
Sensor: Nr:Datum:Temp:Abs-Feuchte:Windchill:Wind:
Aussen-T/F 1526 02-03-2019 07:05:00 6.6 C 6.87 g/m*3 6.6 C 4.8 km/h
1527 02-03-2019 07:10:00 6.6 C 6.87 g/m*3 4.99 C 8.1 km/h
1528 02-03-2019 07:15:00 6.6 C 6.87 g/m*3 5.44 C 6.4 km/h
1529 02-03-2019 07:20:00 6.7 C 6.91 g/m*3 6.7 C 3.2 km/h
1530 02-03-2019 07:25:00 6.7 C 6.91 g/m*3 6.7 C 3.2 km/h
1531 02-03-2019 07:30:00 6.7 C 6.91 g/m*3 6.7 C 3.2 km/h
1532 02-03-2019 07:35:00 6.7 C 6.91 g/m*3 6.7 C 3.2 km/h
1533 02-03-2019 07:40:00 6.7 C 6.91 g/m*3 6.7 C 4.8 km/h
1534 02-03-2019 07:45:00 6.7 C 6.91 g/m*3 6.7 C 1.6 km/h
1535 02-03-2019 07:50:00 6.7 C 6.91 g/m*3 6.7 C 4.8 km/h
1536 02-03-2019 07:55:00 6.7 C 6.91 g/m*3 6.7 C 4.8 km/h
1537 02-03-2019 08:00:00 6.8 C 6.96 g/m*3 6.8 C 0 km/h
1538 02-03-2019 08:05:00 6.8 C 6.96 g/m*3 6.8 C 4.8 km/h
1539 02-03-2019 08:10:00 6.8 C 6.96 g/m*3 6.8 C 4.8 km/h
1540 02-03-2019 08:15:00 6.9 C 6.93 g/m*3 6.9 C 4.8 km/h
1541 02-03-2019 08:20:00 6.9 C 7.01 g/m*3 6.9 C 4.8 km/h
1542 02-03-2019 08:25:00 7 C 7.05 g/m*3 7 C 3.2 km/h
1543 02-03-2019 08:30:00 7.1 C 7.02 g/m*3 6.02 C 6.4 km/h
1544 02-03-2019 08:35:00 7.1 C 7.02 g/m*3 7.1 C 4.8 km/h
1545 02-03-2019 08:40:00 7.1 C 7.02 g/m*3 7.1 C 3.2 km/h
1546 02-03-2019 08:45:00 7.2 C 7.06 g/m*3 6.13 C 6.4 km/h
1547 02-03-2019 08:50:00 7.2 C 7.06 g/m*3 7.2 C 4.8 km/h
1548 02-03-2019 08:55:00 7.3 C 7.11 g/m*3 5.16 C 11.3 km/h
1549 02-03-2019 09:00:00 7.3 C 7.11 g/m*3 5.81 C 8.1 km/h
1550 02-03-2019 09:05:00 7.4 C 7.16 g/m*3 5.58 C 9.7 km/h
Sensor: Nr:Datum:Temp:Abs-Feuchte:Windchill:Wind:
Aussen-T/F 1551 02-03-2019 09:10:00 7.5 C 7.2 g/m*3 6.48 C 6.4 km/h
1552 02-03-2019 09:15:00 7.6 C 7.17 g/m*3 5.82 C 9.7 km/h
1553 02-03-2019 09:20:00 7.6 C 7.17 g/m*3 7.6 C 4.8 km/h
1554 02-03-2019 09:25:00 7.7 C 7.22 g/m*3 5.65 C 11.3 km/h
1555 02-03-2019 09:30:00 7.7 C 7.22 g/m*3 5.94 C 9.7 km/h
1556 02-03-2019 09:35:00 7.8 C 7.26 g/m*3 6.06 C 9.7 km/h
1557 02-03-2019 09:40:00 7.8 C 7.18 g/m*3 5.77 C 11.3 km/h
1558 02-03-2019 09:45:00 7.8 C 7.18 g/m*3 5.77 C 11.3 km/h
1559 02-03-2019 09:50:00 7.9 C 7.23 g/m*3 5.63 C 12.9 km/h
1560 02-03-2019 09:55:00 7.9 C 7.23 g/m*3 6.52 C 8.1 km/h
1561 02-03-2019 10:00:00 7.9 C 7.23 g/m*3 6.52 C 8.1 km/h
1562 02-03-2019 10:05:00 7.9 C 7.23 g/m*3 6.94 C 6.4 km/h
1563 02-03-2019 10:10:00 7.9 C 7.23 g/m*3 5.89 C 11.3 km/h
1564 02-03-2019 10:15:00 7.9 C 7.23 g/m*3 6.18 C 9.7 km/h
1565 02-03-2019 10:20:00 7.9 C 7.23 g/m*3 7.9 C 4.8 km/h
1566 02-03-2019 10:25:00 8 C 7.28 g/m*3 6.3 C 9.7 km/h
1567 02-03-2019 10:30:00 8.1 C 7.32 g/m*3 8.1 C 4.8 km/h
1568 02-03-2019 10:35:00 8.1 C 7.24 g/m*3 6.42 C 9.7 km/h
1569 02-03-2019 10:40:00 8.1 C 7.32 g/m*3 7.17 C 6.4 km/h
1570 02-03-2019 10:45:00 8.2 C 7.37 g/m*3 6.87 C 8.1 km/h
1571 02-03-2019 10:50:00 8.3 C 7.33 g/m*3 6.66 C 9.7 km/h
1572 02-03-2019 10:55:00 8.3 C 7.33 g/m*3 7.41 C 6.4 km/h
1573 02-03-2019 11:00:00 8.4 C 7.38 g/m*3 6.78 C 9.7 km/h
1574 02-03-2019 11:05:00 8.6 C 7.48 g/m*3 6.73 C 11.3 km/h
1575 02-03-2019 11:10:00 8.7 C 7.44 g/m*3 7.13 C 9.7 km/h
Sensor: Nr:Datum:Temp:Abs-Feuchte:Windchill:Wind:
Aussen-T/F 1576 02-03-2019 11:15:00 8.7 C 7.44 g/m*3 7.13 C 9.7 km/h
1577 02-03-2019 11:20:00 8.8 C 7.49 g/m*3 6.97 C 11.3 km/h
1578 02-03-2019 11:25:00 8.9 C 7.53 g/m*3 7.69 C 8.1 km/h
1579 02-03-2019 11:30:00 9.1 C 7.63 g/m*3 9.1 C 4.8 km/h
1580 02-03-2019 11:35:00 9.2 C 7.59 g/m*3 8.05 C 8.1 km/h
1581 02-03-2019 11:40:00 9.3 C 7.55 g/m*3 8.16 C 8.1 km/h
1582 02-03-2019 11:45:00 9.3 C 7.64 g/m*3 7.85 C 9.7 km/h
1583 02-03-2019 11:50:00 9.4 C 7.6 g/m*3 7.97 C 9.7 km/h
1584 02-03-2019 11:55:00 9.5 C 7.55 g/m*3 8.4 C 8.1 km/h
1585 02-03-2019 12:00:00 9.6 C 7.69 g/m*3 8.21 C 9.7 km/h
1586 02-03-2019 12:05:00 9.7 C 7.74 g/m*3 8.33 C 9.7 km/h
1587 02-03-2019 12:10:00 9.8 C 7.79 g/m*3 8.18 C 11.3 km/h
1588 02-03-2019 12:15:00 10 C 7.8 g/m*3 8.42 C 11.3 km/h
1589 02-03-2019 12:20:00 10.1 C 7.85 g/m*3 8.8 C 9.7 km/h
1590 02-03-2019 12:25:00 10.1 C 7.85 g/m*3 9.1 C 8.1 km/h
1591 02-03-2019 12:30:00 10.1 C 7.75 g/m*3 9.1 C 8.1 km/h
1592 02-03-2019 12:35:00 10.1 C 7.75 g/m*3 9.1 C 8.1 km/h
1593 02-03-2019 12:40:00 10 C 7.71 g/m*3 8.68 C 9.7 km/h
1594 02-03-2019 12:45:00 9.9 C 7.66 g/m*3 8.87 C 8.1 km/h
1595 02-03-2019 12:50:00 9.9 C 7.75 g/m*3 8.87 C 8.1 km/h
1596 02-03-2019 12:55:00 10 C 7.71 g/m*3 8.99 C 8.1 km/h
1597 02-03-2019 13:00:00 10 C 7.71 g/m*3 9.37 C 6.4 km/h
1598 02-03-2019 13:05:00 10.2 C 7.9 g/m*3 10.2 C 4.8 km/h
1599 02-03-2019 13:10:00 10.4 C 7.9 g/m*3 9.46 C 8.1 km/h
1600 02-03-2019 13:15:00 10.6 C 7.91 g/m*3 9.4 C 9.7 km/h
Sensor: Nr:Datum:Temp:Abs-Feuchte:Windchill:Wind:
Aussen-T/F 1601 02-03-2019 13:20:00 10.7 C 7.86 g/m*3 9.52 C 9.7 km/h
1602 02-03-2019 13:25:00 10.7 C 7.76 g/m*3 9.26 C 11.3 km/h
1603 02-03-2019 13:30:00 10.7 C 7.76 g/m*3 9.52 C 9.7 km/h
1604 02-03-2019 13:35:00 10.7 C 7.76 g/m*3 9.52 C 9.7 km/h
1605 02-03-2019 13:40:00 10.7 C 7.76 g/m*3 9.81 C 8.1 km/h
1606 02-03-2019 13:45:00 10.8 C 7.81 g/m*3 10.29 C 6.4 km/h
1607 02-03-2019 13:50:00 11 C 7.81 g/m*3 10.16 C 8.1 km/h
1608 02-03-2019 13:55:00 11.1 C 7.86 g/m*3 11.1 C 9.7 km/h
1609 02-03-2019 14:00:00 11.1 C 7.76 g/m*3 11.1 C 9.7 km/h
1610 02-03-2019 14:05:00 11.2 C 7.8 g/m*3 11.2 C 6.4 km/h
1611 02-03-2019 14:10:00 11.2 C 7.8 g/m*3 11.2 C 8.1 km/h
1612 02-03-2019 14:15:00 11.3 C 7.75 g/m*3 11.3 C 8.1 km/h
1613 02-03-2019 14:20:00 11.4 C 7.7 g/m*3 11.4 C 6.4 km/h
1614 02-03-2019 14:25:00 11.4 C 7.7 g/m*3 11.4 C 9.7 km/h
1615 02-03-2019 14:30:00 11.4 C 7.7 g/m*3 11.4 C 6.4 km/h
1616 02-03-2019 14:35:00 11.5 C 7.85 g/m*3 11.5 C 4.8 km/h
1617 02-03-2019 14:40:00 11.6 C 7.8 g/m*3 11.6 C 4.8 km/h
1618 02-03-2019 14:45:00 11.6 C 7.8 g/m*3 11.6 C 4.8 km/h
1619 02-03-2019 14:50:00 11.6 C 7.8 g/m*3 11.6 C 6.4 km/h
1620 02-03-2019 14:55:00 11.6 C 7.69 g/m*3 11.6 C 8.1 km/h
1621 02-03-2019 15:00:00 11.7 C 7.74 g/m*3 11.7 C 8.1 km/h
1622 02-03-2019 15:05:00 11.7 C 7.74 g/m*3 11.7 C 8.1 km/h
1623 02-03-2019 15:10:00 11.8 C 7.68 g/m*3 11.8 C 4.8 km/h
1624 02-03-2019 15:15:00 11.8 C 7.68 g/m*3 11.8 C 9.7 km/h
1625 02-03-2019 15:20:00 11.8 C 7.58 g/m*3 11.8 C 12.9 km/h
Sensor: Nr:Datum:Temp:Abs-Feuchte:Windchill:Wind:
Aussen-T/F 1626 02-03-2019 15:25:00 11.9 C 7.63 g/m*3 11.9 C 9.7 km/h
1627 02-03-2019 15:30:00 11.9 C 7.63 g/m*3 11.9 C 9.7 km/h
1628 02-03-2019 15:35:00 12 C 7.67 g/m*3 12 C 11.3 km/h
1629 02-03-2019 15:40:00 12 C 7.57 g/m*3 12 C 8.1 km/h
1630 02-03-2019 15:45:00 12.1 C 7.72 g/m*3 12.1 C 8.1 km/h
1631 02-03-2019 15:50:00 12.2 C 7.77 g/m*3 12.2 C 6.4 km/h
1632 02-03-2019 15:55:00 12.2 C 7.66 g/m*3 12.2 C 8.1 km/h
1633 02-03-2019 16:00:00 12.3 C 7.6 g/m*3 12.3 C 9.7 km/h
1634 02-03-2019 16:05:00 12.3 C 7.6 g/m*3 12.3 C 8.1 km/h
1635 02-03-2019 16:10:00 12.3 C 7.6 g/m*3 12.3 C 6.4 km/h
1636 02-03-2019 16:15:00 12.5 C 7.7 g/m*3 12.5 C 14.5 km/h
1637 02-03-2019 16:20:00 12.6 C 7.74 g/m*3 12.6 C 14.5 km/h
1638 02-03-2019 16:25:00 12.6 C 7.74 g/m*3 12.6 C 9.7 km/h
1639 02-03-2019 16:30:00 12.6 C 7.74 g/m*3 12.6 C 11.3 km/h
1640 02-03-2019 16:35:00 12.4 C 7.65 g/m*3 12.4 C 9.7 km/h
1641 02-03-2019 16:40:00 12.3 C 7.71 g/m*3 12.3 C 9.7 km/h
1642 02-03-2019 16:45:00 12.2 C 7.66 g/m*3 12.2 C 11.3 km/h
1643 02-03-2019 16:50:00 12.1 C 7.61 g/m*3 12.1 C 9.7 km/h
1644 02-03-2019 16:55:00 12 C 7.67 g/m*3 12 C 12.9 km/h
1645 02-03-2019 17:00:00 11.9 C 7.73 g/m*3 11.9 C 22.5 km/h
1646 02-03-2019 17:05:00 11.8 C 7.68 g/m*3 11.8 C 14.5 km/h
1647 02-03-2019 17:10:00 11.7 C 7.74 g/m*3 11.7 C 11.3 km/h
1648 02-03-2019 17:15:00 11.5 C 7.64 g/m*3 11.5 C 14.5 km/h
1649 02-03-2019 17:20:00 11.4 C 7.7 g/m*3 11.4 C 9.7 km/h
1650 02-03-2019 17:25:00 11.3 C 7.65 g/m*3 11.3 C 8.1 km/h
Sensor: Nr:Datum:Temp:Abs-Feuchte:Windchill:Wind:
Aussen-T/F 1651 02-03-2019 17:30:00 11.3 C 7.75 g/m*3 11.3 C 12.9 km/h
1652 02-03-2019 17:35:00 11.2 C 7.7 g/m*3 11.2 C 16.1 km/h
1653 02-03-2019 17:40:00 11.2 C 7.8 g/m*3 11.2 C 17.7 km/h
1654 02-03-2019 17:45:00 11.1 C 7.76 g/m*3 11.1 C 12.9 km/h
1655 02-03-2019 17:50:00 11 C 7.81 g/m*3 8.7 C 19.3 km/h
1656 02-03-2019 17:55:00 10.9 C 7.76 g/m*3 9.08 C 14.5 km/h
1657 02-03-2019 18:00:00 10.8 C 7.71 g/m*3 8.3 C 20.9 km/h
1658 02-03-2019 18:05:00 10.8 C 7.81 g/m*3 9.64 C 9.7 km/h
1659 02-03-2019 18:10:00 10.7 C 7.76 g/m*3 9.81 C 8.1 km/h
1660 02-03-2019 18:15:00 10.7 C 7.86 g/m*3 9.26 C 11.3 km/h
1661 02-03-2019 18:20:00 10.6 C 7.81 g/m*3 9.4 C 9.7 km/h
1662 02-03-2019 18:25:00 10.6 C 7.81 g/m*3 10.06 C 6.4 km/h
1663 02-03-2019 18:30:00 10.5 C 7.86 g/m*3 8.8 C 12.9 km/h
1664 02-03-2019 18:35:00 10.5 C 7.86 g/m*3 8.4 C 16.1 km/h
1665 02-03-2019 18:40:00 10.4 C 7.9 g/m*3 8.9 C 11.3 km/h
1666 02-03-2019 18:45:00 10.4 C 7.9 g/m*3 9.46 C 8.1 km/h
1667 02-03-2019 18:50:00 10.3 C 7.85 g/m*3 9.72 C 6.4 km/h
1668 02-03-2019 18:55:00 10.3 C 7.95 g/m*3 8.34 C 14.5 km/h
1669 02-03-2019 19:00:00 10.2 C 7.99 g/m*3 8.43 C 12.9 km/h
1670 02-03-2019 19:05:00 10.1 C 8.04 g/m*3 8.1 C 14.5 km/h
1671 02-03-2019 19:10:00 10.1 C 8.04 g/m*3 8.1 C 14.5 km/h
1672 02-03-2019 19:15:00 10 C 8.08 g/m*3 8.19 C 12.9 km/h
1673 02-03-2019 19:20:00 9.9 C 8.03 g/m*3 8.87 C 8.1 km/h
1674 02-03-2019 19:25:00 9.8 C 7.98 g/m*3 8.18 C 11.3 km/h
1675 02-03-2019 19:30:00 9.8 C 7.98 g/m*3 8.18 C 11.3 km/h
Sensor: Nr:Datum:Temp:Abs-Feuchte:Windchill:Wind:
Aussen-T/F 1676 02-03-2019 19:35:00 9.7 C 7.93 g/m*3 7.07 C 19.3 km/h
1677 02-03-2019 19:40:00 9.7 C 8.02 g/m*3 7.82 C 12.9 km/h
1678 02-03-2019 19:45:00 9.6 C 7.97 g/m*3 8.52 C 8.1 km/h
1679 02-03-2019 19:50:00 9.6 C 7.97 g/m*3 7.94 C 11.3 km/h
1680 02-03-2019 19:55:00 9.6 C 7.97 g/m*3 8.52 C 8.1 km/h
1681 02-03-2019 20:00:00 9.4 C 7.87 g/m*3 7.7 C 11.3 km/h
1682 02-03-2019 20:05:00 9.5 C 7.92 g/m*3 7.36 C 14.5 km/h
1683 02-03-2019 20:10:00 9.5 C 7.92 g/m*3 7.82 C 11.3 km/h
1684 02-03-2019 20:15:00 9.5 C 7.92 g/m*3 6.98 C 17.7 km/h
1685 02-03-2019 20:20:00 9.5 C 7.92 g/m*3 8.79 C 6.4 km/h
1686 02-03-2019 20:25:00 9.6 C 7.97 g/m*3 7.94 C 11.3 km/h
1687 02-03-2019 20:30:00 9.6 C 7.97 g/m*3 7.94 C 11.3 km/h
1688 02-03-2019 20:35:00 9.5 C 7.92 g/m*3 7.82 C 11.3 km/h
1689 02-03-2019 20:40:00 9.6 C 8.06 g/m*3 8.21 C 9.7 km/h
1690 02-03-2019 20:45:00 9.6 C 8.06 g/m*3 7.94 C 11.3 km/h
1691 02-03-2019 20:50:00 9.6 C 7.97 g/m*3 8.91 C 6.4 km/h
1692 02-03-2019 20:55:00 9.5 C 8.01 g/m*3 7.36 C 14.5 km/h
1693 02-03-2019 21:00:00 9.5 C 8.01 g/m*3 8.09 C 9.7 km/h
1694 02-03-2019 21:05:00 9.4 C 7.96 g/m*3 7.46 C 12.9 km/h
1695 02-03-2019 21:10:00 9.4 C 7.96 g/m*3 7.46 C 12.9 km/h
1696 02-03-2019 21:15:00 9.6 C 8.15 g/m*3 7.94 C 11.3 km/h
1697 02-03-2019 21:20:00 9.7 C 8.11 g/m*3 7.61 C 14.5 km/h
1698 02-03-2019 21:25:00 9.8 C 8.16 g/m*3 7.36 C 17.7 km/h
1699 02-03-2019 21:30:00 9.9 C 8.12 g/m*3 8.3 C 11.3 km/h
1700 02-03-2019 21:35:00 10.1 C 8.23 g/m*3 7.91 C 16.1 km/h
Sensor: Nr:Datum:Temp:Abs-Feuchte:Windchill:Wind:
Aussen-T/F 1701 02-03-2019 21:40:00 10.1 C 8.23 g/m*3 8.54 C 11.3 km/h
1702 02-03-2019 21:45:00 10.1 C 8.23 g/m*3 7.73 C 17.7 km/h
1703 02-03-2019 21:50:00 10.2 C 8.18 g/m*3 8.66 C 11.3 km/h
1704 02-03-2019 21:55:00 10.2 C 8.18 g/m*3 9.22 C 8.1 km/h
1705 02-03-2019 22:00:00 10.2 C 8.18 g/m*3 8.03 C 16.1 km/h
1706 02-03-2019 22:05:00 10.2 C 8.18 g/m*3 8.92 C 9.7 km/h
1707 02-03-2019 22:10:00 10.2 C 8.18 g/m*3 8.92 C 9.7 km/h
1708 02-03-2019 22:15:00 10.2 C 8.09 g/m*3 9.6 C 6.4 km/h
1709 02-03-2019 22:20:00 10.2 C 8.09 g/m*3 8.92 C 9.7 km/h
1710 02-03-2019 22:25:00 10.2 C 8.09 g/m*3 7.7 C 19.3 km/h
1711 02-03-2019 22:30:00 10.3 C 8.14 g/m*3 7.98 C 17.7 km/h
1712 02-03-2019 22:35:00 10.3 C 8.14 g/m*3 8.16 C 16.1 km/h
1713 02-03-2019 22:40:00 10.3 C 8.14 g/m*3 8.55 C 12.9 km/h
1714 02-03-2019 22:45:00 10.3 C 8.04 g/m*3 8.16 C 16.1 km/h
1715 02-03-2019 22:50:00 10.3 C 8.04 g/m*3 9.72 C 6.4 km/h
1716 02-03-2019 22:55:00 10.3 C 8.04 g/m*3 8.78 C 11.3 km/h
1717 02-03-2019 23:00:00 10.3 C 8.04 g/m*3 10.3 C 4.8 km/h
1718 02-03-2019 23:05:00 10.2 C 7.99 g/m*3 8.66 C 11.3 km/h
1719 02-03-2019 23:10:00 10.2 C 7.99 g/m*3 10.2 C 4.8 km/h
1720 02-03-2019 23:15:00 10.1 C 7.94 g/m*3 8.1 C 14.5 km/h
1721 02-03-2019 23:20:00 10.1 C 7.85 g/m*3 8.31 C 12.9 km/h
1722 02-03-2019 23:25:00 10.1 C 7.85 g/m*3 8.31 C 12.9 km/h
1723 02-03-2019 23:30:00 9.9 C 7.75 g/m*3 8.87 C 8.1 km/h
1724 02-03-2019 23:35:00 9.8 C 7.7 g/m*3 8.75 C 8.1 km/h
1725 02-03-2019 23:40:00 9.8 C 7.7 g/m*3 8.18 C 11.3 km/h
Sensor: Nr:Datum:Temp:Abs-Feuchte:Windchill:Wind:
Aussen-T/F 1726 02-03-2019 23:45:00 9.8 C 7.61 g/m*3 8.45 C 9.7 km/h
1727 02-03-2019 23:50:00 9.7 C 7.65 g/m*3 8.33 C 9.7 km/h
1728 02-03-2019 23:55:00 9.6 C 7.51 g/m*3 7.7 C 12.9 km/h
1729 03-03-2019 00:00:00 9.6 C 7.51 g/m*3 7.7 C 12.9 km/h
1730 03-03-2019 00:05:00 9.5 C 7.46 g/m*3 8.09 C 9.7 km/h
1731 03-03-2019 00:10:00 9.5 C 7.46 g/m*3 7.82 C 11.3 km/h
1732 03-03-2019 00:15:00 9.5 C 7.46 g/m*3 7.58 C 12.9 km/h
1733 03-03-2019 00:20:00 9.4 C 7.42 g/m*3 9.4 C 4.8 km/h
1734 03-03-2019 00:25:00 9.3 C 7.37 g/m*3 9.3 C 3.2 km/h
1735 03-03-2019 00:30:00 9.2 C 7.32 g/m*3 9.2 C 1.6 km/h
1736 03-03-2019 00:35:00 8.9 C 7.18 g/m*3 8.9 C 1.6 km/h
1737 03-03-2019 00:40:00 8.7 C 7.18 g/m*3 8.7 C 3.2 km/h
1738 03-03-2019 00:45:00 8.5 C 7.17 g/m*3 8.5 C 1.6 km/h
1739 03-03-2019 00:50:00 8.3 C 7.16 g/m*3 8.3 C 1.6 km/h
1740 03-03-2019 00:55:00 8.3 C 7.25 g/m*3 8.3 C 3.2 km/h
1741 03-03-2019 01:00:00 8.3 C 7.33 g/m*3 7.41 C 6.4 km/h
1742 03-03-2019 01:05:00 8.4 C 7.38 g/m*3 8.4 C 4.8 km/h
1743 03-03-2019 01:10:00 8.6 C 7.48 g/m*3 7.01 C 9.7 km/h
1744 03-03-2019 01:15:00 8.8 C 7.57 g/m*3 6.72 C 12.9 km/h
1745 03-03-2019 01:20:00 8.9 C 7.53 g/m*3 8.9 C 4.8 km/h
1746 03-03-2019 01:25:00 9.1 C 7.63 g/m*3 7.61 C 9.7 km/h
1747 03-03-2019 01:30:00 9.3 C 7.73 g/m*3 7.33 C 12.9 km/h
1748 03-03-2019 01:35:00 9.4 C 7.69 g/m*3 7.46 C 12.9 km/h
1749 03-03-2019 01:40:00 9.7 C 7.74 g/m*3 7.82 C 12.9 km/h
1750 03-03-2019 01:45:00 9.8 C 7.7 g/m*3 7.54 C 16.1 km/h
Sensor: Nr:Datum:Temp:Abs-Feuchte:Windchill:Wind:
Aussen-T/F 1751 03-03-2019 01:50:00 9.9 C 7.75 g/m*3 7.66 C 16.1 km/h
1752 03-03-2019 01:55:00 9.9 C 7.66 g/m*3 8.06 C 12.9 km/h
1753 03-03-2019 02:00:00 10 C 7.71 g/m*3 8.68 C 9.7 km/h
1754 03-03-2019 02:05:00 10 C 7.71 g/m*3 7.98 C 14.5 km/h
1755 03-03-2019 02:10:00 10.1 C 7.66 g/m*3 7.73 C 17.7 km/h
1756 03-03-2019 02:15:00 10.1 C 7.66 g/m*3 7.91 C 16.1 km/h
1757 03-03-2019 02:20:00 10.1 C 7.66 g/m*3 9.48 C 6.4 km/h
1758 03-03-2019 02:25:00 10.1 C 7.66 g/m*3 9.48 C 6.4 km/h
1759 03-03-2019 02:30:00 10.1 C 7.66 g/m*3 9.48 C 6.4 km/h
1760 03-03-2019 02:35:00 9.9 C 7.56 g/m*3 8.06 C 12.9 km/h
1761 03-03-2019 02:40:00 9.9 C 7.56 g/m*3 7.66 C 16.1 km/h
1762 03-03-2019 02:45:00 9.9 C 7.56 g/m*3 8.56 C 9.7 km/h
1763 03-03-2019 02:50:00 9.8 C 7.52 g/m*3 8.18 C 11.3 km/h
1764 03-03-2019 02:55:00 9.8 C 7.61 g/m*3 6.63 C 25.7 km/h
1765 03-03-2019 03:00:00 9.8 C 7.52 g/m*3 6.63 C 25.7 km/h
1766 03-03-2019 03:05:00 9.8 C 7.52 g/m*3 8.18 C 11.3 km/h
1767 03-03-2019 03:10:00 9.9 C 7.56 g/m*3 8.3 C 11.3 km/h
1768 03-03-2019 03:15:00 9.9 C 7.56 g/m*3 8.06 C 12.9 km/h
1769 03-03-2019 03:20:00 9.9 C 7.56 g/m*3 9.25 C 6.4 km/h
1770 03-03-2019 03:25:00 10 C 7.61 g/m*3 8.19 C 12.9 km/h
1771 03-03-2019 03:30:00 10 C 7.61 g/m*3 8.42 C 11.3 km/h
1772 03-03-2019 03:35:00 10.1 C 7.66 g/m*3 8.31 C 12.9 km/h
1773 03-03-2019 03:40:00 10.1 C 7.66 g/m*3 8.54 C 11.3 km/h
1774 03-03-2019 03:45:00 10.1 C 7.66 g/m*3 9.1 C 8.1 km/h
1775 03-03-2019 03:50:00 10.2 C 7.71 g/m*3 8.43 C 12.9 km/h
Sensor: Nr:Datum:Temp:Abs-Feuchte:Windchill:Wind:
Aussen-T/F 1776 03-03-2019 03:55:00 10.2 C 7.71 g/m*3 9.22 C 8.1 km/h
1777 03-03-2019 04:00:00 10.2 C 7.71 g/m*3 8.92 C 9.7 km/h
1778 03-03-2019 04:05:00 10.2 C 7.71 g/m*3 8.92 C 9.7 km/h
1779 03-03-2019 04:10:00 10.2 C 7.71 g/m*3 9.22 C 8.1 km/h
1780 03-03-2019 04:15:00 10.2 C 7.71 g/m*3 8.43 C 12.9 km/h
1781 03-03-2019 04:20:00 10.2 C 7.71 g/m*3 8.66 C 11.3 km/h
1782 03-03-2019 04:25:00 10.3 C 7.76 g/m*3 9.04 C 9.7 km/h
1783 03-03-2019 04:30:00 10.3 C 7.76 g/m*3 8.55 C 12.9 km/h
1784 03-03-2019 04:35:00 10.3 C 7.76 g/m*3 7.82 C 19.3 km/h
1785 03-03-2019 04:40:00 10.2 C 7.71 g/m*3 8.43 C 12.9 km/h
1786 03-03-2019 04:45:00 10.2 C 7.71 g/m*3 8.22 C 14.5 km/h
1787 03-03-2019 04:50:00 10.2 C 7.71 g/m*3 8.43 C 12.9 km/h
1788 03-03-2019 04:55:00 10.2 C 7.61 g/m*3 7.86 C 17.7 km/h
1789 03-03-2019 05:00:00 10.2 C 7.61 g/m*3 8.22 C 14.5 km/h
1790 03-03-2019 05:05:00 10.3 C 7.66 g/m*3 8.16 C 16.1 km/h
1791 03-03-2019 05:10:00 10.2 C 7.61 g/m*3 7.54 C 20.9 km/h
1792 03-03-2019 05:15:00 10.2 C 7.61 g/m*3 7.86 C 17.7 km/h
1793 03-03-2019 05:20:00 10.2 C 7.61 g/m*3 8.22 C 14.5 km/h
1794 03-03-2019 05:25:00 10.2 C 7.61 g/m*3 9.6 C 6.4 km/h
1795 03-03-2019 05:30:00 10.2 C 7.61 g/m*3 8.43 C 12.9 km/h
1796 03-03-2019 05:35:00 10.2 C 7.61 g/m*3 7.86 C 17.7 km/h
1797 03-03-2019 05:40:00 10.2 C 7.52 g/m*3 8.66 C 11.3 km/h
1798 03-03-2019 05:45:00 10.2 C 7.52 g/m*3 8.43 C 12.9 km/h
1799 03-03-2019 05:50:00 10.2 C 7.61 g/m*3 10.2 C 4.8 km/h
1800 03-03-2019 05:55:00 10.2 C 7.61 g/m*3 8.92 C 9.7 km/h
Sensor: Nr:Datum:Temp:Abs-Feuchte:Windchill:Wind:
Aussen-T/F 1801 03-03-2019 06:00:00 10.2 C 7.61 g/m*3 8.66 C 11.3 km/h
1802 03-03-2019 06:05:00 10.1 C 7.56 g/m*3 9.48 C 6.4 km/h
1803 03-03-2019 06:10:00 10.1 C 7.66 g/m*3 8.1 C 14.5 km/h
1804 03-03-2019 06:15:00 10.1 C 7.66 g/m*3 10.1 C 4.8 km/h
1805 03-03-2019 06:20:00 10.1 C 7.66 g/m*3 8.1 C 14.5 km/h
1806 03-03-2019 06:25:00 10.1 C 7.66 g/m*3 8.54 C 11.3 km/h
1807 03-03-2019 06:30:00 10.1 C 7.66 g/m*3 7.91 C 16.1 km/h
1808 03-03-2019 06:35:00 10.1 C 7.66 g/m*3 8.8 C 9.7 km/h
1809 03-03-2019 06:40:00 10.1 C 7.66 g/m*3 8.31 C 12.9 km/h
1810 03-03-2019 06:45:00 10.1 C 7.66 g/m*3 7.91 C 16.1 km/h
1811 03-03-2019 06:50:00 10.1 C 7.66 g/m*3 8.8 C 9.7 km/h
1812 03-03-2019 06:55:00 10.1 C 7.66 g/m*3 8.54 C 11.3 km/h
1813 03-03-2019 07:00:00 10.1 C 7.66 g/m*3 8.31 C 12.9 km/h
1814 03-03-2019 07:05:00 10.1 C 7.66 g/m*3 8.31 C 12.9 km/h
1815 03-03-2019 07:10:00 10.1 C 7.66 g/m*3 7.57 C 19.3 km/h
1816 03-03-2019 07:15:00 10.1 C 7.66 g/m*3 8.54 C 11.3 km/h
1817 03-03-2019 07:20:00 10.1 C 7.66 g/m*3 9.1 C 8.1 km/h
1818 03-03-2019 07:25:00 10.1 C 7.66 g/m*3 8.1 C 14.5 km/h
1819 03-03-2019 07:30:00 10.1 C 7.66 g/m*3 7.91 C 16.1 km/h
1820 03-03-2019 07:35:00 10.1 C 7.66 g/m*3 8.31 C 12.9 km/h
1821 03-03-2019 07:40:00 10.2 C 7.71 g/m*3 8.03 C 16.1 km/h
1822 03-03-2019 07:45:00 10.2 C 7.71 g/m*3 8.92 C 9.7 km/h
1823 03-03-2019 07:50:00 10.2 C 7.71 g/m*3 9.6 C 6.4 km/h
1824 03-03-2019 07:55:00 10.2 C 7.71 g/m*3 7.54 C 20.9 km/h
1825 03-03-2019 08:00:00 10.2 C 7.71 g/m*3 7.7 C 19.3 km/h
Sensor: Nr:Datum:Temp:Abs-Feuchte:Windchill:Wind:
Aussen-T/F 1826 03-03-2019 08:05:00 10.2 C 7.71 g/m*3 7.54 C 20.9 km/h
1827 03-03-2019 08:10:00 10.3 C 7.76 g/m*3 7.4 C 24.1 km/h
1828 03-03-2019 08:15:00 10.3 C 7.76 g/m*3 7.4 C 24.1 km/h
1829 03-03-2019 08:20:00 10.3 C 7.76 g/m*3 8.34 C 14.5 km/h
1830 03-03-2019 08:25:00 10.3 C 7.76 g/m*3 7.67 C 20.9 km/h
1831 03-03-2019 08:30:00 10.3 C 7.85 g/m*3 7.53 C 22.5 km/h
1832 03-03-2019 08:35:00 10.3 C 7.85 g/m*3 7.82 C 19.3 km/h
1833 03-03-2019 08:40:00 10.3 C 7.85 g/m*3 8.34 C 14.5 km/h
1834 03-03-2019 08:45:00 10.4 C 7.9 g/m*3 7.53 C 24.1 km/h
1835 03-03-2019 08:50:00 10.4 C 7.9 g/m*3 7.06 C 30.6 km/h
1836 03-03-2019 08:55:00 10.5 C 7.95 g/m*3 7.19 C 30.6 km/h
1837 03-03-2019 09:00:00 10.6 C 8 g/m*3 8.05 C 20.9 km/h
1838 03-03-2019 09:05:00 10.7 C 7.96 g/m*3 8.18 C 20.9 km/h
1839 03-03-2019 09:10:00 10.8 C 8.11 g/m*3 8.45 C 19.3 km/h
1840 03-03-2019 09:15:00 10.9 C 8.06 g/m*3 8.05 C 25.7 km/h
1841 03-03-2019 09:20:00 10.9 C 8.06 g/m*3 8.3 C 22.5 km/h
1842 03-03-2019 09:25:00 11 C 8.11 g/m*3 7.74 C 32.2 km/h
1843 03-03-2019 09:30:00 10.9 C 8.06 g/m*3 7.61 C 32.2 km/h
1844 03-03-2019 09:35:00 10.9 C 8.06 g/m*3 8.58 C 19.3 km/h
1845 03-03-2019 09:40:00 10.9 C 8.06 g/m*3 7.92 C 27.4 km/h
1846 03-03-2019 09:45:00 10.9 C 8.06 g/m*3 8.05 C 25.7 km/h
1847 03-03-2019 09:50:00 10.9 C 8.06 g/m*3 8.73 C 17.7 km/h
1848 03-03-2019 09:55:00 11.1 C 8.16 g/m*3 11.1 C 25.7 km/h
1849 03-03-2019 10:00:00 11.1 C 8.16 g/m*3 11.1 C 27.4 km/h
1850 03-03-2019 10:05:00 11.1 C 8.16 g/m*3 11.1 C 17.7 km/h
Sensor: Nr:Datum:Temp:Abs-Feuchte:Windchill:Wind:
Aussen-T/F 1851 03-03-2019 10:10:00 11.2 C 8.21 g/m*3 11.2 C 29 km/h
1852 03-03-2019 10:15:00 11.2 C 8.21 g/m*3 11.2 C 29 km/h
1853 03-03-2019 10:20:00 11.1 C 8.16 g/m*3 11.1 C 20.9 km/h
1854 03-03-2019 10:25:00 11.1 C 8.16 g/m*3 11.1 C 27.4 km/h
1855 03-03-2019 10:30:00 11.1 C 8.16 g/m*3 11.1 C 24.1 km/h
1856 03-03-2019 10:35:00 11.2 C 8.21 g/m*3 11.2 C 17.7 km/h
1857 03-03-2019 10:40:00 11.2 C 8.21 g/m*3 11.2 C 25.7 km/h
1858 03-03-2019 10:45:00 11.2 C 8.21 g/m*3 11.2 C 37 km/h
1859 03-03-2019 10:50:00 11.2 C 8.21 g/m*3 11.2 C 37 km/h
1860 03-03-2019 10:55:00 11.2 C 8.21 g/m*3 11.2 C 19.3 km/h
1861 03-03-2019 11:00:00 11.1 C 8.16 g/m*3 11.1 C 11.3 km/h
1862 03-03-2019 11:05:00 11.1 C 8.26 g/m*3 11.1 C 14.5 km/h
1863 03-03-2019 11:10:00 11 C 8.21 g/m*3 9.21 C 14.5 km/h
1864 03-03-2019 11:15:00 10.9 C 8.16 g/m*3 9.28 C 12.9 km/h
1865 03-03-2019 11:20:00 10.9 C 8.16 g/m*3 8.9 C 16.1 km/h
1866 03-03-2019 11:25:00 10.9 C 8.16 g/m*3 9.51 C 11.3 km/h
1867 03-03-2019 11:30:00 11 C 8.21 g/m*3 8.7 C 19.3 km/h
1868 03-03-2019 11:35:00 11 C 8.21 g/m*3 8.86 C 17.7 km/h
1869 03-03-2019 11:40:00 11 C 8.21 g/m*3 9.02 C 16.1 km/h
1870 03-03-2019 11:45:00 11 C 8.21 g/m*3 9.63 C 11.3 km/h
1871 03-03-2019 11:50:00 11.1 C 8.36 g/m*3 11.1 C 16.1 km/h
1872 03-03-2019 11:55:00 11.1 C 8.26 g/m*3 11.1 C 20.9 km/h
1873 03-03-2019 12:00:00 11.1 C 8.36 g/m*3 11.1 C 16.1 km/h
1874 03-03-2019 12:05:00 11.1 C 8.26 g/m*3 11.1 C 14.5 km/h
1875 03-03-2019 12:10:00 11.1 C 8.26 g/m*3 11.1 C 16.1 km/h
Sensor: Nr:Datum:Temp:Abs-Feuchte:Windchill:Wind:
Aussen-T/F 1876 03-03-2019 12:15:00 11.1 C 8.26 g/m*3 11.1 C 11.3 km/h
1877 03-03-2019 12:20:00 11.2 C 8.31 g/m*3 11.2 C 11.3 km/h
1878 03-03-2019 12:25:00 11.2 C 8.31 g/m*3 11.2 C 9.7 km/h
1879 03-03-2019 12:30:00 11.3 C 8.36 g/m*3 11.3 C 14.5 km/h
1880 03-03-2019 12:35:00 11.3 C 8.36 g/m*3 11.3 C 20.9 km/h
1881 03-03-2019 12:40:00 11.3 C 8.36 g/m*3 11.3 C 22.5 km/h
1882 03-03-2019 12:45:00 11.3 C 8.36 g/m*3 11.3 C 22.5 km/h
1883 03-03-2019 12:50:00 11.3 C 8.36 g/m*3 11.3 C 17.7 km/h
1884 03-03-2019 12:55:00 11.4 C 8.42 g/m*3 11.4 C 19.3 km/h
1885 03-03-2019 13:00:00 11.4 C 8.42 g/m*3 11.4 C 16.1 km/h
1886 03-03-2019 13:05:00 11.6 C 8.42 g/m*3 11.6 C 16.1 km/h
1887 03-03-2019 13:10:00 11.6 C 8.42 g/m*3 11.6 C 14.5 km/h
1888 03-03-2019 13:15:00 11.7 C 8.47 g/m*3 11.7 C 11.3 km/h
1889 03-03-2019 13:20:00 11.7 C 8.47 g/m*3 11.7 C 4.8 km/h
1890 03-03-2019 13:25:00 11.8 C 8.42 g/m*3 11.8 C 12.9 km/h
1891 03-03-2019 13:30:00 11.8 C 8.42 g/m*3 11.8 C 9.7 km/h
1892 03-03-2019 13:35:00 11.8 C 8.42 g/m*3 11.8 C 8.1 km/h
1893 03-03-2019 13:40:00 11.8 C 8.42 g/m*3 11.8 C 8.1 km/h
1894 03-03-2019 13:45:00 11.8 C 8.42 g/m*3 11.8 C 11.3 km/h
1895 03-03-2019 13:50:00 11.9 C 8.47 g/m*3 11.9 C 12.9 km/h
1896 03-03-2019 13:55:00 11.9 C 8.47 g/m*3 11.9 C 8.1 km/h
1897 03-03-2019 14:00:00 11.9 C 8.37 g/m*3 11.9 C 19.3 km/h
1898 03-03-2019 14:05:00 11.9 C 8.37 g/m*3 11.9 C 17.7 km/h
1899 03-03-2019 14:10:00 11.9 C 8.47 g/m*3 11.9 C 12.9 km/h
1900 03-03-2019 14:15:00 11.9 C 8.47 g/m*3 11.9 C 16.1 km/h
Sensor: Nr:Datum:Temp:Abs-Feuchte:Windchill:Wind:
Aussen-T/F 1901 03-03-2019 14:20:00 11.8 C 8.42 g/m*3 11.8 C 8.1 km/h
1902 03-03-2019 14:25:00 11.8 C 8.42 g/m*3 11.8 C 16.1 km/h
1903 03-03-2019 14:30:00 11.8 C 8.42 g/m*3 11.8 C 12.9 km/h
1904 03-03-2019 14:35:00 11.7 C 8.37 g/m*3 11.7 C 14.5 km/h
1905 03-03-2019 14:40:00 11.7 C 8.37 g/m*3 11.7 C 9.7 km/h
1906 03-03-2019 14:45:00 11.7 C 8.37 g/m*3 11.7 C 8.1 km/h
1907 03-03-2019 14:50:00 11.7 C 8.47 g/m*3 11.7 C 16.1 km/h
1908 03-03-2019 14:55:00 11.7 C 8.47 g/m*3 11.7 C 6.4 km/h
1909 03-03-2019 15:00:00 11.7 C 8.47 g/m*3 11.7 C 14.5 km/h
1910 03-03-2019 15:05:00 11.7 C 8.37 g/m*3 11.7 C 17.7 km/h
1911 03-03-2019 15:10:00 11.7 C 8.37 g/m*3 11.7 C 11.3 km/h
1912 03-03-2019 15:15:00 11.8 C 8.53 g/m*3 11.8 C 12.9 km/h
1913 03-03-2019 15:20:00 11.8 C 8.53 g/m*3 11.8 C 12.9 km/h
1914 03-03-2019 15:25:00 11.8 C 8.53 g/m*3 11.8 C 22.5 km/h
1915 03-03-2019 15:30:00 11.7 C 8.47 g/m*3 11.7 C 14.5 km/h
1916 03-03-2019 15:35:00 11.7 C 8.58 g/m*3 11.7 C 9.7 km/h
1917 03-03-2019 15:40:00 11.7 C 8.58 g/m*3 11.7 C 25.7 km/h
1918 03-03-2019 15:45:00 11.6 C 8.52 g/m*3 11.6 C 14.5 km/h
1919 03-03-2019 15:50:00 11.6 C 8.52 g/m*3 11.6 C 16.1 km/h
1920 03-03-2019 15:55:00 11.6 C 8.52 g/m*3 11.6 C 3.2 km/h
1921 03-03-2019 16:00:00 11.6 C 8.52 g/m*3 11.6 C 14.5 km/h
1922 03-03-2019 16:05:00 11.6 C 8.52 g/m*3 11.6 C 12.9 km/h
1923 03-03-2019 16:10:00 11.6 C 8.52 g/m*3 11.6 C 11.3 km/h
1924 03-03-2019 16:15:00 11.6 C 8.52 g/m*3 11.6 C 9.7 km/h
1925 03-03-2019 16:20:00 11.6 C 8.52 g/m*3 11.6 C 8.1 km/h
Sensor: Nr:Datum:Temp:Abs-Feuchte:Windchill:Wind:
Aussen-T/F 1926 03-03-2019 16:25:00 11.7 C 8.58 g/m*3 11.7 C 17.7 km/h
1927 03-03-2019 16:30:00 11.7 C 8.47 g/m*3 11.7 C 9.7 km/h
1928 03-03-2019 16:35:00 11.8 C 8.53 g/m*3 11.8 C 17.7 km/h
1929 03-03-2019 16:40:00 11.8 C 8.53 g/m*3 11.8 C 20.9 km/h
1930 03-03-2019 16:45:00 11.8 C 8.53 g/m*3 11.8 C 11.3 km/h
1931 03-03-2019 16:50:00 11.8 C 8.53 g/m*3 11.8 C 14.5 km/h
1932 03-03-2019 16:55:00 11.8 C 8.53 g/m*3 11.8 C 24.1 km/h
1933 03-03-2019 17:00:00 11.8 C 8.53 g/m*3 11.8 C 14.5 km/h
1934 03-03-2019 17:05:00 11.8 C 8.53 g/m*3 11.8 C 12.9 km/h
1935 03-03-2019 17:10:00 11.8 C 8.42 g/m*3 11.8 C 11.3 km/h
1936 03-03-2019 17:15:00 11.8 C 8.42 g/m*3 11.8 C 12.9 km/h
1937 03-03-2019 17:20:00 11.8 C 8.42 g/m*3 11.8 C 11.3 km/h
1938 03-03-2019 17:25:00 11.8 C 8.42 g/m*3 11.8 C 12.9 km/h
1939 03-03-2019 17:30:00 11.9 C 8.37 g/m*3 11.9 C 12.9 km/h
1940 03-03-2019 17:35:00 11.9 C 8.37 g/m*3 11.9 C 9.7 km/h
1941 03-03-2019 17:40:00 11.9 C 8.37 g/m*3 11.9 C 11.3 km/h
1942 03-03-2019 17:45:00 12 C 8.31 g/m*3 12 C 20.9 km/h
1943 03-03-2019 17:50:00 12.1 C 8.36 g/m*3 12.1 C 14.5 km/h
1944 03-03-2019 17:55:00 12.2 C 8.42 g/m*3 12.2 C 16.1 km/h
1945 03-03-2019 18:00:00 12.2 C 8.42 g/m*3 12.2 C 9.7 km/h
1946 03-03-2019 18:05:00 12.2 C 8.42 g/m*3 12.2 C 14.5 km/h
1947 03-03-2019 18:10:00 12.2 C 8.42 g/m*3 12.2 C 14.5 km/h
1948 03-03-2019 18:15:00 12.2 C 8.42 g/m*3 12.2 C 19.3 km/h
1949 03-03-2019 18:20:00 12.2 C 8.42 g/m*3 12.2 C 9.7 km/h
1950 03-03-2019 18:25:00 12.2 C 8.42 g/m*3 12.2 C 17.7 km/h
Sensor: Nr:Datum:Temp:Abs-Feuchte:Windchill:Wind:
Aussen-T/F 1951 03-03-2019 18:30:00 12.2 C 8.31 g/m*3 12.2 C 22.5 km/h
1952 03-03-2019 18:35:00 12.2 C 8.31 g/m*3 12.2 C 12.9 km/h
1953 03-03-2019 18:40:00 12.2 C 8.31 g/m*3 12.2 C 16.1 km/h
1954 03-03-2019 18:45:00 12.2 C 8.31 g/m*3 12.2 C 8.1 km/h
1955 03-03-2019 18:50:00 12.1 C 8.26 g/m*3 12.1 C 12.9 km/h
1956 03-03-2019 18:55:00 12.1 C 8.26 g/m*3 12.1 C 16.1 km/h
1957 03-03-2019 19:00:00 12.1 C 8.26 g/m*3 12.1 C 14.5 km/h
1958 03-03-2019 19:05:00 12.2 C 8.31 g/m*3 12.2 C 12.9 km/h
1959 03-03-2019 19:10:00 12.2 C 8.31 g/m*3 12.2 C 8.1 km/h
1960 03-03-2019 19:15:00 12.2 C 8.2 g/m*3 12.2 C 16.1 km/h
1961 03-03-2019 19:20:00 12.3 C 8.25 g/m*3 12.3 C 19.3 km/h
1962 03-03-2019 19:25:00 12.3 C 8.25 g/m*3 12.3 C 11.3 km/h
1963 03-03-2019 19:30:00 12.3 C 8.25 g/m*3 12.3 C 12.9 km/h
1964 03-03-2019 19:35:00 12.3 C 8.25 g/m*3 12.3 C 17.7 km/h
1965 03-03-2019 19:40:00 12.3 C 8.14 g/m*3 12.3 C 19.3 km/h
1966 03-03-2019 19:45:00 12.4 C 8.19 g/m*3 12.4 C 11.3 km/h
1967 03-03-2019 19:50:00 12.4 C 8.19 g/m*3 12.4 C 11.3 km/h
1968 03-03-2019 19:55:00 12.4 C 8.19 g/m*3 12.4 C 11.3 km/h
1969 03-03-2019 20:00:00 12.3 C 8.14 g/m*3 12.3 C 11.3 km/h
1970 03-03-2019 20:05:00 12.3 C 8.14 g/m*3 12.3 C 17.7 km/h
1971 03-03-2019 20:10:00 12.3 C 8.14 g/m*3 12.3 C 16.1 km/h
1972 03-03-2019 20:15:00 12.3 C 8.25 g/m*3 12.3 C 9.7 km/h
1973 03-03-2019 20:20:00 12.3 C 8.25 g/m*3 12.3 C 17.7 km/h
1974 03-03-2019 20:25:00 12.4 C 8.3 g/m*3 12.4 C 16.1 km/h
1975 03-03-2019 20:30:00 12.4 C 8.3 g/m*3 12.4 C 11.3 km/h
Sensor: Nr:Datum:Temp:Abs-Feuchte:Windchill:Wind:
Aussen-T/F 1976 03-03-2019 20:35:00 12.4 C 8.3 g/m*3 12.4 C 12.9 km/h
1977 03-03-2019 20:40:00 12.4 C 8.3 g/m*3 12.4 C 9.7 km/h
1978 03-03-2019 20:45:00 12.3 C 8.36 g/m*3 12.3 C 14.5 km/h
1979 03-03-2019 20:50:00 12.3 C 8.36 g/m*3 12.3 C 17.7 km/h
1980 03-03-2019 20:55:00 12.3 C 8.36 g/m*3 12.3 C 17.7 km/h
1981 03-03-2019 21:00:00 12.3 C 8.36 g/m*3 12.3 C 17.7 km/h
1982 03-03-2019 21:05:00 12.3 C 8.36 g/m*3 12.3 C 12.9 km/h
1983 03-03-2019 21:10:00 12.3 C 8.36 g/m*3 12.3 C 27.4 km/h
1984 03-03-2019 21:15:00 12.3 C 8.36 g/m*3 12.3 C 11.3 km/h
1985 03-03-2019 21:20:00 12.3 C 8.36 g/m*3 12.3 C 17.7 km/h
1986 03-03-2019 21:25:00 12.3 C 8.36 g/m*3 12.3 C 19.3 km/h
1987 03-03-2019 21:30:00 12.3 C 8.36 g/m*3 12.3 C 25.7 km/h
1988 03-03-2019 21:35:00 12.3 C 8.36 g/m*3 12.3 C 24.1 km/h
1989 03-03-2019 21:40:00 12.4 C 8.41 g/m*3 12.4 C 20.9 km/h
1990 03-03-2019 21:45:00 12.4 C 8.41 g/m*3 12.4 C 24.1 km/h
1991 03-03-2019 21:50:00 12.4 C 8.41 g/m*3 12.4 C 27.4 km/h
1992 03-03-2019 21:55:00 12.4 C 8.52 g/m*3 12.4 C 24.1 km/h
1993 03-03-2019 22:00:00 12.4 C 8.52 g/m*3 12.4 C 25.7 km/h
1994 03-03-2019 22:05:00 12.4 C 8.52 g/m*3 12.4 C 19.3 km/h
1995 03-03-2019 22:10:00 12.4 C 8.52 g/m*3 12.4 C 19.3 km/h
1996 03-03-2019 22:15:00 12.4 C 8.41 g/m*3 12.4 C 25.7 km/h
1997 03-03-2019 22:20:00 12.4 C 8.41 g/m*3 12.4 C 19.3 km/h
1998 03-03-2019 22:25:00 12.5 C 8.47 g/m*3 12.5 C 17.7 km/h
1999 03-03-2019 22:30:00 12.5 C 8.47 g/m*3 12.5 C 14.5 km/h
2000 03-03-2019 22:35:00 12.6 C 8.41 g/m*3 12.6 C 17.7 km/h
Sensor: Nr:Datum:Temp:Abs-Feuchte:Windchill:Wind:
Aussen-T/F 2001 03-03-2019 22:40:00 12.6 C 8.41 g/m*3 12.6 C 16.1 km/h
2002 03-03-2019 22:45:00 12.7 C 8.35 g/m*3 12.7 C 19.3 km/h
2003 03-03-2019 22:50:00 12.7 C 8.35 g/m*3 12.7 C 16.1 km/h
2004 03-03-2019 22:55:00 12.7 C 8.35 g/m*3 12.7 C 9.7 km/h
2005 03-03-2019 23:00:00 12.7 C 8.24 g/m*3 12.7 C 11.3 km/h
2006 03-03-2019 23:05:00 12.8 C 8.29 g/m*3 12.8 C 11.3 km/h
2007 03-03-2019 23:10:00 12.8 C 8.29 g/m*3 12.8 C 1.6 km/h
2008 03-03-2019 23:15:00 12.8 C 8.29 g/m*3 12.8 C 4.8 km/h
2009 03-03-2019 23:20:00 12.7 C 8.24 g/m*3 12.7 C 4.8 km/h
2010 03-03-2019 23:25:00 12.7 C 8.24 g/m*3 12.7 C 3.2 km/h
2011 03-03-2019 23:30:00 12.7 C 8.24 g/m*3 12.7 C 8.1 km/h
2012 03-03-2019 23:35:00 12.7 C 8.24 g/m*3 12.7 C 4.8 km/h
2013 03-03-2019 23:40:00 12.8 C 8.18 g/m*3 12.8 C 6.4 km/h
2014 03-03-2019 23:45:00 12.8 C 8.29 g/m*3 12.8 C 9.7 km/h
2015 03-03-2019 23:50:00 12.8 C 8.18 g/m*3 12.8 C 6.4 km/h
2016 03-03-2019 23:55:00 12.8 C 8.18 g/m*3 12.8 C 4.8 km/h
2017 04-03-2019 00:00:00 12.9 C 8.23 g/m*3 12.9 C 3.2 km/h
2018 04-03-2019 00:05:00 12.9 C 8.23 g/m*3 12.9 C 8.1 km/h
2019 04-03-2019 00:10:00 12.9 C 8.11 g/m*3 12.9 C 4.8 km/h
2020 04-03-2019 00:15:00 13 C 8.17 g/m*3 13 C 9.7 km/h
2021 04-03-2019 00:20:00 13.1 C 8.22 g/m*3 13.1 C 3.2 km/h
2022 04-03-2019 00:25:00 13.1 C 8.1 g/m*3 13.1 C 8.1 km/h
2023 04-03-2019 00:30:00 13.2 C 8.15 g/m*3 13.2 C 8.1 km/h
2024 04-03-2019 00:35:00 13.2 C 8.04 g/m*3 13.2 C 9.7 km/h
2025 04-03-2019 00:40:00 13.2 C 8.15 g/m*3 13.2 C 14.5 km/h
Sensor: Nr:Datum:Temp:Abs-Feuchte:Windchill:Wind:
Aussen-T/F 2026 04-03-2019 00:45:00 13.2 C 8.04 g/m*3 13.2 C 14.5 km/h
2027 04-03-2019 00:50:00 13.3 C 8.09 g/m*3 13.3 C 9.7 km/h
2028 04-03-2019 00:55:00 13.3 C 8.09 g/m*3 13.3 C 6.4 km/h
2029 04-03-2019 01:00:00 13.3 C 7.97 g/m*3 13.3 C 3.2 km/h
2030 04-03-2019 01:05:00 13.3 C 8.09 g/m*3 13.3 C 1.6 km/h
2031 04-03-2019 01:10:00 13.3 C 8.09 g/m*3 13.3 C 6.4 km/h
2032 04-03-2019 01:15:00 13.3 C 8.09 g/m*3 13.3 C 1.6 km/h
2033 04-03-2019 01:20:00 13.3 C 7.97 g/m*3 13.3 C 9.7 km/h
2034 04-03-2019 01:25:00 13.3 C 7.97 g/m*3 13.3 C 12.9 km/h
2035 04-03-2019 01:30:00 13.4 C 7.9 g/m*3 13.4 C 16.1 km/h
2036 04-03-2019 01:35:00 13.6 C 7.89 g/m*3 13.6 C 12.9 km/h
2037 04-03-2019 01:40:00 13.8 C 7.98 g/m*3 13.8 C 19.3 km/h
2038 04-03-2019 01:45:00 13.8 C 7.98 g/m*3 13.8 C 24.1 km/h
2039 04-03-2019 01:50:00 13.9 C 8.03 g/m*3 13.9 C 30.6 km/h
2040 04-03-2019 01:55:00 13.8 C 8.22 g/m*3 13.8 C 24.1 km/h
2041 04-03-2019 02:00:00 13.6 C 8.24 g/m*3 13.6 C 24.1 km/h
2042 04-03-2019 02:05:00 13.3 C 8.2 g/m*3 13.3 C 25.7 km/h
2043 04-03-2019 02:10:00 13.2 C 8.27 g/m*3 13.2 C 37 km/h
2044 04-03-2019 02:15:00 12.9 C 8.34 g/m*3 12.9 C 38.6 km/h
2045 04-03-2019 02:20:00 12.8 C 8.4 g/m*3 12.8 C 38.6 km/h
2046 04-03-2019 02:25:00 12.6 C 8.41 g/m*3 12.6 C 27.4 km/h
2047 04-03-2019 02:30:00 12.5 C 8.47 g/m*3 12.5 C 19.3 km/h
2048 04-03-2019 02:35:00 12.3 C 8.36 g/m*3 12.3 C 22.5 km/h
2049 04-03-2019 02:40:00 12.3 C 8.47 g/m*3 12.3 C 29 km/h
2050 04-03-2019 02:45:00 12.2 C 8.42 g/m*3 12.2 C 24.1 km/h
Sensor: Nr:Datum:Temp:Abs-Feuchte:Windchill:Wind:
Aussen-T/F 2051 04-03-2019 02:50:00 12.2 C 8.42 g/m*3 12.2 C 22.5 km/h
2052 04-03-2019 02:55:00 12.1 C 8.47 g/m*3 12.1 C 24.1 km/h
2053 04-03-2019 03:00:00 12.1 C 8.47 g/m*3 12.1 C 30.6 km/h
2054 04-03-2019 03:05:00 12 C 8.42 g/m*3 12 C 19.3 km/h
2055 04-03-2019 03:10:00 11.9 C 8.47 g/m*3 11.9 C 24.1 km/h
2056 04-03-2019 03:15:00 11.8 C 8.42 g/m*3 11.8 C 17.7 km/h
2057 04-03-2019 03:20:00 11.8 C 8.42 g/m*3 11.8 C 19.3 km/h
2058 04-03-2019 03:25:00 11.7 C 8.47 g/m*3 11.7 C 19.3 km/h
2059 04-03-2019 03:30:00 11.7 C 8.47 g/m*3 11.7 C 20.9 km/h
2060 04-03-2019 03:35:00 11.7 C 8.47 g/m*3 11.7 C 12.9 km/h
2061 04-03-2019 03:40:00 11.7 C 8.47 g/m*3 11.7 C 12.9 km/h
2062 04-03-2019 03:45:00 11.7 C 8.47 g/m*3 11.7 C 14.5 km/h
2063 04-03-2019 03:50:00 11.7 C 8.47 g/m*3 11.7 C 11.3 km/h
2064 04-03-2019 03:55:00 11.7 C 8.47 g/m*3 11.7 C 14.5 km/h
2065 04-03-2019 04:00:00 11.7 C 8.47 g/m*3 11.7 C 6.4 km/h
2066 04-03-2019 04:05:00 11.7 C 8.47 g/m*3 11.7 C 8.1 km/h
2067 04-03-2019 04:10:00 11.6 C 8.42 g/m*3 11.6 C 8.1 km/h
2068 04-03-2019 04:15:00 11.6 C 8.42 g/m*3 11.6 C 4.8 km/h
2069 04-03-2019 04:20:00 11.6 C 8.42 g/m*3 11.6 C 12.9 km/h
2070 04-03-2019 04:25:00 11.7 C 8.58 g/m*3 11.7 C 14.5 km/h
2071 04-03-2019 04:30:00 11.7 C 8.58 g/m*3 11.7 C 11.3 km/h
2072 04-03-2019 04:35:00 11.7 C 8.58 g/m*3 11.7 C 9.7 km/h
2073 04-03-2019 04:40:00 11.7 C 8.58 g/m*3 11.7 C 8.1 km/h
2074 04-03-2019 04:45:00 11.7 C 8.58 g/m*3 11.7 C 11.3 km/h
2075 04-03-2019 04:50:00 11.7 C 8.58 g/m*3 11.7 C 17.7 km/h
Sensor: Nr:Datum:Temp:Abs-Feuchte:Windchill:Wind:
Aussen-T/F 2076 04-03-2019 04:55:00 11.7 C 8.47 g/m*3 11.7 C 16.1 km/h
2077 04-03-2019 05:00:00 11.7 C 8.47 g/m*3 11.7 C 11.3 km/h
2078 04-03-2019 05:05:00 11.7 C 8.37 g/m*3 11.7 C 11.3 km/h
2079 04-03-2019 05:10:00 11.8 C 8.42 g/m*3 11.8 C 16.1 km/h
2080 04-03-2019 05:15:00 11.8 C 8.42 g/m*3 11.8 C 17.7 km/h
2081 04-03-2019 05:20:00 11.8 C 8.42 g/m*3 11.8 C 9.7 km/h
2082 04-03-2019 05:25:00 11.8 C 8.42 g/m*3 11.8 C 9.7 km/h
2083 04-03-2019 05:30:00 11.7 C 8.37 g/m*3 11.7 C 6.4 km/h
2084 04-03-2019 05:35:00 11.6 C 8.21 g/m*3 11.6 C 6.4 km/h
2085 04-03-2019 05:40:00 11.6 C 8.32 g/m*3 11.6 C 8.1 km/h
2086 04-03-2019 05:45:00 11.4 C 8.21 g/m*3 11.4 C 8.1 km/h
2087 04-03-2019 05:50:00 11.4 C 8.21 g/m*3 11.4 C 1.6 km/h
2088 04-03-2019 05:55:00 11.3 C 8.26 g/m*3 11.3 C 4.8 km/h
2089 04-03-2019 06:00:00 11.3 C 8.26 g/m*3 11.3 C 17.7 km/h
2090 04-03-2019 06:05:00 11.4 C 8.21 g/m*3 11.4 C 11.3 km/h
2091 04-03-2019 06:10:00 11.4 C 8.21 g/m*3 11.4 C 4.8 km/h
2092 04-03-2019 06:15:00 11.3 C 8.16 g/m*3 11.3 C 6.4 km/h
2093 04-03-2019 06:20:00 11.3 C 8.06 g/m*3 11.3 C 6.4 km/h
2094 04-03-2019 06:25:00 11.3 C 7.96 g/m*3 11.3 C 14.5 km/h
2095 04-03-2019 06:30:00 11.5 C 7.95 g/m*3 11.5 C 11.3 km/h
2096 04-03-2019 06:35:00 11.6 C 8.21 g/m*3 11.6 C 16.1 km/h
2097 04-03-2019 06:40:00 11.6 C 8.21 g/m*3 11.6 C 9.7 km/h
2098 04-03-2019 06:45:00 11.5 C 8.06 g/m*3 11.5 C 17.7 km/h
2099 04-03-2019 06:50:00 11.6 C 8.11 g/m*3 11.6 C 14.5 km/h
2100 04-03-2019 06:55:00 11.6 C 8.11 g/m*3 11.6 C 16.1 km/h
Sensor: Nr:Datum:Temp:Abs-Feuchte:Windchill:Wind:
Aussen-T/F 2101 04-03-2019 07:00:00 11.6 C 8 g/m*3 11.6 C 11.3 km/h
2102 04-03-2019 07:05:00 11.7 C 7.95 g/m*3 11.7 C 24.1 km/h
2103 04-03-2019 07:10:00 11.8 C 8 g/m*3 11.8 C 19.3 km/h
2104 04-03-2019 07:15:00 11.9 C 7.94 g/m*3 11.9 C 20.9 km/h
2105 04-03-2019 07:20:00 12 C 7.89 g/m*3 12 C 19.3 km/h
2106 04-03-2019 07:25:00 12 C 7.89 g/m*3 12 C 20.9 km/h
2107 04-03-2019 07:30:00 12.1 C 7.83 g/m*3 12.1 C 11.3 km/h
2108 04-03-2019 07:35:00 12.1 C 7.83 g/m*3 12.1 C 17.7 km/h
2109 04-03-2019 07:40:00 12.2 C 7.77 g/m*3 12.2 C 17.7 km/h
2110 04-03-2019 07:45:00 12.2 C 7.77 g/m*3 12.2 C 11.3 km/h
2111 04-03-2019 07:50:00 12.2 C 7.77 g/m*3 12.2 C 14.5 km/h
2112 04-03-2019 07:55:00 12.2 C 7.77 g/m*3 12.2 C 14.5 km/h
2113 04-03-2019 08:00:00 12.3 C 7.82 g/m*3 12.3 C 17.7 km/h
2114 04-03-2019 08:05:00 12.3 C 7.71 g/m*3 12.3 C 20.9 km/h
2115 04-03-2019 08:10:00 12.4 C 7.65 g/m*3 12.4 C 25.7 km/h
2116 04-03-2019 08:15:00 12.4 C 7.54 g/m*3 12.4 C 32.2 km/h
2117 04-03-2019 08:20:00 12.6 C 7.52 g/m*3 12.6 C 22.5 km/h
2118 04-03-2019 08:25:00 12.7 C 7.57 g/m*3 12.7 C 30.6 km/h
2119 04-03-2019 08:30:00 12.7 C 7.46 g/m*3 12.7 C 46.7 km/h
2120 04-03-2019 08:35:00 12 C 7.99 g/m*3 12 C 49.9 km/h
2121 04-03-2019 08:40:00 10.7 C 7.56 g/m*3 6.9 C 40.2 km/h
2122 04-03-2019 08:45:00 9.7 C 7.38 g/m*3 5.93 C 33.8 km/h
2123 04-03-2019 08:50:00 9.2 C 7.14 g/m*3 5.49 C 30.6 km/h
2124 04-03-2019 08:55:00 8.9 C 7.1 g/m*3 4.99 C 32.2 km/h
2125 04-03-2019 09:00:00 8.9 C 6.92 g/m*3 5.33 C 27.4 km/h
Sensor: Nr:Datum:Temp:Abs-Feuchte:Windchill:Wind:
Aussen-T/F 2126 04-03-2019 09:05:00 9 C 6.79 g/m*3 5.6 C 25.7 km/h
2127 04-03-2019 09:10:00 9.2 C 6.7 g/m*3 5.86 C 25.7 km/h
2128 04-03-2019 09:15:00 9.4 C 6.69 g/m*3 5.98 C 27.4 km/h
2129 04-03-2019 09:20:00 9.6 C 6.69 g/m*3 6.24 C 27.4 km/h
2130 04-03-2019 09:25:00 9.6 C 6.69 g/m*3 5.9 C 32.2 km/h
2131 04-03-2019 09:30:00 9.7 C 6.73 g/m*3 6.37 C 27.4 km/h
2132 04-03-2019 09:35:00 9.8 C 6.96 g/m*3 6.76 C 24.1 km/h
2133 04-03-2019 09:40:00 9.8 C 7.24 g/m*3 7.04 C 20.9 km/h
2134 04-03-2019 09:45:00 9.4 C 7.15 g/m*3 6.69 C 19.3 km/h
2135 04-03-2019 09:50:00 9.2 C 7.14 g/m*3 6.13 C 22.5 km/h
2136 04-03-2019 09:55:00 9.1 C 7.1 g/m*3 5.73 C 25.7 km/h
2137 04-03-2019 10:00:00 9.1 C 7.1 g/m*3 6 C 22.5 km/h
2138 04-03-2019 10:05:00 9.2 C 7.14 g/m*3 6.13 C 22.5 km/h
2139 04-03-2019 10:10:00 9.4 C 7.15 g/m*3 6.11 C 25.7 km/h
2140 04-03-2019 10:15:00 9.6 C 7.15 g/m*3 6.24 C 27.4 km/h
2141 04-03-2019 10:20:00 9.7 C 7.1 g/m*3 6.91 C 20.9 km/h
2142 04-03-2019 10:25:00 9.9 C 7.19 g/m*3 7.48 C 17.7 km/h
2143 04-03-2019 10:30:00 10 C 7.14 g/m*3 6.76 C 27.4 km/h
2144 04-03-2019 10:35:00 10.1 C 7.19 g/m*3 7.73 C 17.7 km/h
2145 04-03-2019 10:40:00 10.2 C 7.23 g/m*3 7.14 C 25.7 km/h
2146 04-03-2019 10:45:00 10.3 C 7.18 g/m*3 7.53 C 22.5 km/h
2147 04-03-2019 10:50:00 10.6 C 7.22 g/m*3 7.66 C 25.7 km/h
2148 04-03-2019 10:55:00 10.8 C 7.02 g/m*3 7.58 C 30.6 km/h
2149 04-03-2019 11:00:00 11.1 C 7.05 g/m*3 11.1 C 27.4 km/h
2150 04-03-2019 11:05:00 11.3 C 6.94 g/m*3 11.3 C 33.8 km/h
Sensor: Nr:Datum:Temp:Abs-Feuchte:Windchill:Wind:
Aussen-T/F 2151 04-03-2019 11:10:00 11.6 C 6.96 g/m*3 11.6 C 29 km/h
2152 04-03-2019 11:15:00 11.7 C 6.9 g/m*3 11.7 C 29 km/h
2153 04-03-2019 11:20:00 11.7 C 6.8 g/m*3 11.7 C 27.4 km/h
2154 04-03-2019 11:25:00 11.6 C 7.07 g/m*3 11.6 C 30.6 km/h
2155 04-03-2019 11:30:00 11.2 C 7.1 g/m*3 11.2 C 20.9 km/h
2156 04-03-2019 11:35:00 10.9 C 7.06 g/m*3 7.61 C 32.2 km/h
2157 04-03-2019 11:40:00 10.8 C 7.02 g/m*3 8.3 C 20.9 km/h
2158 04-03-2019 11:45:00 10.9 C 7.16 g/m*3 8.43 C 20.9 km/h
2159 04-03-2019 11:50:00 11 C 7.11 g/m*3 7.74 C 32.2 km/h
2160 04-03-2019 11:55:00 11 C 7.11 g/m*3 8.3 C 24.1 km/h
2161 04-03-2019 12:00:00 11.2 C 6.99 g/m*3 11.2 C 29 km/h
2162 04-03-2019 12:05:00 11.3 C 6.94 g/m*3 11.3 C 30.6 km/h
2163 04-03-2019 12:10:00 11.4 C 6.98 g/m*3 11.4 C 27.4 km/h
2164 04-03-2019 12:15:00 11.6 C 7.07 g/m*3 11.6 C 29 km/h
2165 04-03-2019 12:20:00 11.8 C 7.05 g/m*3 11.8 C 33.8 km/h
2166 04-03-2019 12:25:00 12 C 7.14 g/m*3 12 C 27.4 km/h
2167 04-03-2019 12:30:00 11.9 C 7.2 g/m*3 11.9 C 27.4 km/h
2168 04-03-2019 12:35:00 11.4 C 7.49 g/m*3 11.4 C 25.7 km/h
2169 04-03-2019 12:40:00 10.6 C 7.61 g/m*3 7.66 C 25.7 km/h
2170 04-03-2019 12:45:00 9.8 C 7.61 g/m*3 6.5 C 27.4 km/h
2171 04-03-2019 12:50:00 9.5 C 7.55 g/m*3 6.51 C 22.5 km/h
2172 04-03-2019 12:55:00 9.3 C 7.55 g/m*3 5.98 C 25.7 km/h
2173 04-03-2019 13:00:00 8.8 C 7.49 g/m*3 5.34 C 25.7 km/h
2174 04-03-2019 13:05:00 8.7 C 7.61 g/m*3 5.98 C 17.7 km/h
2175 04-03-2019 13:10:00 9.1 C 7.99 g/m*3 5.73 C 25.7 km/h
Sensor: Nr:Datum:Temp:Abs-Feuchte:Windchill:Wind:
Aussen-T/F 2176 04-03-2019 13:15:00 9.3 C 7.82 g/m*3 5.62 C 30.6 km/h
2177 04-03-2019 13:20:00 9.4 C 7.78 g/m*3 6.25 C 24.1 km/h
2178 04-03-2019 13:25:00 9.7 C 7.84 g/m*3 6.63 C 24.1 km/h
2179 04-03-2019 13:30:00 9.9 C 7.75 g/m*3 6.51 C 29 km/h
2180 04-03-2019 13:35:00 10.3 C 7.76 g/m*3 7.27 C 25.7 km/h
2181 04-03-2019 13:40:00 10.5 C 7.76 g/m*3 8.23 C 17.7 km/h
2182 04-03-2019 13:45:00 10.4 C 7.81 g/m*3 7.16 C 29 km/h
2183 04-03-2019 13:50:00 10.4 C 7.81 g/m*3 7.53 C 24.1 km/h
2184 04-03-2019 13:55:00 10.3 C 7.76 g/m*3 7.27 C 25.7 km/h
2185 04-03-2019 14:00:00 10.2 C 7.8 g/m*3 7.7 C 19.3 km/h
2186 04-03-2019 14:05:00 10.2 C 7.8 g/m*3 6.5 C 35.4 km/h
2187 04-03-2019 14:10:00 10.1 C 7.94 g/m*3 7.57 C 19.3 km/h
2188 04-03-2019 14:15:00 9.9 C 7.75 g/m*3 7.02 C 22.5 km/h
2189 04-03-2019 14:20:00 9.9 C 7.75 g/m*3 7.02 C 22.5 km/h
2190 04-03-2019 14:25:00 9.9 C 7.56 g/m*3 6.76 C 25.7 km/h
2191 04-03-2019 14:30:00 9.8 C 7.52 g/m*3 6.63 C 25.7 km/h
2192 04-03-2019 14:35:00 9.6 C 7.51 g/m*3 6.37 C 25.7 km/h
2193 04-03-2019 14:40:00 9.1 C 7.45 g/m*3 5.73 C 25.7 km/h
2194 04-03-2019 14:45:00 8.6 C 7.39 g/m*3 5.37 C 22.5 km/h
2195 04-03-2019 14:50:00 8.2 C 7.2 g/m*3 5.18 C 19.3 km/h
2196 04-03-2019 14:55:00 7.8 C 7.02 g/m*3 4.86 C 17.7 km/h
2197 04-03-2019 15:00:00 7.6 C 6.85 g/m*3 4.61 C 17.7 km/h
2198 04-03-2019 15:05:00 7.4 C 6.76 g/m*3 4.78 C 14.5 km/h
2199 04-03-2019 15:10:00 7.2 C 6.75 g/m*3 4.53 C 14.5 km/h
2200 04-03-2019 15:15:00 7.2 C 6.75 g/m*3 4.77 C 12.9 km/h
Sensor: Nr:Datum:Temp:Abs-Feuchte:Windchill:Wind:
Aussen-T/F 2201 04-03-2019 15:20:00 7.1 C 6.71 g/m*3 5.58 C 8.1 km/h
2202 04-03-2019 15:25:00 7.1 C 6.71 g/m*3 5.58 C 8.1 km/h
2203 04-03-2019 15:30:00 6.9 C 6.54 g/m*3 4.16 C 14.5 km/h
2204 04-03-2019 15:35:00 6.9 C 6.47 g/m*3 3.94 C 16.1 km/h
2205 04-03-2019 15:40:00 6.9 C 6.47 g/m*3 3.94 C 16.1 km/h
2206 04-03-2019 15:45:00 6.9 C 6.39 g/m*3 3.2 C 22.5 km/h
2207 04-03-2019 15:50:00 6.9 C 6.31 g/m*3 3.94 C 16.1 km/h
2208 04-03-2019 15:55:00 7.1 C 6.32 g/m*3 3.98 C 17.7 km/h
2209 04-03-2019 16:00:00 7.3 C 6.4 g/m*3 4.44 C 16.1 km/h
2210 04-03-2019 16:05:00 7.4 C 6.44 g/m*3 4.56 C 16.1 km/h
2211 04-03-2019 16:10:00 7.4 C 6.44 g/m*3 4 C 20.9 km/h
2212 04-03-2019 16:15:00 7.6 C 6.53 g/m*3 5.53 C 11.3 km/h
2213 04-03-2019 16:20:00 7.6 C 6.44 g/m*3 5.26 C 12.9 km/h
2214 04-03-2019 16:25:00 7.6 C 6.44 g/m*3 5.02 C 14.5 km/h
2215 04-03-2019 16:30:00 7.6 C 6.36 g/m*3 4.61 C 17.7 km/h
2216 04-03-2019 16:35:00 7.6 C 6.36 g/m*3 4.61 C 17.7 km/h
2217 04-03-2019 16:40:00 7.6 C 6.28 g/m*3 4.25 C 20.9 km/h
2218 04-03-2019 16:45:00 7.6 C 6.36 g/m*3 5.53 C 11.3 km/h
2219 04-03-2019 16:50:00 7.6 C 6.36 g/m*3 5.26 C 12.9 km/h
2220 04-03-2019 16:55:00 7.6 C 6.28 g/m*3 4.81 C 16.1 km/h
2221 04-03-2019 17:00:00 7.6 C 6.28 g/m*3 5.26 C 12.9 km/h
2222 04-03-2019 17:05:00 7.6 C 6.28 g/m*3 5.26 C 12.9 km/h
2223 04-03-2019 17:10:00 7.6 C 6.28 g/m*3 4.61 C 17.7 km/h
2224 04-03-2019 17:15:00 7.5 C 6.32 g/m*3 5.41 C 11.3 km/h
2225 04-03-2019 17:20:00 7.4 C 6.2 g/m*3 5.02 C 12.9 km/h
Sensor: Nr:Datum:Temp:Abs-Feuchte:Windchill:Wind:
Aussen-T/F 2226 04-03-2019 17:25:00 7.4 C 6.28 g/m*3 5.93 C 8.1 km/h
2227 04-03-2019 17:30:00 7.3 C 6.24 g/m*3 4.9 C 12.9 km/h
2228 04-03-2019 17:35:00 7.3 C 6.24 g/m*3 5.81 C 8.1 km/h
2229 04-03-2019 17:40:00 7.3 C 6.24 g/m*3 5.47 C 9.7 km/h
2230 04-03-2019 17:45:00 7.3 C 6.24 g/m*3 5.81 C 8.1 km/h
2231 04-03-2019 17:50:00 7.3 C 6.24 g/m*3 4.9 C 12.9 km/h
2232 04-03-2019 17:55:00 7.2 C 6.2 g/m*3 4.11 C 17.7 km/h
2233 04-03-2019 18:00:00 7.2 C 6.2 g/m*3 5.04 C 11.3 km/h
2234 04-03-2019 18:05:00 7.2 C 6.28 g/m*3 5.35 C 9.7 km/h
2235 04-03-2019 18:10:00 7.1 C 6.24 g/m*3 5.58 C 8.1 km/h
2236 04-03-2019 18:15:00 7 C 6.2 g/m*3 4.53 C 12.9 km/h
2237 04-03-2019 18:20:00 6.9 C 6.24 g/m*3 4.16 C 14.5 km/h
2238 04-03-2019 18:25:00 6.9 C 6.24 g/m*3 3.73 C 17.7 km/h
2239 04-03-2019 18:30:00 7 C 6.2 g/m*3 5.9 C 6.4 km/h
2240 04-03-2019 18:35:00 6.9 C 6.16 g/m*3 4.99 C 9.7 km/h
2241 04-03-2019 18:40:00 6.9 C 6.24 g/m*3 4.99 C 9.7 km/h
2242 04-03-2019 18:45:00 6.8 C 6.19 g/m*3 5.67 C 6.4 km/h
2243 04-03-2019 18:50:00 6.8 C 6.19 g/m*3 4.29 C 12.9 km/h
2244 04-03-2019 18:55:00 6.9 C 6.24 g/m*3 4.16 C 14.5 km/h
2245 04-03-2019 19:00:00 6.9 C 6.24 g/m*3 4.68 C 11.3 km/h
2246 04-03-2019 19:05:00 6.9 C 6.24 g/m*3 4.99 C 9.7 km/h
2247 04-03-2019 19:10:00 6.9 C 6.24 g/m*3 4.68 C 11.3 km/h
2248 04-03-2019 19:15:00 6.9 C 6.24 g/m*3 3.94 C 16.1 km/h
2249 04-03-2019 19:20:00 6.9 C 6.24 g/m*3 4.68 C 11.3 km/h
2250 04-03-2019 19:25:00 6.9 C 6.24 g/m*3 3.73 C 17.7 km/h
Sensor: Nr:Datum:Temp:Abs-Feuchte:Windchill:Wind:
Aussen-T/F 2251 04-03-2019 19:30:00 6.9 C 6.24 g/m*3 4.68 C 11.3 km/h
2252 04-03-2019 19:35:00 6.9 C 6.31 g/m*3 3.73 C 17.7 km/h
2253 04-03-2019 19:40:00 6.8 C 6.27 g/m*3 4.56 C 11.3 km/h
2254 04-03-2019 19:45:00 6.8 C 6.27 g/m*3 3.82 C 16.1 km/h
2255 04-03-2019 19:50:00 6.8 C 6.27 g/m*3 3.07 C 22.5 km/h
2256 04-03-2019 19:55:00 6.8 C 6.27 g/m*3 3.42 C 19.3 km/h
2257 04-03-2019 20:00:00 6.9 C 6.31 g/m*3 3.37 C 20.9 km/h
2258 04-03-2019 20:05:00 6.9 C 6.31 g/m*3 4.99 C 9.7 km/h
2259 04-03-2019 20:10:00 6.9 C 6.31 g/m*3 3.73 C 17.7 km/h
2260 04-03-2019 20:15:00 7 C 6.28 g/m*3 4.06 C 16.1 km/h
2261 04-03-2019 20:20:00 7.1 C 6.32 g/m*3 4.41 C 14.5 km/h
2262 04-03-2019 20:25:00 7.1 C 6.32 g/m*3 4.41 C 14.5 km/h
2263 04-03-2019 20:30:00 7.1 C 6.32 g/m*3 3.98 C 17.7 km/h
2264 04-03-2019 20:35:00 7.1 C 6.32 g/m*3 5.23 C 9.7 km/h
2265 04-03-2019 20:40:00 6.9 C 6.24 g/m*3 4.99 C 9.7 km/h
2266 04-03-2019 20:45:00 6.9 C 6.31 g/m*3 5.34 C 8.1 km/h
2267 04-03-2019 20:50:00 6.8 C 6.27 g/m*3 6.8 C 4.8 km/h
2268 04-03-2019 20:55:00 6.7 C 6.23 g/m*3 5.11 C 8.1 km/h
2269 04-03-2019 21:00:00 6.6 C 6.27 g/m*3 4.32 C 11.3 km/h
2270 04-03-2019 21:05:00 6.6 C 6.19 g/m*3 4.04 C 12.9 km/h
2271 04-03-2019 21:10:00 6.6 C 6.27 g/m*3 4.99 C 8.1 km/h
2272 04-03-2019 21:15:00 6.6 C 6.27 g/m*3 4.99 C 8.1 km/h
2273 04-03-2019 21:20:00 6.6 C 6.27 g/m*3 4.32 C 11.3 km/h
2274 04-03-2019 21:25:00 6.6 C 6.27 g/m*3 4.04 C 12.9 km/h
2275 04-03-2019 21:30:00 6.6 C 6.27 g/m*3 3.79 C 14.5 km/h
Sensor: Nr:Datum:Temp:Abs-Feuchte:Windchill:Wind:
Aussen-T/F 2276 04-03-2019 21:35:00 6.6 C 6.27 g/m*3 5.44 C 6.4 km/h
2277 04-03-2019 21:40:00 6.6 C 6.34 g/m*3 4.63 C 9.7 km/h
2278 04-03-2019 21:45:00 6.6 C 6.34 g/m*3 4.99 C 8.1 km/h
2279 04-03-2019 21:50:00 6.7 C 6.38 g/m*3 4.75 C 9.7 km/h
2280 04-03-2019 21:55:00 6.7 C 6.38 g/m*3 4.75 C 9.7 km/h
2281 04-03-2019 22:00:00 6.9 C 6.54 g/m*3 4.99 C 9.7 km/h
2282 04-03-2019 22:05:00 7 C 6.59 g/m*3 3.86 C 17.7 km/h
2283 04-03-2019 22:10:00 7.1 C 6.55 g/m*3 3.15 C 25.7 km/h
2284 04-03-2019 22:15:00 7.1 C 6.47 g/m*3 3.62 C 20.9 km/h
2285 04-03-2019 22:20:00 7.2 C 6.44 g/m*3 3.92 C 19.3 km/h
2286 04-03-2019 22:25:00 7.1 C 6.4 g/m*3 3.62 C 20.9 km/h
2287 04-03-2019 22:30:00 7.1 C 6.4 g/m*3 3.98 C 17.7 km/h
2288 04-03-2019 22:35:00 7.1 C 6.4 g/m*3 4.41 C 14.5 km/h
2289 04-03-2019 22:40:00 7.1 C 6.4 g/m*3 5.23 C 9.7 km/h
2290 04-03-2019 22:45:00 7.2 C 6.44 g/m*3 5.35 C 9.7 km/h
2291 04-03-2019 22:50:00 7.1 C 6.4 g/m*3 4.65 C 12.9 km/h
2292 04-03-2019 22:55:00 7.1 C 6.4 g/m*3 4.65 C 12.9 km/h
2293 04-03-2019 23:00:00 7.1 C 6.4 g/m*3 4.19 C 16.1 km/h
2294 04-03-2019 23:05:00 7.1 C 6.4 g/m*3 4.19 C 16.1 km/h
2295 04-03-2019 23:10:00 6.9 C 6.31 g/m*3 3.54 C 19.3 km/h
2296 04-03-2019 23:15:00 6.8 C 6.35 g/m*3 4.04 C 14.5 km/h
2297 04-03-2019 23:20:00 6.7 C 6.31 g/m*3 4.17 C 12.9 km/h
2298 04-03-2019 23:25:00 6.6 C 6.34 g/m*3 4.63 C 9.7 km/h
2299 04-03-2019 23:30:00 6.6 C 6.34 g/m*3 4.63 C 9.7 km/h
2300 04-03-2019 23:35:00 6.5 C 6.37 g/m*3 5.33 C 6.4 km/h
Sensor: Nr:Datum:Temp:Abs-Feuchte:Windchill:Wind:
Aussen-T/F 2301 04-03-2019 23:40:00 6.5 C 6.37 g/m*3 5.33 C 6.4 km/h
2302 04-03-2019 23:45:00 6.5 C 6.37 g/m*3 5.33 C 6.4 km/h
2303 04-03-2019 23:50:00 6.5 C 6.37 g/m*3 4.51 C 9.7 km/h
2304 04-03-2019 23:55:00 6.6 C 6.34 g/m*3 5.44 C 6.4 km/h
2305 05-03-2019 00:00:00 6.6 C 6.34 g/m*3 5.44 C 6.4 km/h
2306 05-03-2019 00:05:00 6.6 C 6.34 g/m*3 5.44 C 6.4 km/h
2307 05-03-2019 00:10:00 6.7 C 6.31 g/m*3 5.56 C 6.4 km/h
2308 05-03-2019 00:15:00 6.8 C 6.35 g/m*3 4.29 C 12.9 km/h
2309 05-03-2019 00:20:00 6.9 C 6.31 g/m*3 4.41 C 12.9 km/h
2310 05-03-2019 00:25:00 6.9 C 6.24 g/m*3 4.16 C 14.5 km/h
2311 05-03-2019 00:30:00 7 C 6.28 g/m*3 5.11 C 9.7 km/h
2312 05-03-2019 00:35:00 7 C 6.2 g/m*3 4.29 C 14.5 km/h
2313 05-03-2019 00:40:00 7 C 6.2 g/m*3 4.29 C 14.5 km/h
2314 05-03-2019 00:45:00 7 C 6.2 g/m*3 3.17 C 24.1 km/h
2315 05-03-2019 00:50:00 7 C 6.2 g/m*3 4.8 C 11.3 km/h
2316 05-03-2019 00:55:00 7 C 6.2 g/m*3 4.06 C 16.1 km/h
2317 05-03-2019 01:00:00 6.9 C 6.16 g/m*3 5.34 C 8.1 km/h
2318 05-03-2019 01:05:00 6.9 C 6.16 g/m*3 5.34 C 8.1 km/h
2319 05-03-2019 01:10:00 6.9 C 6.16 g/m*3 4.68 C 11.3 km/h
2320 05-03-2019 01:15:00 6.9 C 6.24 g/m*3 4.41 C 12.9 km/h
2321 05-03-2019 01:20:00 6.9 C 6.16 g/m*3 5.34 C 8.1 km/h
2322 05-03-2019 01:25:00 6.9 C 6.24 g/m*3 5.34 C 8.1 km/h
2323 05-03-2019 01:30:00 6.8 C 6.19 g/m*3 4.29 C 12.9 km/h
2324 05-03-2019 01:35:00 6.8 C 6.19 g/m*3 3.82 C 16.1 km/h
2325 05-03-2019 01:40:00 6.9 C 6.24 g/m*3 3.94 C 16.1 km/h
Sensor: Nr:Datum:Temp:Abs-Feuchte:Windchill:Wind:
Aussen-T/F 2326 05-03-2019 01:45:00 6.9 C 6.24 g/m*3 3.54 C 19.3 km/h
2327 05-03-2019 01:50:00 6.9 C 6.16 g/m*3 3.73 C 17.7 km/h
2328 05-03-2019 01:55:00 6.8 C 6.12 g/m*3 3.82 C 16.1 km/h
2329 05-03-2019 02:00:00 6.8 C 6.12 g/m*3 4.29 C 12.9 km/h
2330 05-03-2019 02:05:00 6.8 C 6.12 g/m*3 2.76 C 25.7 km/h
2331 05-03-2019 02:10:00 6.8 C 6.12 g/m*3 3.42 C 19.3 km/h
2332 05-03-2019 02:15:00 6.8 C 6.12 g/m*3 3.82 C 16.1 km/h
2333 05-03-2019 02:20:00 6.7 C 6.08 g/m*3 3.48 C 17.7 km/h
2334 05-03-2019 02:25:00 6.8 C 6.12 g/m*3 3.42 C 19.3 km/h
2335 05-03-2019 02:30:00 6.8 C 6.12 g/m*3 3.61 C 17.7 km/h
2336 05-03-2019 02:35:00 6.8 C 6.04 g/m*3 3.82 C 16.1 km/h
2337 05-03-2019 02:40:00 6.8 C 6.12 g/m*3 3.61 C 17.7 km/h
2338 05-03-2019 02:45:00 6.8 C 6.12 g/m*3 3.82 C 16.1 km/h
2339 05-03-2019 02:50:00 6.8 C 6.12 g/m*3 3.24 C 20.9 km/h
2340 05-03-2019 02:55:00 6.8 C 6.12 g/m*3 3.82 C 16.1 km/h
2341 05-03-2019 03:00:00 6.8 C 6.12 g/m*3 3.24 C 20.9 km/h
2342 05-03-2019 03:05:00 6.8 C 6.12 g/m*3 3.82 C 16.1 km/h
2343 05-03-2019 03:10:00 6.8 C 6.12 g/m*3 4.04 C 14.5 km/h
2344 05-03-2019 03:15:00 6.8 C 6.12 g/m*3 4.29 C 12.9 km/h
2345 05-03-2019 03:20:00 6.8 C 6.12 g/m*3 3.42 C 19.3 km/h
2346 05-03-2019 03:25:00 6.8 C 6.12 g/m*3 2.91 C 24.1 km/h
2347 05-03-2019 03:30:00 6.8 C 6.19 g/m*3 3.42 C 19.3 km/h
2348 05-03-2019 03:35:00 6.8 C 6.19 g/m*3 4.56 C 11.3 km/h
2349 05-03-2019 03:40:00 6.7 C 6.15 g/m*3 2.94 C 22.5 km/h
2350 05-03-2019 03:45:00 6.6 C 6.11 g/m*3 3.57 C 16.1 km/h
Sensor: Nr:Datum:Temp:Abs-Feuchte:Windchill:Wind:
Aussen-T/F 2351 05-03-2019 03:50:00 6.6 C 6.11 g/m*3 4.04 C 12.9 km/h
2352 05-03-2019 03:55:00 6.6 C 6.11 g/m*3 3.57 C 16.1 km/h
2353 05-03-2019 04:00:00 6.6 C 6.11 g/m*3 3.79 C 14.5 km/h
2354 05-03-2019 04:05:00 6.4 C 6.04 g/m*3 2.91 C 19.3 km/h
2355 05-03-2019 04:10:00 6.4 C 6.04 g/m*3 2.91 C 19.3 km/h
2356 05-03-2019 04:15:00 6.4 C 6.04 g/m*3 3.55 C 14.5 km/h
2357 05-03-2019 04:20:00 6.4 C 6.04 g/m*3 4.75 C 8.1 km/h
2358 05-03-2019 04:25:00 6.4 C 6.04 g/m*3 5.21 C 6.4 km/h
2359 05-03-2019 04:30:00 6.4 C 6.04 g/m*3 4.75 C 8.1 km/h
2360 05-03-2019 04:35:00 6.4 C 6.04 g/m*3 4.75 C 8.1 km/h
2361 05-03-2019 04:40:00 6.4 C 6.04 g/m*3 2.91 C 19.3 km/h
2362 05-03-2019 04:45:00 6.4 C 6.04 g/m*3 3.8 C 12.9 km/h
2363 05-03-2019 04:50:00 6.4 C 6.04 g/m*3 2.91 C 19.3 km/h
2364 05-03-2019 04:55:00 6.5 C 6 g/m*3 2.53 C 24.1 km/h
2365 05-03-2019 05:00:00 6.5 C 6.07 g/m*3 4.2 C 11.3 km/h
2366 05-03-2019 05:05:00 6.5 C 6 g/m*3 3.92 C 12.9 km/h
2367 05-03-2019 05:10:00 6.4 C 6.04 g/m*3 3.11 C 17.7 km/h
2368 05-03-2019 05:15:00 6.4 C 6.04 g/m*3 3.32 C 16.1 km/h
2369 05-03-2019 05:20:00 6.3 C 6 g/m*3 2.61 C 20.9 km/h
2370 05-03-2019 05:25:00 6.3 C 6 g/m*3 3.2 C 16.1 km/h
2371 05-03-2019 05:30:00 6.3 C 6 g/m*3 3.96 C 11.3 km/h
2372 05-03-2019 05:35:00 6.3 C 6 g/m*3 4.27 C 9.7 km/h
2373 05-03-2019 05:40:00 6.3 C 6 g/m*3 3.68 C 12.9 km/h
2374 05-03-2019 05:45:00 6.3 C 6 g/m*3 3.43 C 14.5 km/h
2375 05-03-2019 05:50:00 6.3 C 6 g/m*3 2.61 C 20.9 km/h
Sensor: Nr:Datum:Temp:Abs-Feuchte:Windchill:Wind:
Aussen-T/F 2376 05-03-2019 05:55:00 6.3 C 6 g/m*3 3.68 C 12.9 km/h
2377 05-03-2019 06:00:00 6.3 C 5.92 g/m*3 4.27 C 9.7 km/h
2378 05-03-2019 06:05:00 6.3 C 5.92 g/m*3 2.98 C 17.7 km/h
2379 05-03-2019 06:10:00 6.3 C 5.92 g/m*3 3.68 C 12.9 km/h
2380 05-03-2019 06:15:00 6.3 C 5.85 g/m*3 4.27 C 9.7 km/h
2381 05-03-2019 06:20:00 6.2 C 5.88 g/m*3 3.84 C 11.3 km/h
2382 05-03-2019 06:25:00 6.2 C 5.88 g/m*3 3.3 C 14.5 km/h
2383 05-03-2019 06:30:00 6.1 C 5.84 g/m*3 3.72 C 11.3 km/h
2384 05-03-2019 06:35:00 6.2 C 5.88 g/m*3 3.56 C 12.9 km/h
2385 05-03-2019 06:40:00 6.2 C 5.88 g/m*3 3.56 C 12.9 km/h
2386 05-03-2019 06:45:00 6.2 C 5.88 g/m*3 3.84 C 11.3 km/h
2387 05-03-2019 06:50:00 6.3 C 5.85 g/m*3 2.61 C 20.9 km/h
2388 05-03-2019 06:55:00 6.3 C 5.85 g/m*3 2.61 C 20.9 km/h
2389 05-03-2019 07:00:00 6.3 C 5.85 g/m*3 3.68 C 12.9 km/h
2390 05-03-2019 07:05:00 6.3 C 5.85 g/m*3 3.2 C 16.1 km/h
2391 05-03-2019 07:10:00 6.3 C 5.92 g/m*3 2.61 C 20.9 km/h
2392 05-03-2019 07:15:00 6.3 C 5.92 g/m*3 3.43 C 14.5 km/h
2393 05-03-2019 07:20:00 6.4 C 5.96 g/m*3 2.56 C 22.5 km/h
2394 05-03-2019 07:25:00 6.4 C 5.89 g/m*3 3.11 C 17.7 km/h
2395 05-03-2019 07:30:00 6.5 C 5.92 g/m*3 2.09 C 29 km/h
2396 05-03-2019 07:35:00 6.6 C 5.96 g/m*3 2.99 C 20.9 km/h
2397 05-03-2019 07:40:00 6.6 C 5.96 g/m*3 3.17 C 19.3 km/h
2398 05-03-2019 07:45:00 6.6 C 5.96 g/m*3 2.82 C 22.5 km/h
2399 05-03-2019 07:50:00 6.7 C 6 g/m*3 3.29 C 19.3 km/h
2400 05-03-2019 07:55:00 6.7 C 6 g/m*3 4.44 C 11.3 km/h
Sensor: Nr:Datum:Temp:Abs-Feuchte:Windchill:Wind:
Aussen-T/F 2401 05-03-2019 08:00:00 6.7 C 6.08 g/m*3 4.44 C 11.3 km/h
2402 05-03-2019 08:05:00 6.6 C 6.04 g/m*3 3.36 C 17.7 km/h
2403 05-03-2019 08:10:00 6.6 C 6.04 g/m*3 2.51 C 25.7 km/h
2404 05-03-2019 08:15:00 6.6 C 6.04 g/m*3 2.82 C 22.5 km/h
2405 05-03-2019 08:20:00 6.6 C 6.04 g/m*3 3.17 C 19.3 km/h
2406 05-03-2019 08:25:00 6.6 C 6.04 g/m*3 2.66 C 24.1 km/h
2407 05-03-2019 08:30:00 6.6 C 6.04 g/m*3 3.79 C 14.5 km/h
2408 05-03-2019 08:35:00 6.7 C 6.15 g/m*3 3.11 C 20.9 km/h
2409 05-03-2019 08:40:00 6.7 C 6.08 g/m*3 3.11 C 20.9 km/h
2410 05-03-2019 08:45:00 6.7 C 6.08 g/m*3 3.48 C 17.7 km/h
2411 05-03-2019 08:50:00 6.7 C 6.08 g/m*3 3.48 C 17.7 km/h
2412 05-03-2019 08:55:00 6.6 C 6.19 g/m*3 3.36 C 17.7 km/h
2413 05-03-2019 09:00:00 6.6 C 6.27 g/m*3 4.32 C 11.3 km/h
2414 05-03-2019 09:05:00 6.5 C 6.22 g/m*3 3.23 C 17.7 km/h
2415 05-03-2019 09:10:00 6.5 C 6.15 g/m*3 3.92 C 12.9 km/h
2416 05-03-2019 09:15:00 6.6 C 6.19 g/m*3 3.36 C 17.7 km/h
2417 05-03-2019 09:20:00 6.6 C 6.19 g/m*3 3.36 C 17.7 km/h
2418 05-03-2019 09:25:00 6.6 C 6.27 g/m*3 3.17 C 19.3 km/h
2419 05-03-2019 09:30:00 6.6 C 6.27 g/m*3 3.17 C 19.3 km/h
2420 05-03-2019 09:35:00 6.5 C 6.3 g/m*3 3.67 C 14.5 km/h
2421 05-03-2019 09:40:00 6.4 C 6.26 g/m*3 3.55 C 14.5 km/h
2422 05-03-2019 09:45:00 6.4 C 6.26 g/m*3 2.73 C 20.9 km/h
2423 05-03-2019 09:50:00 6.4 C 6.33 g/m*3 4.08 C 11.3 km/h
2424 05-03-2019 09:55:00 6.4 C 6.33 g/m*3 4.08 C 11.3 km/h
2425 05-03-2019 10:00:00 6.4 C 6.33 g/m*3 4.08 C 11.3 km/h
Sensor: Nr:Datum:Temp:Abs-Feuchte:Windchill:Wind:
Aussen-T/F 2426 05-03-2019 10:05:00 6.5 C 6.37 g/m*3 3.67 C 14.5 km/h
2427 05-03-2019 10:10:00 6.5 C 6.45 g/m*3 4.87 C 8.1 km/h
2428 05-03-2019 10:15:00 6.6 C 6.49 g/m*3 3.57 C 16.1 km/h
2429 05-03-2019 10:20:00 6.6 C 6.42 g/m*3 4.32 C 11.3 km/h
2430 05-03-2019 10:25:00 6.6 C 6.42 g/m*3 4.99 C 8.1 km/h
2431 05-03-2019 10:30:00 6.7 C 6.46 g/m*3 4.17 C 12.9 km/h
2432 05-03-2019 10:35:00 6.7 C 6.46 g/m*3 4.75 C 9.7 km/h
2433 05-03-2019 10:40:00 6.7 C 6.46 g/m*3 3.92 C 14.5 km/h
2434 05-03-2019 10:45:00 6.7 C 6.46 g/m*3 4.44 C 11.3 km/h
2435 05-03-2019 10:50:00 6.7 C 6.46 g/m*3 4.17 C 12.9 km/h
2436 05-03-2019 10:55:00 6.8 C 6.5 g/m*3 5.22 C 8.1 km/h
2437 05-03-2019 11:00:00 6.8 C 6.5 g/m*3 5.22 C 8.1 km/h
2438 05-03-2019 11:05:00 6.9 C 6.54 g/m*3 4.41 C 12.9 km/h
2439 05-03-2019 11:10:00 6.9 C 6.54 g/m*3 4.41 C 12.9 km/h
2440 05-03-2019 11:15:00 6.9 C 6.54 g/m*3 3.73 C 17.7 km/h
2441 05-03-2019 11:20:00 6.9 C 6.47 g/m*3 4.16 C 14.5 km/h
2442 05-03-2019 11:25:00 7 C 6.59 g/m*3 3.86 C 17.7 km/h
2443 05-03-2019 11:30:00 7 C 6.59 g/m*3 4.8 C 11.3 km/h
2444 05-03-2019 11:35:00 7 C 6.51 g/m*3 5.11 C 9.7 km/h
2445 05-03-2019 11:40:00 7.1 C 6.55 g/m*3 4.65 C 12.9 km/h
2446 05-03-2019 11:45:00 7.1 C 6.55 g/m*3 5.23 C 9.7 km/h
2447 05-03-2019 11:50:00 7.1 C 6.47 g/m*3 4.92 C 11.3 km/h
2448 05-03-2019 11:55:00 7.2 C 6.52 g/m*3 5.35 C 9.7 km/h
2449 05-03-2019 12:00:00 7.2 C 6.52 g/m*3 5.04 C 11.3 km/h
2450 05-03-2019 12:05:00 7.2 C 6.52 g/m*3 5.04 C 11.3 km/h
Sensor: Nr:Datum:Temp:Abs-Feuchte:Windchill:Wind:
Aussen-T/F 2451 05-03-2019 12:10:00 7.3 C 6.48 g/m*3 5.47 C 9.7 km/h
2452 05-03-2019 12:15:00 7.3 C 6.48 g/m*3 5.16 C 11.3 km/h
2453 05-03-2019 12:20:00 7.3 C 6.4 g/m*3 4.66 C 14.5 km/h
2454 05-03-2019 12:25:00 7.3 C 6.4 g/m*3 4.23 C 17.7 km/h
2455 05-03-2019 12:30:00 7.3 C 6.4 g/m*3 4.23 C 17.7 km/h
2456 05-03-2019 12:35:00 7.3 C 6.4 g/m*3 4.44 C 16.1 km/h
2457 05-03-2019 12:40:00 7.3 C 6.4 g/m*3 4.44 C 16.1 km/h
2458 05-03-2019 12:45:00 7.3 C 6.4 g/m*3 4.44 C 16.1 km/h
2459 05-03-2019 12:50:00 7.4 C 6.52 g/m*3 5.58 C 9.7 km/h
2460 05-03-2019 12:55:00 7.4 C 6.44 g/m*3 5.02 C 12.9 km/h
2461 05-03-2019 13:00:00 7.5 C 6.48 g/m*3 6.05 C 8.1 km/h
2462 05-03-2019 13:05:00 7.6 C 6.53 g/m*3 5.53 C 11.3 km/h
2463 05-03-2019 13:10:00 7.7 C 6.57 g/m*3 5.38 C 12.9 km/h
2464 05-03-2019 13:15:00 7.8 C 6.53 g/m*3 5.77 C 11.3 km/h
2465 05-03-2019 13:20:00 7.9 C 6.57 g/m*3 5.89 C 11.3 km/h
2466 05-03-2019 13:25:00 8 C 6.61 g/m*3 5.75 C 12.9 km/h
2467 05-03-2019 13:30:00 8.1 C 6.66 g/m*3 6.13 C 11.3 km/h
2468 05-03-2019 13:35:00 8.1 C 6.57 g/m*3 5.87 C 12.9 km/h
2469 05-03-2019 13:40:00 8.2 C 6.62 g/m*3 5.36 C 17.7 km/h
2470 05-03-2019 13:45:00 8.2 C 6.62 g/m*3 6.25 C 11.3 km/h
2471 05-03-2019 13:50:00 8.2 C 6.62 g/m*3 5.99 C 12.9 km/h
2472 05-03-2019 13:55:00 8.3 C 6.57 g/m*3 6.12 C 12.9 km/h
2473 05-03-2019 14:00:00 8.3 C 6.57 g/m*3 6.12 C 12.9 km/h
2474 05-03-2019 14:05:00 8.3 C 6.57 g/m*3 6.12 C 12.9 km/h
2475 05-03-2019 14:10:00 8.5 C 6.66 g/m*3 5.92 C 16.1 km/h
Sensor: Nr:Datum:Temp:Abs-Feuchte:Windchill:Wind:
Aussen-T/F 2476 05-03-2019 14:15:00 8.6 C 6.7 g/m*3 6.05 C 16.1 km/h
2477 05-03-2019 14:20:00 8.7 C 6.75 g/m*3 6.38 C 14.5 km/h
2478 05-03-2019 14:25:00 8.7 C 6.75 g/m*3 6.6 C 12.9 km/h
2479 05-03-2019 14:30:00 8.7 C 6.75 g/m*3 7.13 C 9.7 km/h
2480 05-03-2019 14:35:00 8.8 C 6.7 g/m*3 6.5 C 14.5 km/h
2481 05-03-2019 14:40:00 8.8 C 6.7 g/m*3 6.5 C 14.5 km/h
2482 05-03-2019 14:45:00 8.8 C 6.7 g/m*3 6.72 C 12.9 km/h
2483 05-03-2019 14:50:00 8.8 C 6.61 g/m*3 6.5 C 14.5 km/h
2484 05-03-2019 14:55:00 8.8 C 6.7 g/m*3 7.58 C 8.1 km/h
2485 05-03-2019 15:00:00 8.8 C 6.61 g/m*3 6.97 C 11.3 km/h
2486 05-03-2019 15:05:00 8.8 C 6.61 g/m*3 6.5 C 14.5 km/h
2487 05-03-2019 15:10:00 8.8 C 6.61 g/m*3 6.97 C 11.3 km/h
2488 05-03-2019 15:15:00 8.9 C 6.66 g/m*3 7.09 C 11.3 km/h
2489 05-03-2019 15:20:00 8.8 C 6.61 g/m*3 6.5 C 14.5 km/h
2490 05-03-2019 15:25:00 8.9 C 6.66 g/m*3 7.69 C 8.1 km/h
2491 05-03-2019 15:30:00 9 C 6.61 g/m*3 6.75 C 14.5 km/h
2492 05-03-2019 15:35:00 9.1 C 6.57 g/m*3 7.09 C 12.9 km/h
2493 05-03-2019 15:40:00 9.1 C 6.48 g/m*3 6.87 C 14.5 km/h
2494 05-03-2019 15:45:00 9.1 C 6.48 g/m*3 7.33 C 11.3 km/h
2495 05-03-2019 15:50:00 9.1 C 6.57 g/m*3 8.33 C 6.4 km/h
2496 05-03-2019 15:55:00 9.1 C 6.57 g/m*3 7.93 C 8.1 km/h
2497 05-03-2019 16:00:00 9.1 C 6.65 g/m*3 7.33 C 11.3 km/h
2498 05-03-2019 16:05:00 9.1 C 6.74 g/m*3 7.33 C 11.3 km/h
2499 05-03-2019 16:10:00 9.2 C 6.79 g/m*3 7.73 C 9.7 km/h
2500 05-03-2019 16:15:00 9.5 C 6.74 g/m*3 7.82 C 11.3 km/h
Sensor: Nr:Datum:Temp:Abs-Feuchte:Windchill:Wind:
Aussen-T/F 2501 05-03-2019 16:20:00 9.9 C 6.72 g/m*3 8.06 C 12.9 km/h
2502 05-03-2019 16:25:00 10.1 C 6.71 g/m*3 8.54 C 11.3 km/h
2503 05-03-2019 16:30:00 10.1 C 6.71 g/m*3 8.8 C 9.7 km/h
2504 05-03-2019 16:35:00 10.1 C 6.71 g/m*3 8.8 C 9.7 km/h
2505 05-03-2019 16:40:00 10.1 C 6.81 g/m*3 8.31 C 12.9 km/h
2506 05-03-2019 16:45:00 10.1 C 6.81 g/m*3 9.48 C 6.4 km/h
2507 05-03-2019 16:50:00 10.2 C 6.76 g/m*3 8.43 C 12.9 km/h
2508 05-03-2019 16:55:00 10.3 C 6.9 g/m*3 9.34 C 8.1 km/h
2509 05-03-2019 17:00:00 10.3 C 6.8 g/m*3 8.78 C 11.3 km/h
2510 05-03-2019 17:05:00 10.1 C 6.81 g/m*3 8.31 C 12.9 km/h
2511 05-03-2019 17:10:00 10.1 C 6.81 g/m*3 8.8 C 9.7 km/h
2512 05-03-2019 17:15:00 10.1 C 6.9 g/m*3 8.54 C 11.3 km/h
2513 05-03-2019 17:20:00 10 C 6.67 g/m*3 7.98 C 14.5 km/h
2514 05-03-2019 17:25:00 9.7 C 6.64 g/m*3 8.06 C 11.3 km/h
2515 05-03-2019 17:30:00 9.3 C 6.65 g/m*3 7.85 C 9.7 km/h
2516 05-03-2019 17:35:00 9.1 C 6.65 g/m*3 7.61 C 9.7 km/h
2517 05-03-2019 17:40:00 8.7 C 6.57 g/m*3 7.87 C 6.4 km/h
2518 05-03-2019 17:45:00 8.4 C 6.53 g/m*3 7.11 C 8.1 km/h
2519 05-03-2019 17:50:00 8.2 C 6.53 g/m*3 8.2 C 4.8 km/h
2520 05-03-2019 17:55:00 8.1 C 6.57 g/m*3 8.1 C 4.8 km/h
2521 05-03-2019 18:00:00 7.8 C 6.45 g/m*3 6.4 C 8.1 km/h
2522 05-03-2019 18:05:00 7.7 C 6.49 g/m*3 7.7 C 4.8 km/h
2523 05-03-2019 18:10:00 7.5 C 6.4 g/m*3 7.5 C 4.8 km/h
2524 05-03-2019 18:15:00 7.3 C 6.4 g/m*3 7.3 C 4.8 km/h
2525 05-03-2019 18:20:00 7.2 C 6.36 g/m*3 7.2 C 4.8 km/h
Sensor: Nr:Datum:Temp:Abs-Feuchte:Windchill:Wind:
Aussen-T/F 2526 05-03-2019 18:25:00 7.1 C 6.32 g/m*3 6.02 C 6.4 km/h
2527 05-03-2019 18:30:00 7 C 6.28 g/m*3 7 C 3.2 km/h
2528 05-03-2019 18:35:00 6.9 C 6.24 g/m*3 4.99 C 9.7 km/h
2529 05-03-2019 18:40:00 6.8 C 6.19 g/m*3 5.67 C 6.4 km/h
2530 05-03-2019 18:45:00 6.8 C 6.19 g/m*3 4.87 C 9.7 km/h
2531 05-03-2019 18:50:00 6.8 C 6.19 g/m*3 6.8 C 3.2 km/h
2532 05-03-2019 18:55:00 6.7 C 6.15 g/m*3 6.7 C 4.8 km/h
2533 05-03-2019 19:00:00 6.7 C 6.23 g/m*3 5.56 C 6.4 km/h
2534 05-03-2019 19:05:00 6.6 C 6.19 g/m*3 5.44 C 6.4 km/h
2535 05-03-2019 19:10:00 6.7 C 6.23 g/m*3 6.7 C 4.8 km/h
2536 05-03-2019 19:15:00 6.7 C 6.23 g/m*3 5.56 C 6.4 km/h
2537 05-03-2019 19:20:00 6.6 C 6.19 g/m*3 6.6 C 4.8 km/h
2538 05-03-2019 19:25:00 6.6 C 6.19 g/m*3 4.63 C 9.7 km/h
2539 05-03-2019 19:30:00 6.6 C 6.27 g/m*3 5.44 C 6.4 km/h
2540 05-03-2019 19:35:00 6.6 C 6.27 g/m*3 6.6 C 3.2 km/h
2541 05-03-2019 19:40:00 6.4 C 6.18 g/m*3 6.4 C 3.2 km/h
2542 05-03-2019 19:45:00 6.4 C 6.18 g/m*3 4.75 C 8.1 km/h
2543 05-03-2019 19:50:00 6.4 C 6.18 g/m*3 6.4 C 4.8 km/h
2544 05-03-2019 19:55:00 6.3 C 6.14 g/m*3 5.1 C 6.4 km/h
2545 05-03-2019 20:00:00 6.3 C 6.14 g/m*3 5.1 C 6.4 km/h
2546 05-03-2019 20:05:00 6.2 C 6.1 g/m*3 6.2 C 1.6 km/h
2547 05-03-2019 20:10:00 6 C 6.1 g/m*3 6 C 4.8 km/h
2548 05-03-2019 20:15:00 5.8 C 6.02 g/m*3 5.8 C 0 km/h
2549 05-03-2019 20:20:00 5.7 C 5.98 g/m*3 5.7 C 0 km/h
2550 05-03-2019 20:25:00 5.5 C 5.97 g/m*3 5.5 C 1.6 km/h
Sensor: Nr:Datum:Temp:Abs-Feuchte:Windchill:Wind:
Aussen-T/F 2551 05-03-2019 20:30:00 5.3 C 5.89 g/m*3 5.3 C 0 km/h
2552 05-03-2019 20:35:00 5.2 C 5.92 g/m*3 5.2 C 1.6 km/h
2553 05-03-2019 20:40:00 5.1 C 5.95 g/m*3 5.1 C 1.6 km/h
2554 05-03-2019 20:45:00 5 C 5.91 g/m*3 5 C 0 km/h
2555 05-03-2019 20:50:00 4.8 C 5.83 g/m*3 4.8 C 0 km/h
2556 05-03-2019 20:55:00 4.7 C 5.8 g/m*3 4.7 C 0 km/h
2557 05-03-2019 21:00:00 4.6 C 5.76 g/m*3 4.6 C 0 km/h
2558 05-03-2019 21:05:00 4.4 C 5.75 g/m*3 4.4 C 0 km/h
2559 05-03-2019 21:10:00 4.3 C 5.71 g/m*3 4.3 C 0 km/h
2560 05-03-2019 21:15:00 4.2 C 5.67 g/m*3 4.2 C 0 km/h
2561 05-03-2019 21:20:00 4.2 C 5.73 g/m*3 4.2 C 0 km/h
2562 05-03-2019 21:25:00 4.2 C 5.8 g/m*3 4.2 C 0 km/h
2563 05-03-2019 21:30:00 4.2 C 5.8 g/m*3 4.2 C 0 km/h
2564 05-03-2019 21:35:00 4.2 C 5.8 g/m*3 4.2 C 0 km/h
2565 05-03-2019 21:40:00 4.2 C 5.86 g/m*3 4.2 C 3.2 km/h
2566 05-03-2019 21:45:00 4.2 C 5.86 g/m*3 4.2 C 3.2 km/h
2567 05-03-2019 21:50:00 4.3 C 5.9 g/m*3 4.3 C 1.6 km/h
2568 05-03-2019 21:55:00 4.3 C 5.9 g/m*3 4.3 C 0 km/h
2569 05-03-2019 22:00:00 4.3 C 5.97 g/m*3 4.3 C 0 km/h
2570 05-03-2019 22:05:00 4.4 C 6.01 g/m*3 4.4 C 0 km/h
2571 05-03-2019 22:10:00 4.6 C 6.09 g/m*3 4.6 C 0 km/h
2572 05-03-2019 22:15:00 4.7 C 6.13 g/m*3 4.7 C 0 km/h
2573 05-03-2019 22:20:00 4.7 C 6.13 g/m*3 4.7 C 0 km/h
2574 05-03-2019 22:25:00 4.8 C 6.17 g/m*3 4.8 C 0 km/h
2575 05-03-2019 22:30:00 4.8 C 6.17 g/m*3 4.8 C 0 km/h
Sensor: Nr:Datum:Temp:Abs-Feuchte:Windchill:Wind:
Aussen-T/F 2576 05-03-2019 22:35:00 4.8 C 6.17 g/m*3 4.8 C 0 km/h
2577 05-03-2019 22:40:00 4.8 C 6.17 g/m*3 4.8 C 0 km/h
2578 05-03-2019 22:45:00 4.8 C 6.17 g/m*3 4.8 C 0 km/h
2579 05-03-2019 22:50:00 4.9 C 6.21 g/m*3 4.9 C 3.2 km/h
2580 05-03-2019 22:55:00 4.9 C 6.21 g/m*3 4.9 C 0 km/h
2581 05-03-2019 23:00:00 4.9 C 6.21 g/m*3 4.9 C 0 km/h
2582 05-03-2019 23:05:00 5 C 6.25 g/m*3 5 C 0 km/h
2583 05-03-2019 23:10:00 5.1 C 6.29 g/m*3 5.1 C 0 km/h
2584 05-03-2019 23:15:00 5.2 C 6.33 g/m*3 5.2 C 0 km/h
2585 05-03-2019 23:20:00 5.2 C 6.33 g/m*3 5.2 C 0 km/h
2586 05-03-2019 23:25:00 5.3 C 6.38 g/m*3 5.3 C 0 km/h
2587 05-03-2019 23:30:00 5.4 C 6.42 g/m*3 5.4 C 0 km/h
2588 05-03-2019 23:35:00 5.4 C 6.42 g/m*3 5.4 C 0 km/h
2589 05-03-2019 23:40:00 5.4 C 6.42 g/m*3 5.4 C 0 km/h
2590 05-03-2019 23:45:00 5.4 C 6.42 g/m*3 5.4 C 0 km/h
2591 05-03-2019 23:50:00 5.4 C 6.42 g/m*3 5.4 C 0 km/h
2592 05-03-2019 23:55:00 5.5 C 6.46 g/m*3 5.5 C 0 km/h
2593 06-03-2019 00:00:00 5.5 C 6.46 g/m*3 5.5 C 0 km/h
2594 06-03-2019 00:05:00 5.5 C 6.46 g/m*3 5.5 C 1.6 km/h
2595 06-03-2019 00:10:00 5.5 C 6.46 g/m*3 5.5 C 0 km/h
2596 06-03-2019 00:15:00 5.6 C 6.5 g/m*3 5.6 C 0 km/h
2597 06-03-2019 00:20:00 5.6 C 6.5 g/m*3 5.6 C 0 km/h
2598 06-03-2019 00:25:00 5.6 C 6.5 g/m*3 5.6 C 0 km/h
2599 06-03-2019 00:30:00 5.7 C 6.48 g/m*3 5.7 C 3.2 km/h
2600 06-03-2019 00:35:00 5.7 C 6.48 g/m*3 5.7 C 3.2 km/h
Sensor: Nr:Datum:Temp:Abs-Feuchte:Windchill:Wind:
Aussen-T/F 2601 06-03-2019 00:40:00 5.7 C 6.48 g/m*3 5.7 C 0 km/h
2602 06-03-2019 00:45:00 5.7 C 6.48 g/m*3 5.7 C 0 km/h
2603 06-03-2019 00:50:00 5.8 C 6.59 g/m*3 5.8 C 0 km/h
2604 06-03-2019 00:55:00 5.9 C 6.63 g/m*3 5.9 C 0 km/h
2605 06-03-2019 01:00:00 5.9 C 6.63 g/m*3 5.9 C 0 km/h
2606 06-03-2019 01:05:00 6.1 C 6.72 g/m*3 6.1 C 0 km/h
2607 06-03-2019 01:10:00 6.1 C 6.72 g/m*3 6.1 C 1.6 km/h
2608 06-03-2019 01:15:00 6.1 C 6.65 g/m*3 6.1 C 0 km/h
2609 06-03-2019 01:20:00 6.1 C 6.65 g/m*3 6.1 C 0 km/h
2610 06-03-2019 01:25:00 6.1 C 6.65 g/m*3 6.1 C 0 km/h
2611 06-03-2019 01:30:00 6.1 C 6.65 g/m*3 6.1 C 0 km/h
2612 06-03-2019 01:35:00 6.1 C 6.65 g/m*3 6.1 C 0 km/h
2613 06-03-2019 01:40:00 6.1 C 6.72 g/m*3 6.1 C 0 km/h
2614 06-03-2019 01:45:00 6.2 C 6.77 g/m*3 6.2 C 0 km/h
2615 06-03-2019 01:50:00 6.4 C 6.85 g/m*3 6.4 C 0 km/h
2616 06-03-2019 01:55:00 6.5 C 6.9 g/m*3 6.5 C 3.2 km/h
2617 06-03-2019 02:00:00 6.7 C 6.91 g/m*3 6.7 C 4.8 km/h
2618 06-03-2019 02:05:00 6.8 C 6.96 g/m*3 6.8 C 1.6 km/h
2619 06-03-2019 02:10:00 6.8 C 6.96 g/m*3 5.67 C 6.4 km/h
2620 06-03-2019 02:15:00 6.9 C 6.93 g/m*3 5.79 C 6.4 km/h
2621 06-03-2019 02:20:00 7 C 6.97 g/m*3 5.9 C 6.4 km/h
2622 06-03-2019 02:25:00 7.1 C 7.02 g/m*3 7.1 C 1.6 km/h
2623 06-03-2019 02:30:00 7.1 C 7.02 g/m*3 7.1 C 1.6 km/h
2624 06-03-2019 02:35:00 7.2 C 6.99 g/m*3 7.2 C 3.2 km/h
2625 06-03-2019 02:40:00 7.2 C 6.99 g/m*3 7.2 C 3.2 km/h
Sensor: Nr:Datum:Temp:Abs-Feuchte:Windchill:Wind:
Aussen-T/F 2626 06-03-2019 02:45:00 7.2 C 6.99 g/m*3 7.2 C 3.2 km/h
2627 06-03-2019 02:50:00 7.2 C 6.99 g/m*3 7.2 C 3.2 km/h
2628 06-03-2019 02:55:00 7.2 C 6.99 g/m*3 7.2 C 0 km/h
2629 06-03-2019 03:00:00 7.2 C 6.99 g/m*3 7.2 C 3.2 km/h
2630 06-03-2019 03:05:00 7.2 C 6.99 g/m*3 7.2 C 0 km/h
2631 06-03-2019 03:10:00 7.2 C 6.99 g/m*3 7.2 C 0 km/h
2632 06-03-2019 03:15:00 7.1 C 6.94 g/m*3 7.1 C 0 km/h
2633 06-03-2019 03:20:00 7.1 C 6.94 g/m*3 7.1 C 0 km/h
2634 06-03-2019 03:25:00 7 C 6.9 g/m*3 7 C 0 km/h
2635 06-03-2019 03:30:00 6.9 C 6.93 g/m*3 6.9 C 0 km/h
2636 06-03-2019 03:35:00 6.9 C 6.93 g/m*3 6.9 C 0 km/h
2637 06-03-2019 03:40:00 6.9 C 6.93 g/m*3 6.9 C 0 km/h
2638 06-03-2019 03:45:00 6.9 C 6.93 g/m*3 6.9 C 0 km/h
2639 06-03-2019 03:50:00 6.8 C 6.88 g/m*3 6.8 C 0 km/h
2640 06-03-2019 03:55:00 6.8 C 6.88 g/m*3 6.8 C 0 km/h
2641 06-03-2019 04:00:00 6.8 C 6.96 g/m*3 6.8 C 0 km/h
2642 06-03-2019 04:05:00 6.8 C 6.96 g/m*3 6.8 C 0 km/h
2643 06-03-2019 04:10:00 6.8 C 6.96 g/m*3 6.8 C 0 km/h
2644 06-03-2019 04:15:00 6.8 C 6.96 g/m*3 6.8 C 0 km/h
2645 06-03-2019 04:20:00 6.7 C 6.91 g/m*3 6.7 C 0 km/h
2646 06-03-2019 04:25:00 6.7 C 6.91 g/m*3 6.7 C 0 km/h
2647 06-03-2019 04:30:00 6.6 C 6.87 g/m*3 6.6 C 3.2 km/h
2648 06-03-2019 04:35:00 6.7 C 6.91 g/m*3 5.11 C 8.1 km/h
2649 06-03-2019 04:40:00 6.8 C 7.04 g/m*3 6.8 C 4.8 km/h
2650 06-03-2019 04:45:00 6.9 C 7.01 g/m*3 6.9 C 4.8 km/h
Sensor: Nr:Datum:Temp:Abs-Feuchte:Windchill:Wind:
Aussen-T/F 2651 06-03-2019 04:50:00 7.1 C 7.1 g/m*3 7.1 C 4.8 km/h
2652 06-03-2019 04:55:00 7.1 C 7.02 g/m*3 6.02 C 6.4 km/h
2653 06-03-2019 05:00:00 7.2 C 7.06 g/m*3 5.69 C 8.1 km/h
2654 06-03-2019 05:05:00 7.2 C 7.06 g/m*3 4.77 C 12.9 km/h
2655 06-03-2019 05:10:00 7.3 C 7.11 g/m*3 4.9 C 12.9 km/h
2656 06-03-2019 05:15:00 7.3 C 7.03 g/m*3 7.3 C 4.8 km/h
2657 06-03-2019 05:20:00 7.3 C 7.03 g/m*3 5.81 C 8.1 km/h
2658 06-03-2019 05:25:00 7.3 C 7.03 g/m*3 7.3 C 4.8 km/h
2659 06-03-2019 05:30:00 7.2 C 6.99 g/m*3 6.13 C 6.4 km/h
2660 06-03-2019 05:35:00 7.2 C 6.99 g/m*3 7.2 C 3.2 km/h
2661 06-03-2019 05:40:00 7.1 C 6.94 g/m*3 7.1 C 4.8 km/h
2662 06-03-2019 05:45:00 7.1 C 6.94 g/m*3 7.1 C 4.8 km/h
2663 06-03-2019 05:50:00 7 C 6.9 g/m*3 5.9 C 6.4 km/h
2664 06-03-2019 05:55:00 6.9 C 6.85 g/m*3 6.9 C 0 km/h
2665 06-03-2019 06:00:00 6.8 C 6.81 g/m*3 6.8 C 1.6 km/h
2666 06-03-2019 06:05:00 6.8 C 6.88 g/m*3 4.56 C 11.3 km/h
2667 06-03-2019 06:10:00 6.8 C 6.88 g/m*3 6.8 C 4.8 km/h
2668 06-03-2019 06:15:00 6.8 C 6.88 g/m*3 6.8 C 0 km/h
2669 06-03-2019 06:20:00 6.7 C 6.76 g/m*3 6.7 C 1.6 km/h
2670 06-03-2019 06:25:00 6.6 C 6.72 g/m*3 6.6 C 1.6 km/h
2671 06-03-2019 06:30:00 6.4 C 6.63 g/m*3 6.4 C 0 km/h
2672 06-03-2019 06:35:00 6.2 C 6.55 g/m*3 6.2 C 0 km/h
2673 06-03-2019 06:40:00 6 C 6.46 g/m*3 6 C 1.6 km/h
2674 06-03-2019 06:45:00 5.9 C 6.49 g/m*3 5.9 C 3.2 km/h
2675 06-03-2019 06:50:00 5.9 C 6.56 g/m*3 5.9 C 4.8 km/h
Sensor: Nr:Datum:Temp:Abs-Feuchte:Windchill:Wind:
Aussen-T/F 2676 06-03-2019 06:55:00 6 C 6.6 g/m*3 6 C 1.6 km/h
2677 06-03-2019 07:00:00 5.9 C 6.49 g/m*3 5.9 C 1.6 km/h
2678 06-03-2019 07:05:00 5.8 C 6.45 g/m*3 5.8 C 0 km/h
2679 06-03-2019 07:10:00 5.6 C 6.36 g/m*3 5.6 C 1.6 km/h
2680 06-03-2019 07:15:00 5.4 C 6.28 g/m*3 5.4 C 1.6 km/h
2681 06-03-2019 07:20:00 5.4 C 6.35 g/m*3 5.4 C 1.6 km/h
2682 06-03-2019 07:25:00 5.3 C 6.31 g/m*3 5.3 C 1.6 km/h
2683 06-03-2019 07:30:00 5.3 C 6.38 g/m*3 5.3 C 0 km/h
2684 06-03-2019 07:35:00 5.3 C 6.38 g/m*3 5.3 C 0 km/h
2685 06-03-2019 07:40:00 5.3 C 6.38 g/m*3 5.3 C 1.6 km/h
2686 06-03-2019 07:45:00 5.3 C 6.38 g/m*3 5.3 C 1.6 km/h
2687 06-03-2019 07:50:00 5.3 C 6.38 g/m*3 5.3 C 1.6 km/h
2688 06-03-2019 07:55:00 5.4 C 6.49 g/m*3 5.4 C 1.6 km/h
2689 06-03-2019 08:00:00 5.4 C 6.49 g/m*3 5.4 C 3.2 km/h
2690 06-03-2019 08:05:00 5.6 C 6.57 g/m*3 5.6 C 0 km/h
2691 06-03-2019 08:10:00 5.8 C 6.66 g/m*3 5.8 C 1.6 km/h
2692 06-03-2019 08:15:00 5.9 C 6.71 g/m*3 5.9 C 0 km/h
2693 06-03-2019 08:20:00 6.1 C 6.79 g/m*3 6.1 C 1.6 km/h
2694 06-03-2019 08:25:00 6.3 C 6.81 g/m*3 6.3 C 1.6 km/h
2695 06-03-2019 08:30:00 6.5 C 6.82 g/m*3 6.5 C 4.8 km/h
2696 06-03-2019 08:35:00 6.7 C 6.91 g/m*3 6.7 C 4.8 km/h
2697 06-03-2019 08:40:00 6.9 C 6.93 g/m*3 6.9 C 4.8 km/h
2698 06-03-2019 08:45:00 7.2 C 6.91 g/m*3 7.2 C 4.8 km/h
2699 06-03-2019 08:50:00 7.3 C 6.95 g/m*3 7.3 C 4.8 km/h
2700 06-03-2019 08:55:00 7.5 C 6.96 g/m*3 7.5 C 3.2 km/h
Sensor: Nr:Datum:Temp:Abs-Feuchte:Windchill:Wind:
Aussen-T/F 2701 06-03-2019 09:00:00 7.6 C 6.93 g/m*3 7.6 C 4.8 km/h
2702 06-03-2019 09:05:00 7.7 C 6.97 g/m*3 7.7 C 4.8 km/h
2703 06-03-2019 09:10:00 7.8 C 7.02 g/m*3 6.83 C 6.4 km/h
2704 06-03-2019 09:15:00 7.9 C 6.98 g/m*3 7.9 C 4.8 km/h
2705 06-03-2019 09:20:00 8 C 7.03 g/m*3 8 C 4.8 km/h
2706 06-03-2019 09:25:00 8.1 C 7.07 g/m*3 8.1 C 0 km/h
2707 06-03-2019 09:30:00 8.2 C 7.03 g/m*3 8.2 C 0 km/h
2708 06-03-2019 09:35:00 8.3 C 7.08 g/m*3 8.3 C 0 km/h
2709 06-03-2019 09:40:00 8.4 C 7.04 g/m*3 8.4 C 0 km/h
2710 06-03-2019 09:45:00 8.5 C 7.09 g/m*3 8.5 C 3.2 km/h
2711 06-03-2019 09:50:00 8.6 C 7.13 g/m*3 8.6 C 0 km/h
2712 06-03-2019 09:55:00 8.8 C 7.14 g/m*3 8.8 C 3.2 km/h
2713 06-03-2019 10:00:00 8.9 C 7.18 g/m*3 8.9 C 0 km/h
2714 06-03-2019 10:05:00 9.2 C 7.23 g/m*3 9.2 C 0 km/h
2715 06-03-2019 10:10:00 9.3 C 7.19 g/m*3 9.3 C 0 km/h
2716 06-03-2019 10:15:00 9.6 C 7.24 g/m*3 9.6 C 3.2 km/h
2717 06-03-2019 10:20:00 9.7 C 7.19 g/m*3 9.7 C 1.6 km/h
2718 06-03-2019 10:25:00 9.9 C 7.19 g/m*3 9.9 C 1.6 km/h
2719 06-03-2019 10:30:00 10.2 C 7.23 g/m*3 10.2 C 4.8 km/h
2720 06-03-2019 10:35:00 10.4 C 7.04 g/m*3 9.16 C 9.7 km/h
2721 06-03-2019 10:40:00 10.6 C 7.12 g/m*3 9.69 C 8.1 km/h
2722 06-03-2019 10:45:00 10.7 C 7.17 g/m*3 9.81 C 8.1 km/h
2723 06-03-2019 10:50:00 10.8 C 7.12 g/m*3 10.8 C 4.8 km/h
2724 06-03-2019 10:55:00 10.8 C 7.12 g/m*3 10.29 C 6.4 km/h
2725 06-03-2019 11:00:00 10.9 C 7.06 g/m*3 10.9 C 4.8 km/h
Sensor: Nr:Datum:Temp:Abs-Feuchte:Windchill:Wind:
Aussen-T/F 2726 06-03-2019 11:05:00 11.1 C 7.05 g/m*3 11.1 C 3.2 km/h
2727 06-03-2019 11:10:00 11.3 C 7.04 g/m*3 11.3 C 6.4 km/h
2728 06-03-2019 11:15:00 11.6 C 7.07 g/m*3 11.6 C 8.1 km/h
2729 06-03-2019 11:20:00 11.8 C 7.05 g/m*3 11.8 C 6.4 km/h
2730 06-03-2019 11:25:00 12.1 C 7.08 g/m*3 12.1 C 8.1 km/h
2731 06-03-2019 11:30:00 12.4 C 7.1 g/m*3 12.4 C 6.4 km/h
2732 06-03-2019 11:35:00 12.7 C 7.12 g/m*3 12.7 C 6.4 km/h
2733 06-03-2019 11:40:00 13 C 7.03 g/m*3 13 C 8.1 km/h
2734 06-03-2019 11:45:00 13.3 C 7.05 g/m*3 13.3 C 4.8 km/h
2735 06-03-2019 11:50:00 13.5 C 7.25 g/m*3 13.5 C 16.1 km/h
2736 06-03-2019 11:55:00 13.6 C 7.06 g/m*3 13.6 C 8.1 km/h
2737 06-03-2019 12:00:00 13.6 C 6.94 g/m*3 13.6 C 11.3 km/h
2738 06-03-2019 12:05:00 13.5 C 6.78 g/m*3 13.5 C 8.1 km/h
2739 06-03-2019 12:10:00 13.4 C 6.86 g/m*3 13.4 C 8.1 km/h
2740 06-03-2019 12:15:00 13.4 C 6.86 g/m*3 13.4 C 8.1 km/h
2741 06-03-2019 12:20:00 13.3 C 6.7 g/m*3 13.3 C 3.2 km/h
2742 06-03-2019 12:25:00 13.4 C 6.97 g/m*3 13.4 C 3.2 km/h
2743 06-03-2019 12:30:00 13.3 C 6.7 g/m*3 13.3 C 8.1 km/h
2744 06-03-2019 12:35:00 13.2 C 6.77 g/m*3 13.2 C 8.1 km/h
2745 06-03-2019 12:40:00 13.2 C 6.77 g/m*3 13.2 C 6.4 km/h
2746 06-03-2019 12:45:00 13.2 C 6.77 g/m*3 13.2 C 6.4 km/h
2747 06-03-2019 12:50:00 13.1 C 6.96 g/m*3 13.1 C 6.4 km/h
2748 06-03-2019 12:55:00 13.2 C 7.12 g/m*3 13.2 C 1.6 km/h
2749 06-03-2019 13:00:00 13.2 C 7 g/m*3 13.2 C 4.8 km/h
2750 06-03-2019 13:05:00 13.2 C 6.77 g/m*3 13.2 C 6.4 km/h
Sensor: Nr:Datum:Temp:Abs-Feuchte:Windchill:Wind:
Aussen-T/F 2751 06-03-2019 13:10:00 13.3 C 6.93 g/m*3 13.3 C 8.1 km/h
2752 06-03-2019 13:15:00 13.3 C 7.28 g/m*3 13.3 C 1.6 km/h
2753 06-03-2019 13:20:00 13.4 C 7.09 g/m*3 13.4 C 6.4 km/h
2754 06-03-2019 13:25:00 13.4 C 6.97 g/m*3 13.4 C 6.4 km/h
2755 06-03-2019 13:30:00 13.4 C 7.09 g/m*3 13.4 C 0 km/h
2756 06-03-2019 13:35:00 13.4 C 6.97 g/m*3 13.4 C 6.4 km/h
2757 06-03-2019 13:40:00 13.4 C 7.21 g/m*3 13.4 C 6.4 km/h
2758 06-03-2019 13:45:00 13.4 C 6.97 g/m*3 13.4 C 6.4 km/h
2759 06-03-2019 13:50:00 13.5 C 7.25 g/m*3 13.5 C 3.2 km/h
2760 06-03-2019 13:55:00 13.6 C 7.41 g/m*3 13.6 C 8.1 km/h
2761 06-03-2019 14:00:00 13.6 C 7.41 g/m*3 13.6 C 3.2 km/h
2762 06-03-2019 14:05:00 13.6 C 7.18 g/m*3 13.6 C 4.8 km/h
2763 06-03-2019 14:10:00 13.6 C 7.3 g/m*3 13.6 C 4.8 km/h
2764 06-03-2019 14:15:00 13.5 C 7.25 g/m*3 13.5 C 0 km/h
2765 06-03-2019 14:20:00 13.5 C 7.25 g/m*3 13.5 C 0 km/h
2766 06-03-2019 14:25:00 13.5 C 7.25 g/m*3 13.5 C 0 km/h
2767 06-03-2019 14:30:00 13.5 C 7.25 g/m*3 13.5 C 0 km/h
2768 06-03-2019 14:35:00 13.6 C 7.41 g/m*3 13.6 C 6.4 km/h
2769 06-03-2019 14:40:00 13.8 C 7.39 g/m*3 13.8 C 3.2 km/h
2770 06-03-2019 14:45:00 13.9 C 7.31 g/m*3 13.9 C 0 km/h
2771 06-03-2019 14:50:00 14.1 C 7.4 g/m*3 14.1 C 3.2 km/h
2772 06-03-2019 14:55:00 14.2 C 7.33 g/m*3 14.2 C 6.4 km/h
2773 06-03-2019 15:00:00 14.3 C 7.37 g/m*3 14.3 C 4.8 km/h
2774 06-03-2019 15:05:00 14.4 C 7.54 g/m*3 14.4 C 1.6 km/h
2775 06-03-2019 15:10:00 14.4 C 7.42 g/m*3 14.4 C 3.2 km/h
Sensor: Nr:Datum:Temp:Abs-Feuchte:Windchill:Wind:
Aussen-T/F 2776 06-03-2019 15:15:00 14.5 C 7.46 g/m*3 14.5 C 3.2 km/h
2777 06-03-2019 15:20:00 14.6 C 7.38 g/m*3 14.6 C 3.2 km/h
2778 06-03-2019 15:25:00 14.6 C 7.26 g/m*3 14.6 C 1.6 km/h
2779 06-03-2019 15:30:00 14.6 C 7.13 g/m*3 14.6 C 4.8 km/h
2780 06-03-2019 15:35:00 14.6 C 7.38 g/m*3 14.6 C 1.6 km/h
2781 06-03-2019 15:40:00 14.7 C 7.43 g/m*3 14.7 C 4.8 km/h
2782 06-03-2019 15:45:00 14.7 C 7.3 g/m*3 14.7 C 9.7 km/h
2783 06-03-2019 15:50:00 14.7 C 7.3 g/m*3 14.7 C 3.2 km/h
2784 06-03-2019 15:55:00 14.7 C 7.05 g/m*3 14.7 C 4.8 km/h
2785 06-03-2019 16:00:00 14.8 C 6.97 g/m*3 14.8 C 6.4 km/h
2786 06-03-2019 16:05:00 15 C 6.92 g/m*3 15 C 3.2 km/h
2787 06-03-2019 16:10:00 15.1 C 7.22 g/m*3 15.1 C 6.4 km/h
2788 06-03-2019 16:15:00 15.2 C 7.27 g/m*3 15.2 C 8.1 km/h
2789 06-03-2019 16:20:00 15.2 C 7.14 g/m*3 15.2 C 1.6 km/h
2790 06-03-2019 16:25:00 15.3 C 7.18 g/m*3 15.3 C 1.6 km/h
2791 06-03-2019 16:30:00 15.4 C 6.96 g/m*3 15.4 C 4.8 km/h
2792 06-03-2019 16:35:00 15.4 C 7.09 g/m*3 15.4 C 0 km/h
2793 06-03-2019 16:40:00 15.4 C 7.36 g/m*3 15.4 C 6.4 km/h
2794 06-03-2019 16:45:00 15.4 C 8.15 g/m*3 15.4 C 1.6 km/h
2795 06-03-2019 16:50:00 15.2 C 8.31 g/m*3 15.2 C 4.8 km/h
2796 06-03-2019 16:55:00 14.9 C 8.79 g/m*3 14.9 C 4.8 km/h
2797 06-03-2019 17:00:00 14.6 C 8.76 g/m*3 14.6 C 1.6 km/h
2798 06-03-2019 17:05:00 14.3 C 8.72 g/m*3 14.3 C 0 km/h
2799 06-03-2019 17:10:00 14.1 C 8.62 g/m*3 14.1 C 0 km/h
2800 06-03-2019 17:15:00 13.9 C 8.63 g/m*3 13.9 C 1.6 km/h
Sensor: Nr:Datum:Temp:Abs-Feuchte:Windchill:Wind:
Aussen-T/F 2801 06-03-2019 17:20:00 13.8 C 8.1 g/m*3 13.8 C 4.8 km/h
2802 06-03-2019 17:25:00 13.7 C 7.93 g/m*3 13.7 C 3.2 km/h
2803 06-03-2019 17:30:00 13.8 C 7.86 g/m*3 13.8 C 3.2 km/h
2804 06-03-2019 17:35:00 13.8 C 7.86 g/m*3 13.8 C 4.8 km/h
2805 06-03-2019 17:40:00 13.8 C 7.86 g/m*3 13.8 C 6.4 km/h
2806 06-03-2019 17:45:00 13.8 C 7.98 g/m*3 13.8 C 3.2 km/h
2807 06-03-2019 17:50:00 13.8 C 7.98 g/m*3 13.8 C 3.2 km/h
2808 06-03-2019 17:55:00 13.8 C 8.1 g/m*3 13.8 C 9.7 km/h
2809 06-03-2019 18:00:00 13.7 C 8.17 g/m*3 13.7 C 3.2 km/h
2810 06-03-2019 18:05:00 13.6 C 8.24 g/m*3 13.6 C 3.2 km/h
2811 06-03-2019 18:10:00 13.4 C 8.14 g/m*3 13.4 C 4.8 km/h
2812 06-03-2019 18:15:00 13.3 C 8.09 g/m*3 13.3 C 4.8 km/h
2813 06-03-2019 18:20:00 13.2 C 8.15 g/m*3 13.2 C 3.2 km/h
2814 06-03-2019 18:25:00 13.1 C 8.33 g/m*3 13.1 C 4.8 km/h
2815 06-03-2019 18:30:00 12.9 C 8.34 g/m*3 12.9 C 6.4 km/h
2816 06-03-2019 18:35:00 12.7 C 8.24 g/m*3 12.7 C 1.6 km/h
2817 06-03-2019 18:40:00 12.6 C 8.3 g/m*3 12.6 C 6.4 km/h
2818 06-03-2019 18:45:00 12.6 C 8.19 g/m*3 12.6 C 3.2 km/h
2819 06-03-2019 18:50:00 12.5 C 8.25 g/m*3 12.5 C 4.8 km/h
2820 06-03-2019 18:55:00 12.5 C 8.36 g/m*3 12.5 C 4.8 km/h
2821 06-03-2019 19:00:00 12.4 C 8.41 g/m*3 12.4 C 4.8 km/h
2822 06-03-2019 19:05:00 12.2 C 8.52 g/m*3 12.2 C 3.2 km/h
2823 06-03-2019 19:10:00 12 C 8.21 g/m*3 12 C 3.2 km/h
2824 06-03-2019 19:15:00 12 C 8.42 g/m*3 12 C 0 km/h
2825 06-03-2019 19:20:00 11.9 C 8.58 g/m*3 11.9 C 0 km/h
Sensor: Nr:Datum:Temp:Abs-Feuchte:Windchill:Wind:
Aussen-T/F 2826 06-03-2019 19:25:00 11.7 C 8.58 g/m*3 11.7 C 0 km/h
2827 06-03-2019 19:30:00 11.5 C 8.47 g/m*3 11.5 C 0 km/h
2828 06-03-2019 19:35:00 11.4 C 8.52 g/m*3 11.4 C 0 km/h
2829 06-03-2019 19:40:00 11.3 C 8.47 g/m*3 11.3 C 4.8 km/h
2830 06-03-2019 19:45:00 11.3 C 8.57 g/m*3 11.3 C 3.2 km/h
2831 06-03-2019 19:50:00 11.2 C 8.51 g/m*3 11.2 C 0 km/h
2832 06-03-2019 19:55:00 11 C 8.41 g/m*3 11 C 3.2 km/h
2833 06-03-2019 20:00:00 11 C 8.41 g/m*3 11 C 3.2 km/h
2834 06-03-2019 20:05:00 10.9 C 8.36 g/m*3 10.9 C 0 km/h
2835 06-03-2019 20:10:00 10.9 C 8.36 g/m*3 10.9 C 0 km/h
2836 06-03-2019 20:15:00 10.8 C 8.4 g/m*3 10.8 C 0 km/h
2837 06-03-2019 20:20:00 10.7 C 8.35 g/m*3 10.7 C 0 km/h
2838 06-03-2019 20:25:00 10.6 C 8.3 g/m*3 10.6 C 0 km/h
2839 06-03-2019 20:30:00 10.6 C 8.3 g/m*3 10.6 C 0 km/h
2840 06-03-2019 20:35:00 10.6 C 8.3 g/m*3 10.6 C 0 km/h
2841 06-03-2019 20:40:00 10.5 C 8.24 g/m*3 10.5 C 0 km/h
2842 06-03-2019 20:45:00 10.4 C 8.19 g/m*3 10.4 C 0 km/h
2843 06-03-2019 20:50:00 10.4 C 8.19 g/m*3 10.4 C 0 km/h
2844 06-03-2019 20:55:00 10.4 C 8.29 g/m*3 10.4 C 1.6 km/h
2845 06-03-2019 21:00:00 10.4 C 8.19 g/m*3 10.4 C 3.2 km/h
2846 06-03-2019 21:05:00 10.6 C 8.2 g/m*3 10.6 C 1.6 km/h
2847 06-03-2019 21:10:00 10.7 C 8.35 g/m*3 10.7 C 0 km/h
2848 06-03-2019 21:15:00 10.7 C 8.25 g/m*3 10.7 C 0 km/h
2849 06-03-2019 21:20:00 10.7 C 8.25 g/m*3 10.7 C 0 km/h
2850 06-03-2019 21:25:00 10.7 C 8.25 g/m*3 10.7 C 0 km/h
Sensor: Nr:Datum:Temp:Abs-Feuchte:Windchill:Wind:
Aussen-T/F 2851 06-03-2019 21:30:00 10.8 C 8.2 g/m*3 10.8 C 0 km/h
2852 06-03-2019 21:35:00 10.8 C 8.3 g/m*3 10.8 C 0 km/h
2853 06-03-2019 21:40:00 10.7 C 8.25 g/m*3 10.7 C 0 km/h
2854 06-03-2019 21:45:00 10.7 C 8.25 g/m*3 10.7 C 0 km/h
2855 06-03-2019 21:50:00 10.7 C 8.25 g/m*3 10.7 C 0 km/h
2856 06-03-2019 21:55:00 10.6 C 8.2 g/m*3 10.6 C 0 km/h
2857 06-03-2019 22:00:00 10.6 C 8.3 g/m*3 10.6 C 0 km/h
2858 06-03-2019 22:05:00 10.6 C 8.2 g/m*3 10.6 C 1.6 km/h
2859 06-03-2019 22:10:00 10.6 C 8.3 g/m*3 10.6 C 1.6 km/h
2860 06-03-2019 22:15:00 10.6 C 8.2 g/m*3 10.6 C 4.8 km/h
2861 06-03-2019 22:20:00 10.7 C 8.25 g/m*3 10.7 C 0 km/h
2862 06-03-2019 22:25:00 10.7 C 8.25 g/m*3 10.7 C 0 km/h
2863 06-03-2019 22:30:00 10.7 C 8.25 g/m*3 10.7 C 1.6 km/h
2864 06-03-2019 22:35:00 10.7 C 8.25 g/m*3 10.7 C 1.6 km/h
2865 06-03-2019 22:40:00 10.7 C 8.25 g/m*3 10.7 C 1.6 km/h
2866 06-03-2019 22:45:00 10.7 C 8.25 g/m*3 10.7 C 0 km/h
2867 06-03-2019 22:50:00 10.7 C 8.25 g/m*3 10.7 C 0 km/h
2868 06-03-2019 22:55:00 10.7 C 8.25 g/m*3 10.7 C 3.2 km/h
2869 06-03-2019 23:00:00 10.7 C 8.25 g/m*3 10.7 C 4.8 km/h
2870 06-03-2019 23:05:00 10.8 C 8.3 g/m*3 10.8 C 0 km/h
2871 06-03-2019 23:10:00 10.8 C 8.3 g/m*3 10.8 C 4.8 km/h
2872 06-03-2019 23:15:00 10.8 C 8.2 g/m*3 10.8 C 0 km/h
2873 06-03-2019 23:20:00 10.9 C 8.06 g/m*3 10.9 C 3.2 km/h
2874 06-03-2019 23:25:00 11.1 C 8.16 g/m*3 11.1 C 1.6 km/h
2875 06-03-2019 23:30:00 11.2 C 8.11 g/m*3 11.2 C 1.6 km/h
Sensor: Nr:Datum:Temp:Abs-Feuchte:Windchill:Wind:
Aussen-T/F 2876 06-03-2019 23:35:00 11.4 C 8.21 g/m*3 11.4 C 4.8 km/h
2877 06-03-2019 23:40:00 11.5 C 8.26 g/m*3 11.5 C 6.4 km/h
2878 06-03-2019 23:45:00 11.6 C 8.21 g/m*3 11.6 C 11.3 km/h
2879 06-03-2019 23:50:00 11.7 C 8.26 g/m*3 11.7 C 3.2 km/h
2880 06-03-2019 23:55:00 11.6 C 8.42 g/m*3 11.6 C 0 km/h
2881 07-03-2019 00:00:00 11.4 C 8.31 g/m*3 11.4 C 4.8 km/h
2882 07-03-2019 00:05:00 11.3 C 8.36 g/m*3 11.3 C 0 km/h
2883 07-03-2019 00:10:00 11.1 C 8.36 g/m*3 11.1 C 3.2 km/h
2884 07-03-2019 00:15:00 11.1 C 8.36 g/m*3 11.1 C 3.2 km/h
2885 07-03-2019 00:20:00 11.1 C 8.26 g/m*3 11.1 C 1.6 km/h
2886 07-03-2019 00:25:00 11.2 C 8.41 g/m*3 11.2 C 1.6 km/h
2887 07-03-2019 00:30:00 11.2 C 8.51 g/m*3 11.2 C 3.2 km/h
2888 07-03-2019 00:35:00 11.1 C 8.56 g/m*3 11.1 C 1.6 km/h
2889 07-03-2019 00:40:00 10.9 C 8.45 g/m*3 10.9 C 4.8 km/h
2890 07-03-2019 00:45:00 10.8 C 8.4 g/m*3 10.8 C 3.2 km/h
2891 07-03-2019 00:50:00 10.7 C 8.35 g/m*3 10.18 C 6.4 km/h
2892 07-03-2019 00:55:00 10.8 C 8.5 g/m*3 10.29 C 6.4 km/h
2893 07-03-2019 01:00:00 10.8 C 8.5 g/m*3 10.8 C 3.2 km/h
2894 07-03-2019 01:05:00 10.8 C 8.5 g/m*3 10.8 C 4.8 km/h
2895 07-03-2019 01:10:00 10.9 C 8.55 g/m*3 10.9 C 3.2 km/h
2896 07-03-2019 01:15:00 10.9 C 8.65 g/m*3 10.9 C 3.2 km/h
2897 07-03-2019 01:20:00 11 C 8.71 g/m*3 11 C 1.6 km/h
2898 07-03-2019 01:25:00 11.1 C 8.76 g/m*3 11.1 C 1.6 km/h
2899 07-03-2019 01:30:00 11.1 C 8.76 g/m*3 11.1 C 0 km/h
2900 07-03-2019 01:35:00 11.1 C 8.86 g/m*3 11.1 C 3.2 km/h
Sensor: Nr:Datum:Temp:Abs-Feuchte:Windchill:Wind:
Aussen-T/F 2901 07-03-2019 01:40:00 11 C 8.81 g/m*3 11 C 1.6 km/h
2902 07-03-2019 01:45:00 10.9 C 8.85 g/m*3 10.9 C 1.6 km/h
2903 07-03-2019 01:50:00 10.8 C 8.8 g/m*3 10.8 C 0 km/h
2904 07-03-2019 01:55:00 10.8 C 8.9 g/m*3 10.8 C 3.2 km/h
2905 07-03-2019 02:00:00 10.7 C 8.94 g/m*3 10.7 C 1.6 km/h
2906 07-03-2019 02:05:00 10.6 C 8.88 g/m*3 10.6 C 0 km/h
2907 07-03-2019 02:10:00 10.4 C 8.77 g/m*3 10.4 C 1.6 km/h
2908 07-03-2019 02:15:00 10.3 C 8.71 g/m*3 10.3 C 0 km/h
2909 07-03-2019 02:20:00 10.1 C 8.61 g/m*3 10.1 C 0 km/h
2910 07-03-2019 02:25:00 9.9 C 8.5 g/m*3 9.9 C 0 km/h
2911 07-03-2019 02:30:00 9.8 C 8.44 g/m*3 9.8 C 0 km/h
2912 07-03-2019 02:35:00 9.7 C 8.48 g/m*3 9.7 C 1.6 km/h
2913 07-03-2019 02:40:00 9.7 C 8.48 g/m*3 9.7 C 0 km/h
2914 07-03-2019 02:45:00 9.7 C 8.57 g/m*3 9.7 C 1.6 km/h
2915 07-03-2019 02:50:00 9.7 C 8.57 g/m*3 9.7 C 0 km/h
2916 07-03-2019 02:55:00 9.7 C 8.57 g/m*3 9.7 C 0 km/h
2917 07-03-2019 03:00:00 9.7 C 8.57 g/m*3 9.7 C 0 km/h
2918 07-03-2019 03:05:00 9.7 C 8.57 g/m*3 9.7 C 0 km/h
2919 07-03-2019 03:10:00 9.7 C 8.57 g/m*3 9.7 C 0 km/h
2920 07-03-2019 03:15:00 9.6 C 8.52 g/m*3 9.6 C 0 km/h
2921 07-03-2019 03:20:00 9.6 C 8.52 g/m*3 9.6 C 3.2 km/h
2922 07-03-2019 03:25:00 9.6 C 8.52 g/m*3 9.6 C 0 km/h
2923 07-03-2019 03:30:00 9.6 C 8.52 g/m*3 9.6 C 3.2 km/h
2924 07-03-2019 03:35:00 9.6 C 8.43 g/m*3 9.6 C 4.8 km/h
2925 07-03-2019 03:40:00 9.5 C 8.37 g/m*3 9.5 C 1.6 km/h
Sensor: Nr:Datum:Temp:Abs-Feuchte:Windchill:Wind:
Aussen-T/F 2926 07-03-2019 03:45:00 9.5 C 8.37 g/m*3 9.5 C 0 km/h
2927 07-03-2019 03:50:00 9.4 C 8.32 g/m*3 9.4 C 0 km/h
2928 07-03-2019 03:55:00 9.5 C 8.37 g/m*3 9.5 C 3.2 km/h
2929 07-03-2019 04:00:00 9.6 C 8.43 g/m*3 9.6 C 4.8 km/h
2930 07-03-2019 04:05:00 9.7 C 8.39 g/m*3 9.02 C 6.4 km/h
2931 07-03-2019 04:10:00 9.8 C 8.35 g/m*3 9.8 C 0 km/h
2932 07-03-2019 04:15:00 9.9 C 8.4 g/m*3 9.9 C 3.2 km/h
2933 07-03-2019 04:20:00 10.1 C 8.42 g/m*3 10.1 C 4.8 km/h
2934 07-03-2019 04:25:00 10.2 C 8.47 g/m*3 10.2 C 4.8 km/h
2935 07-03-2019 04:30:00 10.2 C 8.37 g/m*3 10.2 C 1.6 km/h
2936 07-03-2019 04:35:00 10.3 C 8.43 g/m*3 10.3 C 1.6 km/h
2937 07-03-2019 04:40:00 10.3 C 8.43 g/m*3 10.3 C 3.2 km/h
2938 07-03-2019 04:45:00 10.2 C 8.28 g/m*3 10.2 C 3.2 km/h
2939 07-03-2019 04:50:00 10.3 C 8.24 g/m*3 9.72 C 6.4 km/h
2940 07-03-2019 04:55:00 10.4 C 8.19 g/m*3 10.4 C 1.6 km/h
2941 07-03-2019 05:00:00 10.4 C 8.19 g/m*3 9.46 C 8.1 km/h
2942 07-03-2019 05:05:00 10.6 C 8.2 g/m*3 9.69 C 8.1 km/h
2943 07-03-2019 05:10:00 10.8 C 8.2 g/m*3 10.8 C 4.8 km/h
2944 07-03-2019 05:15:00 10.9 C 8.16 g/m*3 10.04 C 8.1 km/h
2945 07-03-2019 05:20:00 11.3 C 8.26 g/m*3 11.3 C 11.3 km/h
2946 07-03-2019 05:25:00 11.6 C 8.32 g/m*3 11.6 C 16.1 km/h
2947 07-03-2019 05:30:00 11.7 C 8.16 g/m*3 11.7 C 16.1 km/h
2948 07-03-2019 05:35:00 11.8 C 8.21 g/m*3 11.8 C 6.4 km/h
2949 07-03-2019 05:40:00 11.9 C 8.15 g/m*3 11.9 C 4.8 km/h
2950 07-03-2019 05:45:00 12 C 8.21 g/m*3 12 C 9.7 km/h
Sensor: Nr:Datum:Temp:Abs-Feuchte:Windchill:Wind:
Aussen-T/F 2951 07-03-2019 05:50:00 12.2 C 8.2 g/m*3 12.2 C 9.7 km/h
2952 07-03-2019 05:55:00 12.2 C 8.09 g/m*3 12.2 C 9.7 km/h
2953 07-03-2019 06:00:00 12.3 C 8.14 g/m*3 12.3 C 4.8 km/h
2954 07-03-2019 06:05:00 12.3 C 8.14 g/m*3 12.3 C 9.7 km/h
2955 07-03-2019 06:10:00 12.3 C 8.14 g/m*3 12.3 C 12.9 km/h
2956 07-03-2019 06:15:00 12.2 C 7.99 g/m*3 12.2 C 16.1 km/h
2957 07-03-2019 06:20:00 12.2 C 7.99 g/m*3 12.2 C 29 km/h
2958 07-03-2019 06:25:00 12.1 C 7.83 g/m*3 12.1 C 20.9 km/h
2959 07-03-2019 06:30:00 12.1 C 7.83 g/m*3 12.1 C 16.1 km/h
2960 07-03-2019 06:35:00 11.9 C 7.73 g/m*3 11.9 C 17.7 km/h
2961 07-03-2019 06:40:00 11.9 C 7.73 g/m*3 11.9 C 22.5 km/h
2962 07-03-2019 06:45:00 11.8 C 7.79 g/m*3 11.8 C 20.9 km/h
2963 07-03-2019 06:50:00 11.8 C 7.79 g/m*3 11.8 C 17.7 km/h
2964 07-03-2019 06:55:00 11.8 C 7.79 g/m*3 11.8 C 17.7 km/h
2965 07-03-2019 07:00:00 11.7 C 7.74 g/m*3 11.7 C 16.1 km/h
2966 07-03-2019 07:05:00 11.6 C 7.8 g/m*3 11.6 C 27.4 km/h
2967 07-03-2019 07:10:00 11.6 C 7.8 g/m*3 11.6 C 20.9 km/h
2968 07-03-2019 07:15:00 11.6 C 7.8 g/m*3 11.6 C 22.5 km/h
2969 07-03-2019 07:20:00 11.5 C 7.64 g/m*3 11.5 C 24.1 km/h
2970 07-03-2019 07:25:00 11.4 C 7.6 g/m*3 11.4 C 33.8 km/h
2971 07-03-2019 07:30:00 11.4 C 7.6 g/m*3 11.4 C 22.5 km/h
2972 07-03-2019 07:35:00 11.2 C 7.5 g/m*3 11.2 C 30.6 km/h
2973 07-03-2019 07:40:00 11.1 C 7.45 g/m*3 11.1 C 24.1 km/h
2974 07-03-2019 07:45:00 11 C 7.41 g/m*3 8.7 C 19.3 km/h
2975 07-03-2019 07:50:00 10.9 C 7.36 g/m*3 8.17 C 24.1 km/h
Sensor: Nr:Datum:Temp:Abs-Feuchte:Windchill:Wind:
Aussen-T/F 2976 07-03-2019 07:55:00 10.9 C 7.36 g/m*3 7.81 C 29 km/h
2977 07-03-2019 08:00:00 10.8 C 7.31 g/m*3 8.45 C 19.3 km/h
2978 07-03-2019 08:05:00 10.8 C 7.31 g/m*3 8.17 C 22.5 km/h
2979 07-03-2019 08:10:00 10.8 C 7.41 g/m*3 8.78 C 16.1 km/h
2980 07-03-2019 08:15:00 10.7 C 7.37 g/m*3 7.79 C 25.7 km/h
2981 07-03-2019 08:20:00 10.7 C 7.37 g/m*3 8.32 C 19.3 km/h
2982 07-03-2019 08:25:00 10.7 C 7.46 g/m*3 7.79 C 25.7 km/h
2983 07-03-2019 08:30:00 10.7 C 7.46 g/m*3 7.66 C 27.4 km/h
2984 07-03-2019 08:35:00 10.6 C 7.42 g/m*3 8.2 C 19.3 km/h
2985 07-03-2019 08:40:00 10.6 C 7.52 g/m*3 7.78 C 24.1 km/h
2986 07-03-2019 08:45:00 10.6 C 7.61 g/m*3 7.12 C 33.8 km/h
2987 07-03-2019 08:50:00 10.6 C 7.52 g/m*3 7.78 C 24.1 km/h
2988 07-03-2019 08:55:00 10.7 C 7.66 g/m*3 7.79 C 25.7 km/h
2989 07-03-2019 09:00:00 10.7 C 7.76 g/m*3 8.04 C 22.5 km/h
2990 07-03-2019 09:05:00 10.6 C 7.81 g/m*3 7.66 C 25.7 km/h
2991 07-03-2019 09:10:00 10.4 C 7.81 g/m*3 7.95 C 19.3 km/h
2992 07-03-2019 09:15:00 10.2 C 7.8 g/m*3 7.4 C 22.5 km/h
2993 07-03-2019 09:20:00 10.1 C 7.94 g/m*3 7.14 C 24.1 km/h
2994 07-03-2019 09:25:00 9.9 C 7.94 g/m*3 6.89 C 24.1 km/h
2995 07-03-2019 09:30:00 9.8 C 7.89 g/m*3 7.04 C 20.9 km/h
2996 07-03-2019 09:35:00 9.7 C 7.74 g/m*3 6.37 C 27.4 km/h
2997 07-03-2019 09:40:00 9.8 C 7.79 g/m*3 7.04 C 20.9 km/h
2998 07-03-2019 09:45:00 9.8 C 7.7 g/m*3 7.04 C 20.9 km/h
2999 07-03-2019 09:50:00 9.9 C 7.75 g/m*3 7.02 C 22.5 km/h
3000 07-03-2019 09:55:00 9.9 C 7.66 g/m*3 6.89 C 24.1 km/h
Sensor: Nr:Datum:Temp:Abs-Feuchte:Windchill:Wind:
Aussen-T/F 3001 07-03-2019 10:00:00 10 C 7.71 g/m*3 7.15 C 22.5 km/h
3002 07-03-2019 10:05:00 10.1 C 7.66 g/m*3 6.89 C 27.4 km/h
3003 07-03-2019 10:10:00 10.2 C 7.8 g/m*3 7.14 C 25.7 km/h
3004 07-03-2019 10:15:00 10.2 C 7.8 g/m*3 7.27 C 24.1 km/h
3005 07-03-2019 10:20:00 10.2 C 7.8 g/m*3 7.14 C 25.7 km/h
3006 07-03-2019 10:25:00 10.1 C 7.75 g/m*3 6.66 C 30.6 km/h
3007 07-03-2019 10:30:00 10.2 C 7.8 g/m*3 6.69 C 32.2 km/h
3008 07-03-2019 10:35:00 10.2 C 7.8 g/m*3 7.27 C 24.1 km/h
3009 07-03-2019 10:40:00 10.3 C 7.85 g/m*3 7.4 C 24.1 km/h
3010 07-03-2019 10:45:00 10.4 C 7.9 g/m*3 7.66 C 22.5 km/h
3011 07-03-2019 10:50:00 10.4 C 8 g/m*3 7.4 C 25.7 km/h
3012 07-03-2019 10:55:00 10.4 C 8.1 g/m*3 8.11 C 17.7 km/h
3013 07-03-2019 11:00:00 10.3 C 8.24 g/m*3 7.67 C 20.9 km/h
3014 07-03-2019 11:05:00 9.8 C 7.98 g/m*3 6.27 C 30.6 km/h
3015 07-03-2019 11:10:00 9.5 C 7.92 g/m*3 6.98 C 17.7 km/h
3016 07-03-2019 11:15:00 9.5 C 7.92 g/m*3 6.82 C 19.3 km/h
3017 07-03-2019 11:20:00 9.5 C 7.83 g/m*3 6.11 C 27.4 km/h
3018 07-03-2019 11:25:00 9.6 C 7.88 g/m*3 7.48 C 14.5 km/h
3019 07-03-2019 11:30:00 9.6 C 7.79 g/m*3 6.64 C 22.5 km/h
3020 07-03-2019 11:35:00 9.7 C 7.74 g/m*3 6.04 C 32.2 km/h
3021 07-03-2019 11:40:00 9.8 C 7.7 g/m*3 6.63 C 25.7 km/h
3022 07-03-2019 11:45:00 9.9 C 7.56 g/m*3 6.1 C 35.4 km/h
3023 07-03-2019 11:50:00 10.1 C 7.38 g/m*3 6.27 C 37 km/h
3024 07-03-2019 11:55:00 10.3 C 7.47 g/m*3 7.15 C 27.4 km/h
3025 07-03-2019 12:00:00 10.4 C 7.52 g/m*3 7.8 C 20.9 km/h
Sensor: Nr:Datum:Temp:Abs-Feuchte:Windchill:Wind:
Aussen-T/F 3026 07-03-2019 12:05:00 10.6 C 7.42 g/m*3 8.05 C 20.9 km/h
3027 07-03-2019 12:10:00 10.6 C 7.42 g/m*3 7.42 C 29 km/h
3028 07-03-2019 12:15:00 10.6 C 7.42 g/m*3 7.32 C 30.6 km/h
3029 07-03-2019 12:20:00 10.7 C 7.27 g/m*3 7.35 C 32.2 km/h
3030 07-03-2019 12:25:00 10.8 C 7.31 g/m*3 8.78 C 16.1 km/h
3031 07-03-2019 12:30:00 10.8 C 7.31 g/m*3 7.79 C 27.4 km/h
3032 07-03-2019 12:35:00 10.8 C 7.31 g/m*3 7.68 C 29 km/h
3033 07-03-2019 12:40:00 10.9 C 7.36 g/m*3 8.58 C 19.3 km/h
3034 07-03-2019 12:45:00 10.9 C 7.26 g/m*3 8.43 C 20.9 km/h
3035 07-03-2019 12:50:00 11 C 7.41 g/m*3 9.63 C 11.3 km/h
3036 07-03-2019 12:55:00 11.3 C 7.45 g/m*3 11.3 C 17.7 km/h
3037 07-03-2019 13:00:00 11.7 C 7.43 g/m*3 11.7 C 22.5 km/h
3038 07-03-2019 13:05:00 11.8 C 7.37 g/m*3 11.8 C 19.3 km/h
3039 07-03-2019 13:10:00 11.9 C 7.52 g/m*3 11.9 C 16.1 km/h
3040 07-03-2019 13:15:00 12.2 C 7.45 g/m*3 12.2 C 16.1 km/h
3041 07-03-2019 13:20:00 12.4 C 7.21 g/m*3 12.4 C 24.1 km/h
3042 07-03-2019 13:25:00 12.4 C 7.43 g/m*3 12.4 C 17.7 km/h
3043 07-03-2019 13:30:00 12.2 C 7.34 g/m*3 12.2 C 16.1 km/h
3044 07-03-2019 13:35:00 12 C 7.25 g/m*3 12 C 27.4 km/h
3045 07-03-2019 13:40:00 12 C 7.25 g/m*3 12 C 17.7 km/h
3046 07-03-2019 13:45:00 12.1 C 7.18 g/m*3 12.1 C 19.3 km/h
3047 07-03-2019 13:50:00 11.8 C 7.05 g/m*3 11.8 C 22.5 km/h
3048 07-03-2019 13:55:00 11.5 C 7.33 g/m*3 11.5 C 17.7 km/h
3049 07-03-2019 14:00:00 10.7 C 7.56 g/m*3 8.04 C 22.5 km/h
3050 07-03-2019 14:05:00 10.1 C 7.56 g/m*3 7.57 C 19.3 km/h
Sensor: Nr:Datum:Temp:Abs-Feuchte:Windchill:Wind:
Aussen-T/F 3051 07-03-2019 14:10:00 9.7 C 7.38 g/m*3 7.23 C 17.7 km/h
3052 07-03-2019 14:15:00 9.7 C 7.47 g/m*3 7.41 C 16.1 km/h
3053 07-03-2019 14:20:00 9.9 C 7.56 g/m*3 7.85 C 14.5 km/h
3054 07-03-2019 14:25:00 10.2 C 7.71 g/m*3 8.03 C 16.1 km/h
3055 07-03-2019 14:30:00 10.5 C 7.57 g/m*3 8.23 C 17.7 km/h
3056 07-03-2019 14:35:00 10.7 C 7.66 g/m*3 9.04 C 12.9 km/h
3057 07-03-2019 14:40:00 10.7 C 7.56 g/m*3 8.65 C 16.1 km/h
3058 07-03-2019 14:45:00 10.7 C 7.46 g/m*3 9.26 C 11.3 km/h
3059 07-03-2019 14:50:00 10.9 C 7.46 g/m*3 9.08 C 14.5 km/h
3060 07-03-2019 14:55:00 11.1 C 7.35 g/m*3 11.1 C 17.7 km/h
3061 07-03-2019 15:00:00 11.3 C 7.14 g/m*3 11.3 C 20.9 km/h
3062 07-03-2019 15:05:00 11.4 C 6.98 g/m*3 11.4 C 22.5 km/h
3063 07-03-2019 15:10:00 11.7 C 7.22 g/m*3 11.7 C 14.5 km/h
3064 07-03-2019 15:15:00 11.7 C 7.11 g/m*3 11.7 C 14.5 km/h
3065 07-03-2019 15:20:00 11.7 C 7.22 g/m*3 11.7 C 9.7 km/h
3066 07-03-2019 15:25:00 11.6 C 7.07 g/m*3 11.6 C 16.1 km/h
3067 07-03-2019 15:30:00 11.2 C 7.4 g/m*3 11.2 C 20.9 km/h
3068 07-03-2019 15:35:00 10.5 C 7.47 g/m*3 7.41 C 27.4 km/h
3069 07-03-2019 15:40:00 10 C 7.61 g/m*3 7.61 C 17.7 km/h
3070 07-03-2019 15:45:00 9.8 C 7.61 g/m*3 7.36 C 17.7 km/h
3071 07-03-2019 15:50:00 9.6 C 7.51 g/m*3 7.48 C 14.5 km/h
3072 07-03-2019 15:55:00 9.4 C 7.42 g/m*3 8.68 C 6.4 km/h
3073 07-03-2019 16:00:00 9.4 C 7.6 g/m*3 8.28 C 8.1 km/h
3074 07-03-2019 16:05:00 9.5 C 7.55 g/m*3 7.82 C 11.3 km/h
3075 07-03-2019 16:10:00 9.6 C 7.51 g/m*3 9.6 C 3.2 km/h
Sensor: Nr:Datum:Temp:Abs-Feuchte:Windchill:Wind:
Aussen-T/F 3076 07-03-2019 16:15:00 9.7 C 7.56 g/m*3 9.7 C 3.2 km/h
3077 07-03-2019 16:20:00 9.8 C 7.61 g/m*3 9.14 C 6.4 km/h
3078 07-03-2019 16:25:00 9.9 C 7.38 g/m*3 8.56 C 9.7 km/h
3079 07-03-2019 16:30:00 10.1 C 7.38 g/m*3 8.8 C 9.7 km/h
3080 07-03-2019 16:35:00 10.1 C 7 g/m*3 8.54 C 11.3 km/h
3081 07-03-2019 16:40:00 10.2 C 6.95 g/m*3 6.4 C 37 km/h
3082 07-03-2019 16:45:00 10.2 C 7.04 g/m*3 7.02 C 27.4 km/h
3083 07-03-2019 16:50:00 10.1 C 7.38 g/m*3 7.42 C 20.9 km/h
3084 07-03-2019 16:55:00 10 C 7.52 g/m*3 7.29 C 20.9 km/h
3085 07-03-2019 17:00:00 10 C 7.52 g/m*3 7.98 C 14.5 km/h
3086 07-03-2019 17:05:00 10.2 C 7.52 g/m*3 8.22 C 14.5 km/h
3087 07-03-2019 17:10:00 10.3 C 7.28 g/m*3 7.67 C 20.9 km/h
3088 07-03-2019 17:15:00 10.3 C 7.18 g/m*3 8.16 C 16.1 km/h
3089 07-03-2019 17:20:00 10.3 C 7.18 g/m*3 8.34 C 14.5 km/h
3090 07-03-2019 17:25:00 10.3 C 7.09 g/m*3 8.16 C 16.1 km/h
3091 07-03-2019 17:30:00 10.4 C 7.13 g/m*3 8.47 C 14.5 km/h
3092 07-03-2019 17:35:00 10.3 C 6.99 g/m*3 8.34 C 14.5 km/h
3093 07-03-2019 17:40:00 10.1 C 6.9 g/m*3 8.8 C 9.7 km/h
3094 07-03-2019 17:45:00 9.9 C 6.82 g/m*3 8.3 C 11.3 km/h
3095 07-03-2019 17:50:00 9.8 C 6.87 g/m*3 8.18 C 11.3 km/h
3096 07-03-2019 17:55:00 9.8 C 6.87 g/m*3 7.94 C 12.9 km/h
3097 07-03-2019 18:00:00 9.8 C 6.68 g/m*3 6.63 C 25.7 km/h
3098 07-03-2019 18:05:00 9.8 C 6.68 g/m*3 7.73 C 14.5 km/h
3099 07-03-2019 18:10:00 9.8 C 6.68 g/m*3 7.94 C 12.9 km/h
3100 07-03-2019 18:15:00 9.7 C 6.64 g/m*3 7.82 C 12.9 km/h
Sensor: Nr:Datum:Temp:Abs-Feuchte:Windchill:Wind:
Aussen-T/F 3101 07-03-2019 18:20:00 9.6 C 6.5 g/m*3 7.11 C 17.7 km/h
3102 07-03-2019 18:25:00 9.4 C 6.51 g/m*3 6.38 C 22.5 km/h
3103 07-03-2019 18:30:00 9.4 C 6.51 g/m*3 7.7 C 11.3 km/h
3104 07-03-2019 18:35:00 9.4 C 6.51 g/m*3 7.46 C 12.9 km/h
3105 07-03-2019 18:40:00 9.3 C 6.47 g/m*3 8.16 C 8.1 km/h
3106 07-03-2019 18:45:00 9.2 C 6.52 g/m*3 7.46 C 11.3 km/h
3107 07-03-2019 18:50:00 9.1 C 6.57 g/m*3 6.31 C 19.3 km/h
3108 07-03-2019 18:55:00 8.9 C 6.57 g/m*3 6.62 C 14.5 km/h
3109 07-03-2019 19:00:00 8.9 C 6.57 g/m*3 6.85 C 12.9 km/h
3110 07-03-2019 19:05:00 8.9 C 6.66 g/m*3 7.37 C 9.7 km/h
3111 07-03-2019 19:10:00 8.9 C 6.66 g/m*3 6.42 C 16.1 km/h
3112 07-03-2019 19:15:00 8.9 C 6.83 g/m*3 6.62 C 14.5 km/h
3113 07-03-2019 19:20:00 8.8 C 6.88 g/m*3 6.5 C 14.5 km/h
3114 07-03-2019 19:25:00 8.6 C 6.87 g/m*3 6.05 C 16.1 km/h
3115 07-03-2019 19:30:00 8.4 C 6.87 g/m*3 5.61 C 17.7 km/h
3116 07-03-2019 19:35:00 8.3 C 6.91 g/m*3 6.12 C 12.9 km/h
3117 07-03-2019 19:40:00 8.1 C 6.82 g/m*3 5.64 C 14.5 km/h
3118 07-03-2019 19:45:00 8 C 6.78 g/m*3 5.11 C 17.7 km/h
3119 07-03-2019 19:50:00 7.9 C 6.74 g/m*3 5.63 C 12.9 km/h
3120 07-03-2019 19:55:00 7.9 C 6.65 g/m*3 5.39 C 14.5 km/h
3121 07-03-2019 20:00:00 8.1 C 6.66 g/m*3 5.64 C 14.5 km/h
3122 07-03-2019 20:05:00 8.2 C 6.62 g/m*3 5.36 C 17.7 km/h
3123 07-03-2019 20:10:00 8.3 C 6.57 g/m*3 5.89 C 14.5 km/h
3124 07-03-2019 20:15:00 8.4 C 6.53 g/m*3 5.61 C 17.7 km/h
3125 07-03-2019 20:20:00 8.6 C 6.62 g/m*3 5.86 C 17.7 km/h
Sensor: Nr:Datum:Temp:Abs-Feuchte:Windchill:Wind:
Aussen-T/F 3126 07-03-2019 20:25:00 8.7 C 6.57 g/m*3 5.98 C 17.7 km/h
3127 07-03-2019 20:30:00 8.8 C 6.61 g/m*3 5.48 C 24.1 km/h
3128 07-03-2019 20:35:00 8.8 C 6.61 g/m*3 6.5 C 14.5 km/h
3129 07-03-2019 20:40:00 8.9 C 6.57 g/m*3 5.9 C 20.9 km/h
3130 07-03-2019 20:45:00 8.9 C 6.57 g/m*3 6.23 C 17.7 km/h
3131 07-03-2019 20:50:00 9 C 6.61 g/m*3 5.6 C 25.7 km/h
3132 07-03-2019 20:55:00 9 C 6.61 g/m*3 6.19 C 19.3 km/h
3133 07-03-2019 21:00:00 9.1 C 6.65 g/m*3 6.67 C 16.1 km/h
3134 07-03-2019 21:05:00 9.1 C 6.65 g/m*3 6 C 22.5 km/h
3135 07-03-2019 21:10:00 9.2 C 6.7 g/m*3 6.13 C 22.5 km/h
3136 07-03-2019 21:15:00 9.2 C 6.7 g/m*3 6.99 C 14.5 km/h
3137 07-03-2019 21:20:00 9.2 C 6.7 g/m*3 6.28 C 20.9 km/h
3138 07-03-2019 21:25:00 9.2 C 6.7 g/m*3 5.86 C 25.7 km/h
3139 07-03-2019 21:30:00 9.3 C 6.74 g/m*3 6.73 C 17.7 km/h
3140 07-03-2019 21:35:00 9.3 C 6.65 g/m*3 7.85 C 9.7 km/h
3141 07-03-2019 21:40:00 9.3 C 6.65 g/m*3 6.92 C 16.1 km/h
3142 07-03-2019 21:45:00 9.3 C 6.65 g/m*3 6.92 C 16.1 km/h
3143 07-03-2019 21:50:00 9.3 C 6.65 g/m*3 6.92 C 16.1 km/h
3144 07-03-2019 21:55:00 9.3 C 6.65 g/m*3 6.26 C 22.5 km/h
3145 07-03-2019 22:00:00 9.4 C 6.69 g/m*3 6.38 C 22.5 km/h
3146 07-03-2019 22:05:00 9.4 C 6.69 g/m*3 6.86 C 17.7 km/h
3147 07-03-2019 22:10:00 9.4 C 6.69 g/m*3 6.69 C 19.3 km/h
3148 07-03-2019 22:15:00 9.4 C 6.78 g/m*3 6.53 C 20.9 km/h
3149 07-03-2019 22:20:00 9.3 C 6.74 g/m*3 7.12 C 14.5 km/h
3150 07-03-2019 22:25:00 9.2 C 6.7 g/m*3 6.44 C 19.3 km/h
Sensor: Nr:Datum:Temp:Abs-Feuchte:Windchill:Wind:
Aussen-T/F 3151 07-03-2019 22:30:00 9.2 C 6.7 g/m*3 6.44 C 19.3 km/h
3152 07-03-2019 22:35:00 9.1 C 6.65 g/m*3 6.87 C 14.5 km/h
3153 07-03-2019 22:40:00 9.1 C 6.65 g/m*3 6.48 C 17.7 km/h
3154 07-03-2019 22:45:00 9 C 6.61 g/m*3 6.19 C 19.3 km/h
3155 07-03-2019 22:50:00 9 C 6.61 g/m*3 6.75 C 14.5 km/h
3156 07-03-2019 22:55:00 8.9 C 6.57 g/m*3 6.62 C 14.5 km/h
3157 07-03-2019 23:00:00 8.9 C 6.57 g/m*3 6.42 C 16.1 km/h
3158 07-03-2019 23:05:00 8.8 C 6.53 g/m*3 6.5 C 14.5 km/h
3159 07-03-2019 23:10:00 8.7 C 6.57 g/m*3 6.17 C 16.1 km/h
3160 07-03-2019 23:15:00 8.7 C 6.57 g/m*3 7.13 C 9.7 km/h
3161 07-03-2019 23:20:00 8.5 C 6.57 g/m*3 7.22 C 8.1 km/h
3162 07-03-2019 23:25:00 8.5 C 6.57 g/m*3 5.73 C 17.7 km/h
3163 07-03-2019 23:30:00 8.5 C 6.57 g/m*3 5.92 C 16.1 km/h
3164 07-03-2019 23:35:00 8.6 C 6.62 g/m*3 6.73 C 11.3 km/h
3165 07-03-2019 23:40:00 8.6 C 6.62 g/m*3 7.34 C 8.1 km/h
3166 07-03-2019 23:45:00 8.7 C 6.75 g/m*3 6.38 C 14.5 km/h
3167 07-03-2019 23:50:00 8.7 C 6.83 g/m*3 6.6 C 12.9 km/h
3168 07-03-2019 23:55:00 8.5 C 6.74 g/m*3 6.61 C 11.3 km/h
3169 08-03-2019 00:00:00 8.3 C 6.74 g/m*3 6.37 C 11.3 km/h
3170 08-03-2019 00:05:00 8.2 C 6.7 g/m*3 5.99 C 12.9 km/h
3171 08-03-2019 00:10:00 8.2 C 6.78 g/m*3 6.25 C 11.3 km/h
3172 08-03-2019 00:15:00 8.2 C 6.87 g/m*3 6.54 C 9.7 km/h
3173 08-03-2019 00:20:00 8 C 6.94 g/m*3 4.93 C 19.3 km/h
3174 08-03-2019 00:25:00 7.8 C 6.94 g/m*3 6.06 C 9.7 km/h
3175 08-03-2019 00:30:00 7.6 C 6.93 g/m*3 5.53 C 11.3 km/h
Sensor: Nr:Datum:Temp:Abs-Feuchte:Windchill:Wind:
Aussen-T/F 3176 08-03-2019 00:35:00 7.4 C 6.84 g/m*3 7.4 C 4.8 km/h
3177 08-03-2019 00:40:00 7.3 C 6.79 g/m*3 5.47 C 9.7 km/h
3178 08-03-2019 00:45:00 7.1 C 6.79 g/m*3 5.58 C 8.1 km/h
3179 08-03-2019 00:50:00 6.9 C 6.7 g/m*3 5.79 C 6.4 km/h
3180 08-03-2019 00:55:00 6.9 C 6.7 g/m*3 6.9 C 3.2 km/h
3181 08-03-2019 01:00:00 6.8 C 6.65 g/m*3 4.87 C 9.7 km/h
3182 08-03-2019 01:05:00 6.8 C 6.65 g/m*3 5.22 C 8.1 km/h
3183 08-03-2019 01:10:00 6.8 C 6.65 g/m*3 6.8 C 3.2 km/h
3184 08-03-2019 01:15:00 6.8 C 6.65 g/m*3 4.87 C 9.7 km/h
3185 08-03-2019 01:20:00 6.9 C 6.7 g/m*3 6.9 C 4.8 km/h
3186 08-03-2019 01:25:00 6.9 C 6.7 g/m*3 6.9 C 1.6 km/h
3187 08-03-2019 01:30:00 7 C 6.74 g/m*3 7 C 4.8 km/h
3188 08-03-2019 01:35:00 7.1 C 6.71 g/m*3 3.98 C 17.7 km/h
3189 08-03-2019 01:40:00 7.2 C 6.67 g/m*3 4.11 C 17.7 km/h
3190 08-03-2019 01:45:00 7.3 C 6.72 g/m*3 4.9 C 12.9 km/h
3191 08-03-2019 01:50:00 7.4 C 6.68 g/m*3 4.36 C 17.7 km/h
3192 08-03-2019 01:55:00 7.7 C 6.65 g/m*3 3.78 C 27.4 km/h
3193 08-03-2019 02:00:00 7.9 C 6.57 g/m*3 4.63 C 20.9 km/h
3194 08-03-2019 02:05:00 8 C 6.53 g/m*3 5.11 C 17.7 km/h
3195 08-03-2019 02:10:00 8.1 C 6.57 g/m*3 5.87 C 12.9 km/h
3196 08-03-2019 02:15:00 8.1 C 6.49 g/m*3 4.89 C 20.9 km/h
3197 08-03-2019 02:20:00 8.1 C 6.49 g/m*3 6.42 C 9.7 km/h
3198 08-03-2019 02:25:00 8.2 C 6.45 g/m*3 5.76 C 14.5 km/h
3199 08-03-2019 02:30:00 8.2 C 6.45 g/m*3 5.55 C 16.1 km/h
3200 08-03-2019 02:35:00 8.3 C 6.41 g/m*3 5.68 C 16.1 km/h
Sensor: Nr:Datum:Temp:Abs-Feuchte:Windchill:Wind:
Aussen-T/F 3201 08-03-2019 02:40:00 8.3 C 6.41 g/m*3 5.48 C 17.7 km/h
3202 08-03-2019 02:45:00 8.3 C 6.41 g/m*3 4.98 C 22.5 km/h
3203 08-03-2019 02:50:00 8.2 C 6.36 g/m*3 5.36 C 17.7 km/h
3204 08-03-2019 02:55:00 8.2 C 6.36 g/m*3 5.01 C 20.9 km/h
3205 08-03-2019 03:00:00 8.2 C 6.36 g/m*3 5.76 C 14.5 km/h
3206 08-03-2019 03:05:00 8.2 C 6.36 g/m*3 5.99 C 12.9 km/h
3207 08-03-2019 03:10:00 8.2 C 6.36 g/m*3 5.18 C 19.3 km/h
3208 08-03-2019 03:15:00 8.3 C 6.32 g/m*3 5.31 C 19.3 km/h
3209 08-03-2019 03:20:00 8.2 C 6.28 g/m*3 5.01 C 20.9 km/h
3210 08-03-2019 03:25:00 8.2 C 6.2 g/m*3 5.55 C 16.1 km/h
3211 08-03-2019 03:30:00 8.1 C 6.24 g/m*3 5.23 C 17.7 km/h
3212 08-03-2019 03:35:00 8.1 C 6.24 g/m*3 5.23 C 17.7 km/h
3213 08-03-2019 03:40:00 8.1 C 6.24 g/m*3 5.64 C 14.5 km/h
3214 08-03-2019 03:45:00 8.1 C 6.24 g/m*3 4.89 C 20.9 km/h
3215 08-03-2019 03:50:00 8.1 C 6.24 g/m*3 5.05 C 19.3 km/h
3216 08-03-2019 03:55:00 8 C 6.2 g/m*3 5.52 C 14.5 km/h
3217 08-03-2019 04:00:00 8 C 6.28 g/m*3 5.3 C 16.1 km/h
3218 08-03-2019 04:05:00 8 C 6.28 g/m*3 6.01 C 11.3 km/h
3219 08-03-2019 04:10:00 8 C 6.28 g/m*3 5.75 C 12.9 km/h
3220 08-03-2019 04:15:00 8 C 6.28 g/m*3 5.75 C 12.9 km/h
3221 08-03-2019 04:20:00 8.1 C 6.32 g/m*3 5.23 C 17.7 km/h